<?xml version='1.0' encoding='UTF-8'?><gpx version="1.1" creator="JPX - https://github.com/jenetics/jpx" xmlns="http://www.topografix.com/GPX/1/1"><trk><trkseg><trkpt lat="38.0928352" lon="13.5045751"><ele>41.0</ele><time>2026-04-26T13:51:47.074Z</time></trkpt><trkpt lat="38.0927649" lon="13.5045816"><ele>41.0</ele><time>2026-04-26T13:51:48.074Z</time></trkpt><trkpt lat="38.0927002" lon="13.5045925"><ele>41.0</ele><time>2026-04-26T13:51:49.074Z</time></trkpt><trkpt lat="38.0926317" lon="13.5046049"><ele>41.0</ele><time>2026-04-26T13:51:50.074Z</time></trkpt><trkpt lat="38.0925492" lon="13.5046238"><ele>41.0</ele><time>2026-04-26T13:51:51.074Z</time></trkpt><trkpt lat="38.0924544" lon="13.5046394"><ele>41.0</ele><time>2026-04-26T13:51:52.074Z</time></trkpt><trkpt lat="38.0923552" lon="13.5046527"><ele>41.199999999999996</ele><time>2026-04-26T13:51:53.074Z</time></trkpt><trkpt lat="38.0922531" lon="13.5046675"><ele>41.4</ele><time>2026-04-26T13:51:54.074Z</time></trkpt><trkpt lat="38.0921469" lon="13.5046903"><ele>41.6</ele><time>2026-04-26T13:51:55.074Z</time></trkpt><trkpt lat="38.0920418" lon="13.5047046"><ele>41.8</ele><time>2026-04-26T13:51:56.074Z</time></trkpt><trkpt lat="38.0919337" lon="13.5047188"><ele>42.0</ele><time>2026-04-26T13:51:57.074Z</time></trkpt><trkpt lat="38.0918196" lon="13.5047413"><ele>42.0</ele><time>2026-04-26T13:51:58.073Z</time></trkpt><trkpt lat="38.0917006" lon="13.5047622"><ele>42.0</ele><time>2026-04-26T13:51:59.074Z</time></trkpt><trkpt lat="38.0915796" lon="13.5047831"><ele>42.0</ele><time>2026-04-26T13:52:00.073Z</time></trkpt><trkpt lat="38.0914536" lon="13.5048066"><ele>42.0</ele><time>2026-04-26T13:52:01.073Z</time></trkpt><trkpt lat="38.0913289" lon="13.5048326"><ele>43.5</ele><time>2026-04-26T13:52:02.073Z</time></trkpt><trkpt lat="38.0912033" lon="13.5048552"><ele>45.0</ele><time>2026-04-26T13:52:03.074Z</time></trkpt><trkpt lat="38.091083" lon="13.5048814"><ele>46.5</ele><time>2026-04-26T13:52:04.073Z</time></trkpt><trkpt lat="38.0909698" lon="13.504901"><ele>48.0</ele><time>2026-04-26T13:52:05.073Z</time></trkpt><trkpt lat="38.0908625" lon="13.5049175"><ele>48.333333333333336</ele><time>2026-04-26T13:52:06.073Z</time></trkpt><trkpt lat="38.0907569" lon="13.5049386"><ele>48.66666666666667</ele><time>2026-04-26T13:52:07.073Z</time></trkpt><trkpt lat="38.0906563" lon="13.5049597"><ele>49.0</ele><time>2026-04-26T13:52:08.073Z</time></trkpt><trkpt lat="38.0905635" lon="13.5049744"><ele>49.333333333333336</ele><time>2026-04-26T13:52:09.073Z</time></trkpt><trkpt lat="38.0904881" lon="13.5049842"><ele>49.66666666666667</ele><time>2026-04-26T13:52:10.073Z</time></trkpt><trkpt lat="38.0904257" lon="13.5049951"><ele>50.0</ele><time>2026-04-26T13:52:11.073Z</time></trkpt><trkpt lat="38.0903233" lon="13.505006"><ele>50.0</ele><time>2026-04-26T13:52:13.073Z</time></trkpt><trkpt lat="38.0902374" lon="13.5050216"><ele>50.0</ele><time>2026-04-26T13:52:15.073Z</time></trkpt><trkpt lat="38.0901532" lon="13.5050463"><ele>50.0</ele><time>2026-04-26T13:52:17.073Z</time></trkpt><trkpt lat="38.0900401" lon="13.5050651"><ele>50.0</ele><time>2026-04-26T13:52:19.073Z</time></trkpt><trkpt lat="38.0899726" lon="13.5050694"><ele>50.0</ele><time>2026-04-26T13:52:21.073Z</time></trkpt><trkpt lat="38.0898573" lon="13.5050909"><ele>50.2</ele><time>2026-04-26T13:52:27.073Z</time></trkpt><trkpt lat="38.0897834" lon="13.5051189"><ele>50.4</ele><time>2026-04-26T13:52:29.073Z</time></trkpt><trkpt lat="38.0896615" lon="13.5051324"><ele>50.599999999999994</ele><time>2026-04-26T13:52:37.074Z</time></trkpt><trkpt lat="38.0895661" lon="13.5051542"><ele>50.8</ele><time>2026-04-26T13:52:38.073Z</time></trkpt><trkpt lat="38.0894678" lon="13.5051752"><ele>51.0</ele><time>2026-04-26T13:52:39.073Z</time></trkpt><trkpt lat="38.089378" lon="13.5051922"><ele>51.0</ele><time>2026-04-26T13:52:40.074Z</time></trkpt><trkpt lat="38.0893064" lon="13.5052049"><ele>51.0</ele><time>2026-04-26T13:52:41.073Z</time></trkpt><trkpt lat="38.0892004" lon="13.5052179"><ele>51.0</ele><time>2026-04-26T13:52:43.073Z</time></trkpt><trkpt lat="38.089119" lon="13.5052296"><ele>51.0</ele><time>2026-04-26T13:52:45.074Z</time></trkpt><trkpt lat="38.0890269" lon="13.5052473"><ele>51.0</ele><time>2026-04-26T13:52:47.073Z</time></trkpt><trkpt lat="38.088911" lon="13.5052722"><ele>51.5</ele><time>2026-04-26T13:52:49.073Z</time></trkpt><trkpt lat="38.0887902" lon="13.5052956"><ele>52.0</ele><time>2026-04-26T13:52:51.073Z</time></trkpt><trkpt lat="38.0886937" lon="13.5053133"><ele>52.5</ele><time>2026-04-26T13:52:53.073Z</time></trkpt><trkpt lat="38.0885899" lon="13.5053217"><ele>53.0</ele><time>2026-04-26T13:52:55.073Z</time></trkpt><trkpt lat="38.0884631" lon="13.505342"><ele>53.0</ele><time>2026-04-26T13:52:57.073Z</time></trkpt><trkpt lat="38.0883948" lon="13.5053572"><ele>53.0</ele><time>2026-04-26T13:52:58.073Z</time></trkpt><trkpt lat="38.0883269" lon="13.5053715"><ele>53.0</ele><time>2026-04-26T13:52:59.073Z</time></trkpt><trkpt lat="38.0882585" lon="13.5053831"><ele>53.0</ele><time>2026-04-26T13:53:00.073Z</time></trkpt><trkpt lat="38.08819" lon="13.5053984"><ele>53.0</ele><time>2026-04-26T13:53:01.073Z</time></trkpt><trkpt lat="38.0881195" lon="13.5054103"><ele>53.0</ele><time>2026-04-26T13:53:02.074Z</time></trkpt><trkpt lat="38.0880475" lon="13.5054219"><ele>53.0</ele><time>2026-04-26T13:53:03.073Z</time></trkpt><trkpt lat="38.0879733" lon="13.5054363"><ele>53.833333333333336</ele><time>2026-04-26T13:53:04.073Z</time></trkpt><trkpt lat="38.0878946" lon="13.5054534"><ele>54.66666666666667</ele><time>2026-04-26T13:53:05.073Z</time></trkpt><trkpt lat="38.0878122" lon="13.5054657"><ele>55.5</ele><time>2026-04-26T13:53:06.073Z</time></trkpt><trkpt lat="38.0877294" lon="13.5054814"><ele>56.33333333333333</ele><time>2026-04-26T13:53:07.073Z</time></trkpt><trkpt lat="38.0876434" lon="13.5054983"><ele>57.166666666666664</ele><time>2026-04-26T13:53:08.073Z</time></trkpt><trkpt lat="38.0875503" lon="13.5055134"><ele>58.0</ele><time>2026-04-26T13:53:09.074Z</time></trkpt><trkpt lat="38.0874564" lon="13.5055317"><ele>58.0</ele><time>2026-04-26T13:53:10.073Z</time></trkpt><trkpt lat="38.0873591" lon="13.5055429"><ele>58.0</ele><time>2026-04-26T13:53:11.074Z</time></trkpt><trkpt lat="38.0872675" lon="13.5055619"><ele>58.0</ele><time>2026-04-26T13:53:12.073Z</time></trkpt><trkpt lat="38.0871784" lon="13.5055809"><ele>58.0</ele><time>2026-04-26T13:53:13.073Z</time></trkpt><trkpt lat="38.0870905" lon="13.5055989"><ele>58.0</ele><time>2026-04-26T13:53:14.073Z</time></trkpt><trkpt lat="38.0870022" lon="13.5056111"><ele>57.99999999999999</ele><time>2026-04-26T13:53:15.073Z</time></trkpt><trkpt lat="38.0869214" lon="13.5056143"><ele>58.0</ele><time>2026-04-26T13:53:16.073Z</time></trkpt><trkpt lat="38.0868391" lon="13.5056207"><ele>58.0</ele><time>2026-04-26T13:53:17.074Z</time></trkpt><trkpt lat="38.0867567" lon="13.5056334"><ele>58.0</ele><time>2026-04-26T13:53:18.073Z</time></trkpt><trkpt lat="38.0866719" lon="13.5056481"><ele>57.99999999999999</ele><time>2026-04-26T13:53:19.073Z</time></trkpt><trkpt lat="38.0865888" lon="13.505674"><ele>58.0</ele><time>2026-04-26T13:53:20.073Z</time></trkpt><trkpt lat="38.0865063" lon="13.5056974"><ele>59.0</ele><time>2026-04-26T13:53:21.073Z</time></trkpt><trkpt lat="38.0864225" lon="13.50572"><ele>60.0</ele><time>2026-04-26T13:53:22.073Z</time></trkpt><trkpt lat="38.0863362" lon="13.5057375"><ele>61.0</ele><time>2026-04-26T13:53:23.073Z</time></trkpt><trkpt lat="38.086242" lon="13.5057537"><ele>62.0</ele><time>2026-04-26T13:53:24.074Z</time></trkpt><trkpt lat="38.0861456" lon="13.5057602"><ele>63.0</ele><time>2026-04-26T13:53:25.073Z</time></trkpt><trkpt lat="38.086046" lon="13.5057687"><ele>63.0</ele><time>2026-04-26T13:53:26.073Z</time></trkpt><trkpt lat="38.0859456" lon="13.505779"><ele>63.0</ele><time>2026-04-26T13:53:27.073Z</time></trkpt><trkpt lat="38.0858402" lon="13.5057887"><ele>63.0</ele><time>2026-04-26T13:53:28.073Z</time></trkpt><trkpt lat="38.0857318" lon="13.5058093"><ele>63.0</ele><time>2026-04-26T13:53:29.073Z</time></trkpt><trkpt lat="38.0856171" lon="13.5058289"><ele>63.0</ele><time>2026-04-26T13:53:30.073Z</time></trkpt><trkpt lat="38.0855008" lon="13.5058493"><ele>63.0</ele><time>2026-04-26T13:53:31.073Z</time></trkpt><trkpt lat="38.0853926" lon="13.5058724"><ele>63.0</ele><time>2026-04-26T13:53:32.073Z</time></trkpt><trkpt lat="38.0852876" lon="13.5058912"><ele>63.0</ele><time>2026-04-26T13:53:33.074Z</time></trkpt><trkpt lat="38.0851852" lon="13.5059111"><ele>63.0</ele><time>2026-04-26T13:53:34.073Z</time></trkpt><trkpt lat="38.0850816" lon="13.5059292"><ele>63.0</ele><time>2026-04-26T13:53:35.073Z</time></trkpt><trkpt lat="38.0849757" lon="13.5059455"><ele>63.8</ele><time>2026-04-26T13:53:36.073Z</time></trkpt><trkpt lat="38.0848692" lon="13.505963"><ele>64.6</ele><time>2026-04-26T13:53:37.073Z</time></trkpt><trkpt lat="38.0847674" lon="13.5059837"><ele>65.4</ele><time>2026-04-26T13:53:38.073Z</time></trkpt><trkpt lat="38.0846754" lon="13.5059983"><ele>66.2</ele><time>2026-04-26T13:53:39.073Z</time></trkpt><trkpt lat="38.0845952" lon="13.5060113"><ele>67.0</ele><time>2026-04-26T13:53:40.073Z</time></trkpt><trkpt lat="38.0845269" lon="13.5060241"><ele>67.0</ele><time>2026-04-26T13:53:41.073Z</time></trkpt><trkpt lat="38.0844629" lon="13.5060321"><ele>67.0</ele><time>2026-04-26T13:53:42.073Z</time></trkpt><trkpt lat="38.0843922" lon="13.5060384"><ele>67.0</ele><time>2026-04-26T13:53:43.073Z</time></trkpt><trkpt lat="38.0843042" lon="13.5060551"><ele>67.0</ele><time>2026-04-26T13:53:44.073Z</time></trkpt><trkpt lat="38.0841981" lon="13.5060755"><ele>67.0</ele><time>2026-04-26T13:53:45.073Z</time></trkpt><trkpt lat="38.0840816" lon="13.5060916"><ele>67.0</ele><time>2026-04-26T13:53:46.074Z</time></trkpt><trkpt lat="38.0839564" lon="13.5061195"><ele>67.0</ele><time>2026-04-26T13:53:47.073Z</time></trkpt><trkpt lat="38.0838279" lon="13.5061463"><ele>67.0</ele><time>2026-04-26T13:53:48.073Z</time></trkpt><trkpt lat="38.083694" lon="13.506172"><ele>67.0</ele><time>2026-04-26T13:53:49.073Z</time></trkpt><trkpt lat="38.0835566" lon="13.5061979"><ele>67.0</ele><time>2026-04-26T13:53:50.073Z</time></trkpt><trkpt lat="38.0834162" lon="13.5062243"><ele>67.5</ele><time>2026-04-26T13:53:51.073Z</time></trkpt><trkpt lat="38.0832705" lon="13.5062477"><ele>68.0</ele><time>2026-04-26T13:53:52.073Z</time></trkpt><trkpt lat="38.0831259" lon="13.5062764"><ele>68.5</ele><time>2026-04-26T13:53:53.073Z</time></trkpt><trkpt lat="38.0829816" lon="13.5063041"><ele>69.0</ele><time>2026-04-26T13:53:54.073Z</time></trkpt><trkpt lat="38.0828363" lon="13.5063285"><ele>70.33333333333333</ele><time>2026-04-26T13:53:55.073Z</time></trkpt><trkpt lat="38.0826892" lon="13.5063566"><ele>71.66666666666666</ele><time>2026-04-26T13:53:56.073Z</time></trkpt><trkpt lat="38.0825376" lon="13.5063842"><ele>73.0</ele><time>2026-04-26T13:53:57.073Z</time></trkpt><trkpt lat="38.0823869" lon="13.5064091"><ele>73.25</ele><time>2026-04-26T13:53:58.073Z</time></trkpt><trkpt lat="38.082237" lon="13.5064352"><ele>73.5</ele><time>2026-04-26T13:53:59.073Z</time></trkpt><trkpt lat="38.0820992" lon="13.5064613"><ele>73.75</ele><time>2026-04-26T13:54:00.073Z</time></trkpt><trkpt lat="38.0819717" lon="13.5064824"><ele>74.0</ele><time>2026-04-26T13:54:01.074Z</time></trkpt><trkpt lat="38.0818545" lon="13.5065016"><ele>74.0</ele><time>2026-04-26T13:54:02.073Z</time></trkpt><trkpt lat="38.0817487" lon="13.5065188"><ele>74.0</ele><time>2026-04-26T13:54:03.073Z</time></trkpt><trkpt lat="38.0816463" lon="13.5065317"><ele>74.0</ele><time>2026-04-26T13:54:04.073Z</time></trkpt><trkpt lat="38.0815626" lon="13.5065397"><ele>74.0</ele><time>2026-04-26T13:54:05.073Z</time></trkpt><trkpt lat="38.0814785" lon="13.5065577"><ele>74.0</ele><time>2026-04-26T13:54:06.073Z</time></trkpt><trkpt lat="38.08138" lon="13.5065841"><ele>74.8</ele><time>2026-04-26T13:54:07.074Z</time></trkpt><trkpt lat="38.08127" lon="13.5066112"><ele>75.60000000000001</ele><time>2026-04-26T13:54:08.073Z</time></trkpt><trkpt lat="38.0811577" lon="13.5066357"><ele>76.4</ele><time>2026-04-26T13:54:09.073Z</time></trkpt><trkpt lat="38.0810514" lon="13.506654"><ele>77.2</ele><time>2026-04-26T13:54:10.073Z</time></trkpt><trkpt lat="38.0809525" lon="13.5066691"><ele>78.0</ele><time>2026-04-26T13:54:11.073Z</time></trkpt><trkpt lat="38.08086" lon="13.5066822"><ele>78.0</ele><time>2026-04-26T13:54:12.073Z</time></trkpt><trkpt lat="38.0807721" lon="13.5066965"><ele>78.0</ele><time>2026-04-26T13:54:13.073Z</time></trkpt><trkpt lat="38.080682" lon="13.506707"><ele>78.0</ele><time>2026-04-26T13:54:14.073Z</time></trkpt><trkpt lat="38.0806009" lon="13.5067143"><ele>78.0</ele><time>2026-04-26T13:54:15.074Z</time></trkpt><trkpt lat="38.080535" lon="13.5067286"><ele>78.0</ele><time>2026-04-26T13:54:16.073Z</time></trkpt><trkpt lat="38.0804342" lon="13.5067484"><ele>78.0</ele><time>2026-04-26T13:54:18.073Z</time></trkpt><trkpt lat="38.080356" lon="13.5067256"><ele>77.66666666666667</ele><time>2026-04-26T13:54:20.073Z</time></trkpt><trkpt lat="38.0803147" lon="13.5066293"><ele>77.33333333333333</ele><time>2026-04-26T13:54:23.073Z</time></trkpt><trkpt lat="38.0802958" lon="13.5064935"><ele>77.0</ele><time>2026-04-26T13:54:25.074Z</time></trkpt><trkpt lat="38.0802918" lon="13.5063961"><ele>76.66666666666666</ele><time>2026-04-26T13:54:26.074Z</time></trkpt><trkpt lat="38.0802845" lon="13.5062993"><ele>76.33333333333333</ele><time>2026-04-26T13:54:27.073Z</time></trkpt><trkpt lat="38.0802776" lon="13.5062002"><ele>76.0</ele><time>2026-04-26T13:54:28.073Z</time></trkpt><trkpt lat="38.0802651" lon="13.5060855"><ele>76.0</ele><time>2026-04-26T13:54:29.073Z</time></trkpt><trkpt lat="38.0802529" lon="13.5059509"><ele>76.0</ele><time>2026-04-26T13:54:30.073Z</time></trkpt><trkpt lat="38.0802385" lon="13.5058099"><ele>76.0</ele><time>2026-04-26T13:54:31.073Z</time></trkpt><trkpt lat="38.0802217" lon="13.505668"><ele>76.0</ele><time>2026-04-26T13:54:32.074Z</time></trkpt><trkpt lat="38.0802084" lon="13.5055298"><ele>76.0</ele><time>2026-04-26T13:54:33.073Z</time></trkpt><trkpt lat="38.0801923" lon="13.5054075"><ele>75.6</ele><time>2026-04-26T13:54:34.073Z</time></trkpt><trkpt lat="38.0801852" lon="13.5052945"><ele>75.19999999999999</ele><time>2026-04-26T13:54:35.074Z</time></trkpt><trkpt lat="38.0801737" lon="13.5051764"><ele>74.80000000000001</ele><time>2026-04-26T13:54:36.073Z</time></trkpt><trkpt lat="38.0801563" lon="13.5050557"><ele>74.4</ele><time>2026-04-26T13:54:37.073Z</time></trkpt><trkpt lat="38.0801398" lon="13.5049337"><ele>74.0</ele><time>2026-04-26T13:54:38.073Z</time></trkpt><trkpt lat="38.0801232" lon="13.5048223"><ele>74.0</ele><time>2026-04-26T13:54:39.073Z</time></trkpt><trkpt lat="38.0801152" lon="13.5047217"><ele>74.0</ele><time>2026-04-26T13:54:40.073Z</time></trkpt><trkpt lat="38.0801057" lon="13.5046258"><ele>74.0</ele><time>2026-04-26T13:54:41.073Z</time></trkpt><trkpt lat="38.0800995" lon="13.5045426"><ele>74.0</ele><time>2026-04-26T13:54:42.073Z</time></trkpt><trkpt lat="38.0800986" lon="13.5044563"><ele>74.0</ele><time>2026-04-26T13:54:43.073Z</time></trkpt><trkpt lat="38.0800871" lon="13.5043397"><ele>74.0</ele><time>2026-04-26T13:54:44.073Z</time></trkpt><trkpt lat="38.0800699" lon="13.5041963"><ele>73.5</ele><time>2026-04-26T13:54:45.073Z</time></trkpt><trkpt lat="38.0800549" lon="13.5040561"><ele>73.0</ele><time>2026-04-26T13:54:46.073Z</time></trkpt><trkpt lat="38.0800379" lon="13.5039078"><ele>72.5</ele><time>2026-04-26T13:54:47.073Z</time></trkpt><trkpt lat="38.0800201" lon="13.5037526"><ele>72.0</ele><time>2026-04-26T13:54:48.074Z</time></trkpt><trkpt lat="38.0800011" lon="13.5036006"><ele>71.5</ele><time>2026-04-26T13:54:49.073Z</time></trkpt><trkpt lat="38.0799803" lon="13.5034532"><ele>71.0</ele><time>2026-04-26T13:54:50.073Z</time></trkpt><trkpt lat="38.0799604" lon="13.50331"><ele>70.5</ele><time>2026-04-26T13:54:51.073Z</time></trkpt><trkpt lat="38.0799466" lon="13.5031689"><ele>70.0</ele><time>2026-04-26T13:54:52.074Z</time></trkpt><trkpt lat="38.0799291" lon="13.5030265"><ele>72.2</ele><time>2026-04-26T13:54:53.073Z</time></trkpt><trkpt lat="38.0799101" lon="13.5028848"><ele>74.4</ele><time>2026-04-26T13:54:54.073Z</time></trkpt><trkpt lat="38.0798893" lon="13.5027552"><ele>76.6</ele><time>2026-04-26T13:54:55.073Z</time></trkpt><trkpt lat="38.0798711" lon="13.5026336"><ele>78.8</ele><time>2026-04-26T13:54:56.073Z</time></trkpt><trkpt lat="38.079858" lon="13.5025211"><ele>81.0</ele><time>2026-04-26T13:54:57.073Z</time></trkpt><trkpt lat="38.0798485" lon="13.5024149"><ele>81.0</ele><time>2026-04-26T13:54:58.073Z</time></trkpt><trkpt lat="38.0798374" lon="13.5023305"><ele>81.0</ele><time>2026-04-26T13:54:59.073Z</time></trkpt><trkpt lat="38.0798183" lon="13.5022103"><ele>81.0</ele><time>2026-04-26T13:55:01.073Z</time></trkpt><trkpt lat="38.0797976" lon="13.5020773"><ele>81.0</ele><time>2026-04-26T13:55:10.073Z</time></trkpt><trkpt lat="38.0797665" lon="13.5020043"><ele>81.0</ele><time>2026-04-26T13:55:11.073Z</time></trkpt><trkpt lat="38.0797372" lon="13.5019304"><ele>81.0</ele><time>2026-04-26T13:55:12.073Z</time></trkpt><trkpt lat="38.0797134" lon="13.5018474"><ele>80.6</ele><time>2026-04-26T13:55:13.073Z</time></trkpt><trkpt lat="38.0796988" lon="13.5017451"><ele>80.19999999999999</ele><time>2026-04-26T13:55:14.073Z</time></trkpt><trkpt lat="38.0796893" lon="13.5016322"><ele>79.80000000000001</ele><time>2026-04-26T13:55:15.073Z</time></trkpt><trkpt lat="38.0796801" lon="13.5015169"><ele>79.4</ele><time>2026-04-26T13:55:16.073Z</time></trkpt><trkpt lat="38.0796692" lon="13.501397"><ele>79.0</ele><time>2026-04-26T13:55:17.073Z</time></trkpt><trkpt lat="38.0796506" lon="13.5012501"><ele>77.0</ele><time>2026-04-26T13:55:18.073Z</time></trkpt><trkpt lat="38.0796291" lon="13.50111"><ele>75.0</ele><time>2026-04-26T13:55:19.073Z</time></trkpt><trkpt lat="38.0796114" lon="13.5009881"><ele>73.0</ele><time>2026-04-26T13:55:20.073Z</time></trkpt><trkpt lat="38.0795925" lon="13.5009022"><ele>71.0</ele><time>2026-04-26T13:55:21.073Z</time></trkpt><trkpt lat="38.079523" lon="13.5008135"><ele>69.0</ele><time>2026-04-26T13:55:23.074Z</time></trkpt><trkpt lat="38.0794516" lon="13.5008168"><ele>69.0</ele><time>2026-04-26T13:55:24.073Z</time></trkpt><trkpt lat="38.0793586" lon="13.5008371"><ele>69.0</ele><time>2026-04-26T13:55:25.073Z</time></trkpt><trkpt lat="38.079252" lon="13.5008584"><ele>69.0</ele><time>2026-04-26T13:55:26.073Z</time></trkpt><trkpt lat="38.0791363" lon="13.500882"><ele>69.0</ele><time>2026-04-26T13:55:27.073Z</time></trkpt><trkpt lat="38.079017" lon="13.5009067"><ele>69.0</ele><time>2026-04-26T13:55:28.074Z</time></trkpt><trkpt lat="38.0788934" lon="13.5009267"><ele>70.0</ele><time>2026-04-26T13:55:29.073Z</time></trkpt><trkpt lat="38.0787657" lon="13.5009502"><ele>71.0</ele><time>2026-04-26T13:55:30.073Z</time></trkpt><trkpt lat="38.0786286" lon="13.5009702"><ele>72.0</ele><time>2026-04-26T13:55:31.073Z</time></trkpt><trkpt lat="38.0784878" lon="13.5009968"><ele>73.0</ele><time>2026-04-26T13:55:32.074Z</time></trkpt><trkpt lat="38.078347" lon="13.5010193"><ele>72.75</ele><time>2026-04-26T13:55:33.073Z</time></trkpt><trkpt lat="38.0782038" lon="13.501045"><ele>72.5</ele><time>2026-04-26T13:55:34.074Z</time></trkpt><trkpt lat="38.0780607" lon="13.50107"><ele>72.25</ele><time>2026-04-26T13:55:35.073Z</time></trkpt><trkpt lat="38.0779153" lon="13.5010963"><ele>72.0</ele><time>2026-04-26T13:55:36.073Z</time></trkpt><trkpt lat="38.0777711" lon="13.5011224"><ele>72.0</ele><time>2026-04-26T13:55:37.073Z</time></trkpt><trkpt lat="38.0776287" lon="13.5011461"><ele>72.0</ele><time>2026-04-26T13:55:38.073Z</time></trkpt><trkpt lat="38.0774828" lon="13.5011701"><ele>72.0</ele><time>2026-04-26T13:55:39.073Z</time></trkpt><trkpt lat="38.077338" lon="13.5011984"><ele>72.0</ele><time>2026-04-26T13:55:40.073Z</time></trkpt><trkpt lat="38.0771919" lon="13.501229"><ele>74.0</ele><time>2026-04-26T13:55:41.073Z</time></trkpt><trkpt lat="38.0770457" lon="13.5012643"><ele>76.0</ele><time>2026-04-26T13:55:42.073Z</time></trkpt><trkpt lat="38.0769049" lon="13.5012866"><ele>78.0</ele><time>2026-04-26T13:55:43.073Z</time></trkpt><trkpt lat="38.0767759" lon="13.501305"><ele>80.0</ele><time>2026-04-26T13:55:44.073Z</time></trkpt><trkpt lat="38.0766586" lon="13.5013193"><ele>81.2</ele><time>2026-04-26T13:55:45.073Z</time></trkpt><trkpt lat="38.0765514" lon="13.5013324"><ele>82.4</ele><time>2026-04-26T13:55:46.073Z</time></trkpt><trkpt lat="38.0764524" lon="13.5013417"><ele>83.6</ele><time>2026-04-26T13:55:47.073Z</time></trkpt><trkpt lat="38.0763632" lon="13.5013401"><ele>84.8</ele><time>2026-04-26T13:55:48.073Z</time></trkpt><trkpt lat="38.0762822" lon="13.5013166"><ele>86.0</ele><time>2026-04-26T13:55:49.073Z</time></trkpt><trkpt lat="38.0762141" lon="13.5012796"><ele>86.0</ele><time>2026-04-26T13:55:50.074Z</time></trkpt><trkpt lat="38.0761496" lon="13.501216"><ele>86.0</ele><time>2026-04-26T13:55:52.073Z</time></trkpt><trkpt lat="38.0760895" lon="13.5011714"><ele>86.0</ele><time>2026-04-26T13:55:56.074Z</time></trkpt><trkpt lat="38.0760048" lon="13.5012326"><ele>86.0</ele><time>2026-04-26T13:55:59.073Z</time></trkpt><trkpt lat="38.0759557" lon="13.5013609"><ele>86.0</ele><time>2026-04-26T13:56:01.073Z</time></trkpt><trkpt lat="38.0759315" lon="13.5014371"><ele>86.0</ele><time>2026-04-26T13:56:02.073Z</time></trkpt><trkpt lat="38.0759057" lon="13.5015175"><ele>86.0</ele><time>2026-04-26T13:56:03.073Z</time></trkpt><trkpt lat="38.0758675" lon="13.5015989"><ele>86.0</ele><time>2026-04-26T13:56:04.073Z</time></trkpt><trkpt lat="38.0758143" lon="13.5016691"><ele>86.0</ele><time>2026-04-26T13:56:05.074Z</time></trkpt><trkpt lat="38.075751" lon="13.5017129"><ele>86.0</ele><time>2026-04-26T13:56:06.073Z</time></trkpt><trkpt lat="38.0756794" lon="13.5017358"><ele>86.0</ele><time>2026-04-26T13:56:07.073Z</time></trkpt><trkpt lat="38.0755971" lon="13.5017452"><ele>86.0</ele><time>2026-04-26T13:56:08.074Z</time></trkpt><trkpt lat="38.0755097" lon="13.5017572"><ele>86.66666666666667</ele><time>2026-04-26T13:56:09.073Z</time></trkpt><trkpt lat="38.0754204" lon="13.5017751"><ele>87.33333333333334</ele><time>2026-04-26T13:56:10.074Z</time></trkpt><trkpt lat="38.0753294" lon="13.5017929"><ele>88.0</ele><time>2026-04-26T13:56:11.073Z</time></trkpt><trkpt lat="38.0752469" lon="13.501809"><ele>88.66666666666667</ele><time>2026-04-26T13:56:12.074Z</time></trkpt><trkpt lat="38.0751694" lon="13.5018202"><ele>89.33333333333333</ele><time>2026-04-26T13:56:13.074Z</time></trkpt><trkpt lat="38.0750935" lon="13.5018323"><ele>90.0</ele><time>2026-04-26T13:56:14.073Z</time></trkpt><trkpt lat="38.0750252" lon="13.5018422"><ele>90.4</ele><time>2026-04-26T13:56:15.073Z</time></trkpt><trkpt lat="38.0749153" lon="13.5018511"><ele>90.8</ele><time>2026-04-26T13:56:17.073Z</time></trkpt><trkpt lat="38.074818" lon="13.5018687"><ele>91.19999999999999</ele><time>2026-04-26T13:56:19.073Z</time></trkpt><trkpt lat="38.0746884" lon="13.5018914"><ele>91.6</ele><time>2026-04-26T13:56:21.073Z</time></trkpt><trkpt lat="38.0746247" lon="13.5019021"><ele>92.0</ele><time>2026-04-26T13:56:22.074Z</time></trkpt><trkpt lat="38.0745495" lon="13.5019137"><ele>92.0</ele><time>2026-04-26T13:56:29.073Z</time></trkpt><trkpt lat="38.0744763" lon="13.5019316"><ele>92.0</ele><time>2026-04-26T13:56:30.073Z</time></trkpt><trkpt lat="38.0743775" lon="13.5019542"><ele>92.0</ele><time>2026-04-26T13:56:31.073Z</time></trkpt><trkpt lat="38.074257" lon="13.5019769"><ele>92.0</ele><time>2026-04-26T13:56:32.073Z</time></trkpt><trkpt lat="38.0741439" lon="13.5020004"><ele>92.0</ele><time>2026-04-26T13:56:33.073Z</time></trkpt><trkpt lat="38.0740323" lon="13.5020239"><ele>93.25</ele><time>2026-04-26T13:56:34.073Z</time></trkpt><trkpt lat="38.073919" lon="13.502043"><ele>94.5</ele><time>2026-04-26T13:56:35.073Z</time></trkpt><trkpt lat="38.0738064" lon="13.5020577"><ele>95.75</ele><time>2026-04-26T13:56:36.074Z</time></trkpt><trkpt lat="38.0736922" lon="13.5020674"><ele>97.0</ele><time>2026-04-26T13:56:37.073Z</time></trkpt><trkpt lat="38.0735784" lon="13.5020724"><ele>97.8</ele><time>2026-04-26T13:56:38.073Z</time></trkpt><trkpt lat="38.073476" lon="13.5020857"><ele>98.6</ele><time>2026-04-26T13:56:39.073Z</time></trkpt><trkpt lat="38.0733802" lon="13.5021047"><ele>99.39999999999999</ele><time>2026-04-26T13:56:40.073Z</time></trkpt><trkpt lat="38.0732891" lon="13.5021203"><ele>100.19999999999999</ele><time>2026-04-26T13:56:41.073Z</time></trkpt><trkpt lat="38.0731913" lon="13.5021379"><ele>101.0</ele><time>2026-04-26T13:56:42.074Z</time></trkpt><trkpt lat="38.0730869" lon="13.5021641"><ele>101.25</ele><time>2026-04-26T13:56:43.073Z</time></trkpt><trkpt lat="38.0729688" lon="13.5022137"><ele>101.5</ele><time>2026-04-26T13:56:44.074Z</time></trkpt><trkpt lat="38.0728459" lon="13.5022828"><ele>101.75</ele><time>2026-04-26T13:56:45.074Z</time></trkpt><trkpt lat="38.0727289" lon="13.5023713"><ele>102.0</ele><time>2026-04-26T13:56:46.073Z</time></trkpt><trkpt lat="38.0726226" lon="13.5024691"><ele>102.0</ele><time>2026-04-26T13:56:47.073Z</time></trkpt><trkpt lat="38.072526" lon="13.5025767"><ele>102.0</ele><time>2026-04-26T13:56:48.073Z</time></trkpt><trkpt lat="38.0724417" lon="13.5026868"><ele>102.0</ele><time>2026-04-26T13:56:49.073Z</time></trkpt><trkpt lat="38.072363" lon="13.5027932"><ele>102.0</ele><time>2026-04-26T13:56:50.074Z</time></trkpt><trkpt lat="38.0722906" lon="13.5028982"><ele>102.19999999999999</ele><time>2026-04-26T13:56:51.073Z</time></trkpt><trkpt lat="38.072221" lon="13.5030007"><ele>102.4</ele><time>2026-04-26T13:56:52.073Z</time></trkpt><trkpt lat="38.0721548" lon="13.5030974"><ele>102.6</ele><time>2026-04-26T13:56:53.073Z</time></trkpt><trkpt lat="38.0720904" lon="13.5031927"><ele>102.80000000000001</ele><time>2026-04-26T13:56:54.074Z</time></trkpt><trkpt lat="38.0720286" lon="13.5032823"><ele>103.0</ele><time>2026-04-26T13:56:55.073Z</time></trkpt><trkpt lat="38.0719649" lon="13.5033725"><ele>103.00000000000001</ele><time>2026-04-26T13:56:56.073Z</time></trkpt><trkpt lat="38.0718995" lon="13.5034597"><ele>103.0</ele><time>2026-04-26T13:56:57.073Z</time></trkpt><trkpt lat="38.0718396" lon="13.5035449"><ele>103.0</ele><time>2026-04-26T13:56:58.073Z</time></trkpt><trkpt lat="38.0717825" lon="13.503625"><ele>103.0</ele><time>2026-04-26T13:56:59.073Z</time></trkpt><trkpt lat="38.0717252" lon="13.5037095"><ele>103.00000000000001</ele><time>2026-04-26T13:57:00.073Z</time></trkpt><trkpt lat="38.071666" lon="13.5037946"><ele>103.0</ele><time>2026-04-26T13:57:01.073Z</time></trkpt><trkpt lat="38.0716136" lon="13.503875"><ele>103.2</ele><time>2026-04-26T13:57:02.073Z</time></trkpt><trkpt lat="38.0715576" lon="13.5039557"><ele>103.4</ele><time>2026-04-26T13:57:03.073Z</time></trkpt><trkpt lat="38.071494" lon="13.5040395"><ele>103.60000000000001</ele><time>2026-04-26T13:57:04.073Z</time></trkpt><trkpt lat="38.071428" lon="13.5041198"><ele>103.80000000000001</ele><time>2026-04-26T13:57:05.073Z</time></trkpt><trkpt lat="38.0713621" lon="13.5042027"><ele>104.0</ele><time>2026-04-26T13:57:06.074Z</time></trkpt><trkpt lat="38.0712942" lon="13.5042765"><ele>104.0</ele><time>2026-04-26T13:57:07.073Z</time></trkpt><trkpt lat="38.0712305" lon="13.5043476"><ele>104.0</ele><time>2026-04-26T13:57:08.073Z</time></trkpt><trkpt lat="38.0711697" lon="13.5044076"><ele>104.0</ele><time>2026-04-26T13:57:09.073Z</time></trkpt><trkpt lat="38.0711163" lon="13.5044667"><ele>104.0</ele><time>2026-04-26T13:57:10.073Z</time></trkpt><trkpt lat="38.0710699" lon="13.5045222"><ele>104.0</ele><time>2026-04-26T13:57:11.073Z</time></trkpt><trkpt lat="38.0710213" lon="13.5045797"><ele>104.0</ele><time>2026-04-26T13:57:12.073Z</time></trkpt><trkpt lat="38.0709645" lon="13.504629"><ele>104.0</ele><time>2026-04-26T13:57:13.073Z</time></trkpt><trkpt lat="38.0708777" lon="13.5047391"><ele>104.66666666666666</ele><time>2026-04-26T13:57:15.074Z</time></trkpt><trkpt lat="38.0707877" lon="13.5048473"><ele>105.33333333333333</ele><time>2026-04-26T13:57:17.073Z</time></trkpt><trkpt lat="38.070735" lon="13.5048984"><ele>106.0</ele><time>2026-04-26T13:57:18.073Z</time></trkpt><trkpt lat="38.0706862" lon="13.5049553"><ele>106.66666666666666</ele><time>2026-04-26T13:57:19.073Z</time></trkpt><trkpt lat="38.0706355" lon="13.5050197"><ele>107.33333333333333</ele><time>2026-04-26T13:57:20.073Z</time></trkpt><trkpt lat="38.0705851" lon="13.5050829"><ele>108.0</ele><time>2026-04-26T13:57:21.073Z</time></trkpt><trkpt lat="38.0705317" lon="13.5051424"><ele>108.14285714285714</ele><time>2026-04-26T13:57:22.074Z</time></trkpt><trkpt lat="38.070476" lon="13.5052029"><ele>108.28571428571428</ele><time>2026-04-26T13:57:23.073Z</time></trkpt><trkpt lat="38.070422" lon="13.5052602"><ele>108.42857142857143</ele><time>2026-04-26T13:57:24.073Z</time></trkpt><trkpt lat="38.0703715" lon="13.5053234"><ele>108.57142857142857</ele><time>2026-04-26T13:57:25.073Z</time></trkpt><trkpt lat="38.0703165" lon="13.5053784"><ele>108.71428571428572</ele><time>2026-04-26T13:57:26.073Z</time></trkpt><trkpt lat="38.0702641" lon="13.5054318"><ele>108.85714285714286</ele><time>2026-04-26T13:57:27.073Z</time></trkpt><trkpt lat="38.0702064" lon="13.5054937"><ele>109.0</ele><time>2026-04-26T13:57:28.073Z</time></trkpt><trkpt lat="38.0701437" lon="13.5055591"><ele>109.6</ele><time>2026-04-26T13:57:29.074Z</time></trkpt><trkpt lat="38.0700725" lon="13.5056376"><ele>110.2</ele><time>2026-04-26T13:57:30.073Z</time></trkpt><trkpt lat="38.0699871" lon="13.5057273"><ele>110.79999999999998</ele><time>2026-04-26T13:57:31.074Z</time></trkpt><trkpt lat="38.0699034" lon="13.505818"><ele>111.39999999999999</ele><time>2026-04-26T13:57:32.073Z</time></trkpt><trkpt lat="38.0698252" lon="13.5059119"><ele>112.0</ele><time>2026-04-26T13:57:33.073Z</time></trkpt><trkpt lat="38.0697487" lon="13.5060006"><ele>112.33333333333334</ele><time>2026-04-26T13:57:34.073Z</time></trkpt><trkpt lat="38.0696792" lon="13.5060893"><ele>112.66666666666667</ele><time>2026-04-26T13:57:35.073Z</time></trkpt><trkpt lat="38.0696154" lon="13.5061629"><ele>113.0</ele><time>2026-04-26T13:57:36.074Z</time></trkpt><trkpt lat="38.0695579" lon="13.5062372"><ele>113.33333333333334</ele><time>2026-04-26T13:57:37.073Z</time></trkpt><trkpt lat="38.0694923" lon="13.5063097"><ele>113.66666666666667</ele><time>2026-04-26T13:57:38.073Z</time></trkpt><trkpt lat="38.069426" lon="13.5063794"><ele>114.0</ele><time>2026-04-26T13:57:39.074Z</time></trkpt><trkpt lat="38.0693665" lon="13.5064581"><ele>114.0</ele><time>2026-04-26T13:57:40.074Z</time></trkpt><trkpt lat="38.0693053" lon="13.5065359"><ele>114.0</ele><time>2026-04-26T13:57:41.074Z</time></trkpt><trkpt lat="38.0692384" lon="13.5066184"><ele>114.0</ele><time>2026-04-26T13:57:42.073Z</time></trkpt><trkpt lat="38.0691695" lon="13.5067025"><ele>114.0</ele><time>2026-04-26T13:57:43.073Z</time></trkpt><trkpt lat="38.0690962" lon="13.5067896"><ele>114.0</ele><time>2026-04-26T13:57:44.073Z</time></trkpt><trkpt lat="38.0690213" lon="13.5068807"><ele>114.2</ele><time>2026-04-26T13:57:45.073Z</time></trkpt><trkpt lat="38.0689447" lon="13.5069735"><ele>114.4</ele><time>2026-04-26T13:57:46.073Z</time></trkpt><trkpt lat="38.0688744" lon="13.50706"><ele>114.6</ele><time>2026-04-26T13:57:47.073Z</time></trkpt><trkpt lat="38.0688102" lon="13.5071416"><ele>114.8</ele><time>2026-04-26T13:57:48.073Z</time></trkpt><trkpt lat="38.0687526" lon="13.5072259"><ele>115.0</ele><time>2026-04-26T13:57:49.073Z</time></trkpt><trkpt lat="38.0687022" lon="13.507322"><ele>115.00000000000001</ele><time>2026-04-26T13:57:50.073Z</time></trkpt><trkpt lat="38.0686632" lon="13.5074214"><ele>115.0</ele><time>2026-04-26T13:57:51.074Z</time></trkpt><trkpt lat="38.0686321" lon="13.5075289"><ele>115.0</ele><time>2026-04-26T13:57:52.074Z</time></trkpt><trkpt lat="38.0686158" lon="13.5076452"><ele>115.0</ele><time>2026-04-26T13:57:53.074Z</time></trkpt><trkpt lat="38.0686057" lon="13.5077576"><ele>115.00000000000001</ele><time>2026-04-26T13:57:54.073Z</time></trkpt><trkpt lat="38.0686066" lon="13.5078629"><ele>115.0</ele><time>2026-04-26T13:57:55.073Z</time></trkpt><trkpt lat="38.0686113" lon="13.5079596"><ele>115.16666666666667</ele><time>2026-04-26T13:57:56.073Z</time></trkpt><trkpt lat="38.0686172" lon="13.5080526"><ele>115.33333333333334</ele><time>2026-04-26T13:57:57.073Z</time></trkpt><trkpt lat="38.0686226" lon="13.508139"><ele>115.5</ele><time>2026-04-26T13:57:58.073Z</time></trkpt><trkpt lat="38.0686238" lon="13.5082193"><ele>115.66666666666666</ele><time>2026-04-26T13:57:59.073Z</time></trkpt><trkpt lat="38.0686138" lon="13.5083625"><ele>115.83333333333333</ele><time>2026-04-26T13:58:01.073Z</time></trkpt><trkpt lat="38.068595" lon="13.5084621"><ele>116.0</ele><time>2026-04-26T13:58:03.074Z</time></trkpt><trkpt lat="38.0685755" lon="13.508568"><ele>116.0</ele><time>2026-04-26T13:58:06.073Z</time></trkpt><trkpt lat="38.0685101" lon="13.5086488"><ele>116.0</ele><time>2026-04-26T13:58:09.073Z</time></trkpt><trkpt lat="38.0684204" lon="13.5086351"><ele>116.0</ele><time>2026-04-26T13:58:11.073Z</time></trkpt><trkpt lat="38.0683229" lon="13.5086268"><ele>116.0</ele><time>2026-04-26T13:58:13.073Z</time></trkpt><trkpt lat="38.0682071" lon="13.5086242"><ele>116.0</ele><time>2026-04-26T13:58:15.074Z</time></trkpt><trkpt lat="38.0681075" lon="13.5087011"><ele>116.19999999999999</ele><time>2026-04-26T13:58:17.073Z</time></trkpt><trkpt lat="38.0680714" lon="13.508784"><ele>116.39999999999999</ele><time>2026-04-26T13:58:18.074Z</time></trkpt><trkpt lat="38.0680305" lon="13.5088801"><ele>116.6</ele><time>2026-04-26T13:58:19.073Z</time></trkpt><trkpt lat="38.0679698" lon="13.5089672"><ele>116.8</ele><time>2026-04-26T13:58:20.073Z</time></trkpt><trkpt lat="38.0678785" lon="13.5090211"><ele>117.0</ele><time>2026-04-26T13:58:21.073Z</time></trkpt><trkpt lat="38.0677755" lon="13.5090398"><ele>117.0</ele><time>2026-04-26T13:58:22.073Z</time></trkpt><trkpt lat="38.0676689" lon="13.5090331"><ele>116.99999999999999</ele><time>2026-04-26T13:58:23.073Z</time></trkpt><trkpt lat="38.0675645" lon="13.5090033"><ele>116.99999999999999</ele><time>2026-04-26T13:58:24.073Z</time></trkpt><trkpt lat="38.0674732" lon="13.5089526"><ele>117.0</ele><time>2026-04-26T13:58:25.073Z</time></trkpt><trkpt lat="38.0674036" lon="13.5088943"><ele>117.0</ele><time>2026-04-26T13:58:26.073Z</time></trkpt><trkpt lat="38.0673563" lon="13.5088363"><ele>117.6</ele><time>2026-04-26T13:58:27.073Z</time></trkpt><trkpt lat="38.0672848" lon="13.5087423"><ele>118.19999999999999</ele><time>2026-04-26T13:58:29.073Z</time></trkpt><trkpt lat="38.0672112" lon="13.5086382"><ele>118.8</ele><time>2026-04-26T13:58:31.073Z</time></trkpt><trkpt lat="38.0671241" lon="13.5085216"><ele>119.4</ele><time>2026-04-26T13:58:33.073Z</time></trkpt><trkpt lat="38.0670777" lon="13.5084602"><ele>120.0</ele><time>2026-04-26T13:58:34.073Z</time></trkpt><trkpt lat="38.0670336" lon="13.5084"><ele>120.0</ele><time>2026-04-26T13:58:35.073Z</time></trkpt><trkpt lat="38.0669678" lon="13.5082926"><ele>120.0</ele><time>2026-04-26T13:58:37.073Z</time></trkpt><trkpt lat="38.0669316" lon="13.5082032"><ele>120.0</ele><time>2026-04-26T13:58:40.073Z</time></trkpt><trkpt lat="38.0668494" lon="13.5081182"><ele>120.0</ele><time>2026-04-26T13:58:43.073Z</time></trkpt><trkpt lat="38.0667321" lon="13.508088"><ele>120.0</ele><time>2026-04-26T13:58:45.074Z</time></trkpt><trkpt lat="38.0666007" lon="13.5081019"><ele>120.66666666666667</ele><time>2026-04-26T13:58:47.073Z</time></trkpt><trkpt lat="38.0665282" lon="13.5080999"><ele>121.33333333333334</ele><time>2026-04-26T13:58:48.073Z</time></trkpt><trkpt lat="38.066449" lon="13.5080848"><ele>122.0</ele><time>2026-04-26T13:58:49.074Z</time></trkpt><trkpt lat="38.0663717" lon="13.5080804"><ele>122.66666666666667</ele><time>2026-04-26T13:58:50.073Z</time></trkpt><trkpt lat="38.0662995" lon="13.5080906"><ele>123.33333333333334</ele><time>2026-04-26T13:58:51.073Z</time></trkpt><trkpt lat="38.0662246" lon="13.5081"><ele>124.0</ele><time>2026-04-26T13:58:52.073Z</time></trkpt><trkpt lat="38.0661442" lon="13.5081072"><ele>124.00000000000001</ele><time>2026-04-26T13:58:53.073Z</time></trkpt><trkpt lat="38.0660579" lon="13.5081096"><ele>124.0</ele><time>2026-04-26T13:58:54.074Z</time></trkpt><trkpt lat="38.0659689" lon="13.5081084"><ele>124.0</ele><time>2026-04-26T13:58:55.073Z</time></trkpt><trkpt lat="38.0658793" lon="13.5081127"><ele>124.0</ele><time>2026-04-26T13:58:56.073Z</time></trkpt><trkpt lat="38.0657934" lon="13.5081184"><ele>124.00000000000001</ele><time>2026-04-26T13:58:57.074Z</time></trkpt><trkpt lat="38.0657061" lon="13.5081218"><ele>124.0</ele><time>2026-04-26T13:58:58.073Z</time></trkpt><trkpt lat="38.0656133" lon="13.5081234"><ele>125.0</ele><time>2026-04-26T13:58:59.073Z</time></trkpt><trkpt lat="38.065521" lon="13.5081289"><ele>126.0</ele><time>2026-04-26T13:59:00.073Z</time></trkpt><trkpt lat="38.0654279" lon="13.5081363"><ele>127.0</ele><time>2026-04-26T13:59:01.074Z</time></trkpt><trkpt lat="38.0653354" lon="13.5081422"><ele>128.0</ele><time>2026-04-26T13:59:02.073Z</time></trkpt><trkpt lat="38.0652434" lon="13.5081462"><ele>129.0</ele><time>2026-04-26T13:59:03.073Z</time></trkpt><trkpt lat="38.0651518" lon="13.5081533"><ele>128.99999999999997</ele><time>2026-04-26T13:59:04.073Z</time></trkpt><trkpt lat="38.0650638" lon="13.5081604"><ele>129.0</ele><time>2026-04-26T13:59:05.073Z</time></trkpt><trkpt lat="38.0649787" lon="13.5081641"><ele>129.0</ele><time>2026-04-26T13:59:06.074Z</time></trkpt><trkpt lat="38.0649025" lon="13.5081688"><ele>129.0</ele><time>2026-04-26T13:59:07.073Z</time></trkpt><trkpt lat="38.0648379" lon="13.5081727"><ele>129.0</ele><time>2026-04-26T13:59:08.073Z</time></trkpt><trkpt lat="38.0647749" lon="13.5081663"><ele>128.99999999999997</ele><time>2026-04-26T13:59:09.073Z</time></trkpt><trkpt lat="38.0647121" lon="13.5081341"><ele>129.0</ele><time>2026-04-26T13:59:10.073Z</time></trkpt><trkpt lat="38.0646604" lon="13.5080828"><ele>129.0</ele><time>2026-04-26T13:59:11.073Z</time></trkpt><trkpt lat="38.0646247" lon="13.5080029"><ele>129.0</ele><time>2026-04-26T13:59:12.073Z</time></trkpt><trkpt lat="38.0646064" lon="13.5079038"><ele>129.0</ele><time>2026-04-26T13:59:13.073Z</time></trkpt><trkpt lat="38.0645867" lon="13.5077965"><ele>129.0</ele><time>2026-04-26T13:59:14.073Z</time></trkpt><trkpt lat="38.0645779" lon="13.5076782"><ele>129.0</ele><time>2026-04-26T13:59:15.073Z</time></trkpt><trkpt lat="38.0645676" lon="13.5075569"><ele>129.0</ele><time>2026-04-26T13:59:16.074Z</time></trkpt><trkpt lat="38.0645532" lon="13.5074374"><ele>129.6</ele><time>2026-04-26T13:59:17.073Z</time></trkpt><trkpt lat="38.0645314" lon="13.5073113"><ele>130.2</ele><time>2026-04-26T13:59:18.073Z</time></trkpt><trkpt lat="38.0645034" lon="13.507181"><ele>130.79999999999998</ele><time>2026-04-26T13:59:19.073Z</time></trkpt><trkpt lat="38.0644652" lon="13.5070473"><ele>131.4</ele><time>2026-04-26T13:59:20.073Z</time></trkpt><trkpt lat="38.0644143" lon="13.5069198"><ele>132.0</ele><time>2026-04-26T13:59:21.074Z</time></trkpt><trkpt lat="38.0643529" lon="13.5067994"><ele>132.75</ele><time>2026-04-26T13:59:22.073Z</time></trkpt><trkpt lat="38.0642773" lon="13.5066736"><ele>133.5</ele><time>2026-04-26T13:59:23.072Z</time></trkpt><trkpt lat="38.0641921" lon="13.5065444"><ele>134.25</ele><time>2026-04-26T13:59:24.072Z</time></trkpt><trkpt lat="38.0641022" lon="13.506415"><ele>135.0</ele><time>2026-04-26T13:59:25.072Z</time></trkpt><trkpt lat="38.0640171" lon="13.5062895"><ele>136.25</ele><time>2026-04-26T13:59:26.072Z</time></trkpt><trkpt lat="38.0639413" lon="13.5061599"><ele>137.5</ele><time>2026-04-26T13:59:27.072Z</time></trkpt><trkpt lat="38.0638659" lon="13.5060368"><ele>138.75</ele><time>2026-04-26T13:59:28.072Z</time></trkpt><trkpt lat="38.0637915" lon="13.5059194"><ele>140.0</ele><time>2026-04-26T13:59:29.072Z</time></trkpt><trkpt lat="38.0637189" lon="13.5058024"><ele>140.0</ele><time>2026-04-26T13:59:30.072Z</time></trkpt><trkpt lat="38.0636458" lon="13.5056888"><ele>140.0</ele><time>2026-04-26T13:59:31.072Z</time></trkpt><trkpt lat="38.0635715" lon="13.5055802"><ele>140.0</ele><time>2026-04-26T13:59:32.073Z</time></trkpt><trkpt lat="38.0635025" lon="13.5054736"><ele>140.0</ele><time>2026-04-26T13:59:33.072Z</time></trkpt><trkpt lat="38.0634364" lon="13.5053688"><ele>140.0</ele><time>2026-04-26T13:59:34.072Z</time></trkpt><trkpt lat="38.0633759" lon="13.505257"><ele>140.4</ele><time>2026-04-26T13:59:35.072Z</time></trkpt><trkpt lat="38.0633199" lon="13.505141"><ele>140.8</ele><time>2026-04-26T13:59:36.072Z</time></trkpt><trkpt lat="38.0632674" lon="13.505029"><ele>141.2</ele><time>2026-04-26T13:59:37.072Z</time></trkpt><trkpt lat="38.0632067" lon="13.5049218"><ele>141.6</ele><time>2026-04-26T13:59:38.072Z</time></trkpt><trkpt lat="38.0631346" lon="13.5048163"><ele>142.0</ele><time>2026-04-26T13:59:39.072Z</time></trkpt><trkpt lat="38.0630558" lon="13.5047101"><ele>142.0</ele><time>2026-04-26T13:59:40.072Z</time></trkpt><trkpt lat="38.0629738" lon="13.5046033"><ele>142.0</ele><time>2026-04-26T13:59:41.072Z</time></trkpt><trkpt lat="38.0628958" lon="13.5045049"><ele>142.0</ele><time>2026-04-26T13:59:42.072Z</time></trkpt><trkpt lat="38.0628247" lon="13.5044177"><ele>142.0</ele><time>2026-04-26T13:59:43.073Z</time></trkpt><trkpt lat="38.0627537" lon="13.5043306"><ele>142.0</ele><time>2026-04-26T13:59:44.072Z</time></trkpt><trkpt lat="38.0626847" lon="13.5042372"><ele>142.79999999999998</ele><time>2026-04-26T13:59:45.072Z</time></trkpt><trkpt lat="38.0626224" lon="13.5041282"><ele>143.6</ele><time>2026-04-26T13:59:46.072Z</time></trkpt><trkpt lat="38.0625692" lon="13.5040075"><ele>144.39999999999998</ele><time>2026-04-26T13:59:47.072Z</time></trkpt><trkpt lat="38.0625203" lon="13.5038783"><ele>145.2</ele><time>2026-04-26T13:59:48.072Z</time></trkpt><trkpt lat="38.0624785" lon="13.5037447"><ele>146.0</ele><time>2026-04-26T13:59:49.073Z</time></trkpt><trkpt lat="38.0624377" lon="13.5036134"><ele>146.0</ele><time>2026-04-26T13:59:50.072Z</time></trkpt><trkpt lat="38.062404" lon="13.5034822"><ele>146.0</ele><time>2026-04-26T13:59:51.072Z</time></trkpt><trkpt lat="38.0623818" lon="13.5033502"><ele>146.0</ele><time>2026-04-26T13:59:52.072Z</time></trkpt><trkpt lat="38.0623739" lon="13.503215"><ele>146.0</ele><time>2026-04-26T13:59:53.072Z</time></trkpt><trkpt lat="38.0623812" lon="13.5030829"><ele>146.0</ele><time>2026-04-26T13:59:54.072Z</time></trkpt><trkpt lat="38.0624046" lon="13.5029589"><ele>147.4</ele><time>2026-04-26T13:59:55.072Z</time></trkpt><trkpt lat="38.0624213" lon="13.5028368"><ele>148.8</ele><time>2026-04-26T13:59:56.072Z</time></trkpt><trkpt lat="38.0624226" lon="13.5027225"><ele>150.20000000000002</ele><time>2026-04-26T13:59:57.072Z</time></trkpt><trkpt lat="38.0624052" lon="13.5026113"><ele>151.6</ele><time>2026-04-26T13:59:58.072Z</time></trkpt><trkpt lat="38.0623693" lon="13.5025065"><ele>153.0</ele><time>2026-04-26T13:59:59.073Z</time></trkpt><trkpt lat="38.0623077" lon="13.5024177"><ele>153.0</ele><time>2026-04-26T14:00:00.072Z</time></trkpt><trkpt lat="38.0622277" lon="13.5023375"><ele>153.0</ele><time>2026-04-26T14:00:01.072Z</time></trkpt><trkpt lat="38.0621372" lon="13.5022764"><ele>153.0</ele><time>2026-04-26T14:00:02.072Z</time></trkpt><trkpt lat="38.0620401" lon="13.5022336"><ele>153.0</ele><time>2026-04-26T14:00:03.072Z</time></trkpt><trkpt lat="38.0619374" lon="13.5022076"><ele>153.0</ele><time>2026-04-26T14:00:04.072Z</time></trkpt><trkpt lat="38.061832" lon="13.5021802"><ele>153.0</ele><time>2026-04-26T14:00:05.072Z</time></trkpt><trkpt lat="38.0617304" lon="13.5021403"><ele>153.0</ele><time>2026-04-26T14:00:06.072Z</time></trkpt><trkpt lat="38.0616301" lon="13.502098"><ele>153.0</ele><time>2026-04-26T14:00:07.072Z</time></trkpt><trkpt lat="38.0615296" lon="13.5020542"><ele>153.0</ele><time>2026-04-26T14:00:08.072Z</time></trkpt><trkpt lat="38.0614295" lon="13.5020131"><ele>153.0</ele><time>2026-04-26T14:00:09.072Z</time></trkpt><trkpt lat="38.0613287" lon="13.5019787"><ele>153.8</ele><time>2026-04-26T14:00:10.072Z</time></trkpt><trkpt lat="38.0612362" lon="13.5019472"><ele>154.60000000000002</ele><time>2026-04-26T14:00:11.072Z</time></trkpt><trkpt lat="38.0611656" lon="13.5019051"><ele>155.39999999999998</ele><time>2026-04-26T14:00:12.072Z</time></trkpt><trkpt lat="38.061101" lon="13.5018598"><ele>156.2</ele><time>2026-04-26T14:00:13.072Z</time></trkpt><trkpt lat="38.0610238" lon="13.5017971"><ele>157.0</ele><time>2026-04-26T14:00:14.072Z</time></trkpt><trkpt lat="38.060929" lon="13.5017109"><ele>157.0</ele><time>2026-04-26T14:00:15.072Z</time></trkpt><trkpt lat="38.0608151" lon="13.5016155"><ele>157.0</ele><time>2026-04-26T14:00:16.072Z</time></trkpt><trkpt lat="38.0606895" lon="13.5015164"><ele>157.0</ele><time>2026-04-26T14:00:17.072Z</time></trkpt><trkpt lat="38.0605534" lon="13.5014062"><ele>157.0</ele><time>2026-04-26T14:00:18.072Z</time></trkpt><trkpt lat="38.0604132" lon="13.5012937"><ele>157.0</ele><time>2026-04-26T14:00:19.072Z</time></trkpt><trkpt lat="38.0602735" lon="13.5011795"><ele>157.0</ele><time>2026-04-26T14:00:20.072Z</time></trkpt><trkpt lat="38.0601318" lon="13.501062"><ele>157.0</ele><time>2026-04-26T14:00:21.072Z</time></trkpt><trkpt lat="38.0599955" lon="13.5009502"><ele>156.75</ele><time>2026-04-26T14:00:22.073Z</time></trkpt><trkpt lat="38.0598676" lon="13.5008479"><ele>156.5</ele><time>2026-04-26T14:00:23.073Z</time></trkpt><trkpt lat="38.0597466" lon="13.5007622"><ele>156.25</ele><time>2026-04-26T14:00:24.072Z</time></trkpt><trkpt lat="38.0596219" lon="13.5006875"><ele>156.0</ele><time>2026-04-26T14:00:25.072Z</time></trkpt><trkpt lat="38.0594937" lon="13.5006226"><ele>156.0</ele><time>2026-04-26T14:00:26.072Z</time></trkpt><trkpt lat="38.0593602" lon="13.5005633"><ele>156.0</ele><time>2026-04-26T14:00:27.072Z</time></trkpt><trkpt lat="38.059225" lon="13.5005056"><ele>156.0</ele><time>2026-04-26T14:00:28.072Z</time></trkpt><trkpt lat="38.0590948" lon="13.5004542"><ele>156.0</ele><time>2026-04-26T14:00:29.072Z</time></trkpt><trkpt lat="38.0589659" lon="13.5003859"><ele>153.66666666666666</ele><time>2026-04-26T14:00:30.072Z</time></trkpt><trkpt lat="38.0588364" lon="13.5002943"><ele>151.33333333333331</ele><time>2026-04-26T14:00:31.072Z</time></trkpt><trkpt lat="38.0587048" lon="13.5001734"><ele>149.0</ele><time>2026-04-26T14:00:32.072Z</time></trkpt><trkpt lat="38.0585692" lon="13.5000451"><ele>149.0</ele><time>2026-04-26T14:00:33.072Z</time></trkpt><trkpt lat="38.058434" lon="13.4998984"><ele>149.0</ele><time>2026-04-26T14:00:34.072Z</time></trkpt><trkpt lat="38.058307" lon="13.4997433"><ele>149.0</ele><time>2026-04-26T14:00:35.072Z</time></trkpt><trkpt lat="38.0581904" lon="13.4995809"><ele>146.0</ele><time>2026-04-26T14:00:36.073Z</time></trkpt><trkpt lat="38.058087" lon="13.4994192"><ele>143.0</ele><time>2026-04-26T14:00:37.072Z</time></trkpt><trkpt lat="38.0579972" lon="13.4992618"><ele>140.0</ele><time>2026-04-26T14:00:38.073Z</time></trkpt><trkpt lat="38.0579168" lon="13.4991049"><ele>140.0</ele><time>2026-04-26T14:00:39.072Z</time></trkpt><trkpt lat="38.0578423" lon="13.4989452"><ele>140.0</ele><time>2026-04-26T14:00:40.072Z</time></trkpt><trkpt lat="38.0577776" lon="13.4987697"><ele>140.0</ele><time>2026-04-26T14:00:41.072Z</time></trkpt><trkpt lat="38.0577424" lon="13.4985713"><ele>140.33333333333331</ele><time>2026-04-26T14:00:42.072Z</time></trkpt><trkpt lat="38.0577272" lon="13.4983625"><ele>140.66666666666666</ele><time>2026-04-26T14:00:43.072Z</time></trkpt><trkpt lat="38.0577177" lon="13.4981506"><ele>141.0</ele><time>2026-04-26T14:00:44.073Z</time></trkpt><trkpt lat="38.0577089" lon="13.4979297"><ele>140.66666666666666</ele><time>2026-04-26T14:00:45.072Z</time></trkpt><trkpt lat="38.0576983" lon="13.4977094"><ele>140.33333333333331</ele><time>2026-04-26T14:00:46.072Z</time></trkpt><trkpt lat="38.0576883" lon="13.4974819"><ele>140.0</ele><time>2026-04-26T14:00:47.072Z</time></trkpt><trkpt lat="38.0576909" lon="13.4972496"><ele>140.33333333333331</ele><time>2026-04-26T14:00:48.072Z</time></trkpt><trkpt lat="38.0577049" lon="13.4970161"><ele>140.66666666666666</ele><time>2026-04-26T14:00:49.072Z</time></trkpt><trkpt lat="38.0577283" lon="13.4967734"><ele>141.0</ele><time>2026-04-26T14:00:50.073Z</time></trkpt><trkpt lat="38.0577561" lon="13.4965276"><ele>141.0</ele><time>2026-04-26T14:00:51.072Z</time></trkpt><trkpt lat="38.0577879" lon="13.496282"><ele>141.0</ele><time>2026-04-26T14:00:52.073Z</time></trkpt><trkpt lat="38.0578232" lon="13.4960335"><ele>141.0</ele><time>2026-04-26T14:00:53.072Z</time></trkpt><trkpt lat="38.0578578" lon="13.4957704"><ele>141.33333333333334</ele><time>2026-04-26T14:00:54.073Z</time></trkpt><trkpt lat="38.057892" lon="13.4954978"><ele>141.66666666666669</ele><time>2026-04-26T14:00:55.072Z</time></trkpt><trkpt lat="38.0579213" lon="13.4952182"><ele>142.0</ele><time>2026-04-26T14:00:56.072Z</time></trkpt><trkpt lat="38.0579505" lon="13.4949403"><ele>144.66666666666669</ele><time>2026-04-26T14:00:57.072Z</time></trkpt><trkpt lat="38.0579811" lon="13.4946685"><ele>147.33333333333334</ele><time>2026-04-26T14:00:58.072Z</time></trkpt><trkpt lat="38.0580104" lon="13.4944023"><ele>150.0</ele><time>2026-04-26T14:00:59.072Z</time></trkpt><trkpt lat="38.0580301" lon="13.494142"><ele>153.66666666666666</ele><time>2026-04-26T14:01:00.072Z</time></trkpt><trkpt lat="38.0580399" lon="13.4938802"><ele>157.33333333333331</ele><time>2026-04-26T14:01:01.073Z</time></trkpt><trkpt lat="38.0580332" lon="13.4936117"><ele>161.0</ele><time>2026-04-26T14:01:02.072Z</time></trkpt><trkpt lat="38.0580067" lon="13.4933499"><ele>163.0</ele><time>2026-04-26T14:01:03.073Z</time></trkpt><trkpt lat="38.0579653" lon="13.4930894"><ele>165.0</ele><time>2026-04-26T14:01:04.072Z</time></trkpt><trkpt lat="38.0579088" lon="13.4928312"><ele>167.0</ele><time>2026-04-26T14:01:05.072Z</time></trkpt><trkpt lat="38.0578446" lon="13.4925737"><ele>169.33333333333331</ele><time>2026-04-26T14:01:06.072Z</time></trkpt><trkpt lat="38.0577879" lon="13.4923197"><ele>171.66666666666666</ele><time>2026-04-26T14:01:07.072Z</time></trkpt><trkpt lat="38.0577325" lon="13.4920687"><ele>174.0</ele><time>2026-04-26T14:01:08.072Z</time></trkpt><trkpt lat="38.0576778" lon="13.4918125"><ele>176.33333333333334</ele><time>2026-04-26T14:01:09.072Z</time></trkpt><trkpt lat="38.0576332" lon="13.4915683"><ele>178.66666666666669</ele><time>2026-04-26T14:01:10.073Z</time></trkpt><trkpt lat="38.0575896" lon="13.4913447"><ele>181.0</ele><time>2026-04-26T14:01:11.072Z</time></trkpt><trkpt lat="38.0575526" lon="13.4911176"><ele>182.66666666666669</ele><time>2026-04-26T14:01:12.072Z</time></trkpt><trkpt lat="38.0575162" lon="13.4908779"><ele>184.33333333333334</ele><time>2026-04-26T14:01:13.072Z</time></trkpt><trkpt lat="38.0574797" lon="13.4906245"><ele>186.0</ele><time>2026-04-26T14:01:14.072Z</time></trkpt><trkpt lat="38.0574558" lon="13.4903658"><ele>186.66666666666666</ele><time>2026-04-26T14:01:15.072Z</time></trkpt><trkpt lat="38.0574448" lon="13.4901147"><ele>187.33333333333331</ele><time>2026-04-26T14:01:16.072Z</time></trkpt><trkpt lat="38.0574459" lon="13.4898775"><ele>188.0</ele><time>2026-04-26T14:01:17.073Z</time></trkpt><trkpt lat="38.0574525" lon="13.4896502"><ele>187.0</ele><time>2026-04-26T14:01:18.072Z</time></trkpt><trkpt lat="38.0574444" lon="13.4894248"><ele>186.0</ele><time>2026-04-26T14:01:19.072Z</time></trkpt><trkpt lat="38.0574105" lon="13.4891995"><ele>185.0</ele><time>2026-04-26T14:01:20.072Z</time></trkpt><trkpt lat="38.0573472" lon="13.488991"><ele>185.0</ele><time>2026-04-26T14:01:21.072Z</time></trkpt><trkpt lat="38.0572523" lon="13.4888079"><ele>185.0</ele><time>2026-04-26T14:01:22.072Z</time></trkpt><trkpt lat="38.0571358" lon="13.4886364"><ele>185.0</ele><time>2026-04-26T14:01:23.072Z</time></trkpt><trkpt lat="38.0570116" lon="13.4884557"><ele>188.33333333333331</ele><time>2026-04-26T14:01:24.072Z</time></trkpt><trkpt lat="38.0568819" lon="13.4882633"><ele>191.66666666666666</ele><time>2026-04-26T14:01:25.072Z</time></trkpt><trkpt lat="38.0567617" lon="13.4880704"><ele>195.0</ele><time>2026-04-26T14:01:26.072Z</time></trkpt><trkpt lat="38.0566482" lon="13.4879049"><ele>197.0</ele><time>2026-04-26T14:01:27.072Z</time></trkpt><trkpt lat="38.0565485" lon="13.4877567"><ele>199.0</ele><time>2026-04-26T14:01:28.072Z</time></trkpt><trkpt lat="38.0564701" lon="13.4876299"><ele>201.0</ele><time>2026-04-26T14:01:29.073Z</time></trkpt><trkpt lat="38.0564026" lon="13.4875138"><ele>203.0</ele><time>2026-04-26T14:01:30.072Z</time></trkpt><trkpt lat="38.0563365" lon="13.4873937"><ele>203.0</ele><time>2026-04-26T14:01:31.072Z</time></trkpt><trkpt lat="38.0562644" lon="13.4872494"><ele>203.0</ele><time>2026-04-26T14:01:32.072Z</time></trkpt><trkpt lat="38.0561854" lon="13.4870927"><ele>203.0</ele><time>2026-04-26T14:01:33.072Z</time></trkpt><trkpt lat="38.0561022" lon="13.4869301"><ele>203.0</ele><time>2026-04-26T14:01:34.072Z</time></trkpt><trkpt lat="38.0560121" lon="13.4867516"><ele>204.0</ele><time>2026-04-26T14:01:35.072Z</time></trkpt><trkpt lat="38.0559221" lon="13.486555"><ele>205.0</ele><time>2026-04-26T14:01:36.072Z</time></trkpt><trkpt lat="38.0558306" lon="13.4863515"><ele>206.0</ele><time>2026-04-26T14:01:37.072Z</time></trkpt><trkpt lat="38.0557362" lon="13.4861405"><ele>209.0</ele><time>2026-04-26T14:01:38.072Z</time></trkpt><trkpt lat="38.0556317" lon="13.4859405"><ele>212.0</ele><time>2026-04-26T14:01:39.072Z</time></trkpt><trkpt lat="38.0555006" lon="13.4857583"><ele>215.0</ele><time>2026-04-26T14:01:40.072Z</time></trkpt><trkpt lat="38.0553392" lon="13.4855946"><ele>215.0</ele><time>2026-04-26T14:01:41.072Z</time></trkpt><trkpt lat="38.0551682" lon="13.4854308"><ele>215.0</ele><time>2026-04-26T14:01:42.072Z</time></trkpt><trkpt lat="38.0549947" lon="13.4852634"><ele>215.0</ele><time>2026-04-26T14:01:43.072Z</time></trkpt><trkpt lat="38.0548159" lon="13.4850938"><ele>216.0</ele><time>2026-04-26T14:01:44.072Z</time></trkpt><trkpt lat="38.0546402" lon="13.484922"><ele>217.0</ele><time>2026-04-26T14:01:45.072Z</time></trkpt><trkpt lat="38.054463" lon="13.48475"><ele>218.0</ele><time>2026-04-26T14:01:46.072Z</time></trkpt><trkpt lat="38.0542913" lon="13.4845749"><ele>218.0</ele><time>2026-04-26T14:01:47.073Z</time></trkpt><trkpt lat="38.0541334" lon="13.4844055"><ele>218.0</ele><time>2026-04-26T14:01:48.072Z</time></trkpt><trkpt lat="38.053985" lon="13.4842493"><ele>218.0</ele><time>2026-04-26T14:01:49.072Z</time></trkpt><trkpt lat="38.053861" lon="13.484095"><ele>221.0</ele><time>2026-04-26T14:01:50.072Z</time></trkpt><trkpt lat="38.053754" lon="13.4839245"><ele>224.0</ele><time>2026-04-26T14:01:51.072Z</time></trkpt><trkpt lat="38.0536605" lon="13.4837332"><ele>227.0</ele><time>2026-04-26T14:01:52.072Z</time></trkpt><trkpt lat="38.0535642" lon="13.4835384"><ele>227.0</ele><time>2026-04-26T14:01:53.073Z</time></trkpt><trkpt lat="38.0534504" lon="13.4833544"><ele>227.0</ele><time>2026-04-26T14:01:54.073Z</time></trkpt><trkpt lat="38.0533146" lon="13.4831774"><ele>227.0</ele><time>2026-04-26T14:01:55.072Z</time></trkpt><trkpt lat="38.0531802" lon="13.4830108"><ele>228.33333333333334</ele><time>2026-04-26T14:01:56.072Z</time></trkpt><trkpt lat="38.0530391" lon="13.48286"><ele>229.66666666666669</ele><time>2026-04-26T14:01:57.072Z</time></trkpt><trkpt lat="38.0528952" lon="13.4827251"><ele>231.0</ele><time>2026-04-26T14:01:58.072Z</time></trkpt><trkpt lat="38.0527595" lon="13.4826078"><ele>231.0</ele><time>2026-04-26T14:01:59.072Z</time></trkpt><trkpt lat="38.0526265" lon="13.4825012"><ele>231.0</ele><time>2026-04-26T14:02:00.072Z</time></trkpt><trkpt lat="38.0524854" lon="13.4824063"><ele>231.0</ele><time>2026-04-26T14:02:01.072Z</time></trkpt><trkpt lat="38.0523329" lon="13.4823368"><ele>233.0</ele><time>2026-04-26T14:02:02.073Z</time></trkpt><trkpt lat="38.0521575" lon="13.4822814"><ele>235.0</ele><time>2026-04-26T14:02:03.073Z</time></trkpt><trkpt lat="38.0519561" lon="13.4822405"><ele>237.0</ele><time>2026-04-26T14:02:04.072Z</time></trkpt><trkpt lat="38.051747" lon="13.4821805"><ele>237.5</ele><time>2026-04-26T14:02:05.072Z</time></trkpt><trkpt lat="38.0515298" lon="13.4821065"><ele>238.0</ele><time>2026-04-26T14:02:06.072Z</time></trkpt><trkpt lat="38.0513113" lon="13.4820127"><ele>235.0</ele><time>2026-04-26T14:02:07.072Z</time></trkpt><trkpt lat="38.0510936" lon="13.48191"><ele>232.0</ele><time>2026-04-26T14:02:08.072Z</time></trkpt><trkpt lat="38.0508737" lon="13.4818093"><ele>236.0</ele><time>2026-04-26T14:02:09.072Z</time></trkpt><trkpt lat="38.0506561" lon="13.4817186"><ele>240.0</ele><time>2026-04-26T14:02:10.072Z</time></trkpt><trkpt lat="38.0504372" lon="13.481629"><ele>240.0</ele><time>2026-04-26T14:02:11.072Z</time></trkpt><trkpt lat="38.0502137" lon="13.4815605"><ele>240.0</ele><time>2026-04-26T14:02:12.073Z</time></trkpt><trkpt lat="38.0499965" lon="13.481505"><ele>241.33333333333331</ele><time>2026-04-26T14:02:13.072Z</time></trkpt><trkpt lat="38.0497809" lon="13.4814596"><ele>242.66666666666666</ele><time>2026-04-26T14:02:14.072Z</time></trkpt><trkpt lat="38.049572" lon="13.4813932"><ele>244.0</ele><time>2026-04-26T14:02:15.072Z</time></trkpt><trkpt lat="38.04936" lon="13.4812957"><ele>243.0</ele><time>2026-04-26T14:02:16.072Z</time></trkpt><trkpt lat="38.0491482" lon="13.4811895"><ele>242.0</ele><time>2026-04-26T14:02:17.072Z</time></trkpt><trkpt lat="38.0489383" lon="13.4810802"><ele>242.0</ele><time>2026-04-26T14:02:18.072Z</time></trkpt><trkpt lat="38.0487371" lon="13.4809683"><ele>242.0</ele><time>2026-04-26T14:02:19.072Z</time></trkpt><trkpt lat="38.0485446" lon="13.4808605"><ele>242.0</ele><time>2026-04-26T14:02:20.073Z</time></trkpt><trkpt lat="38.0483667" lon="13.4807635"><ele>243.66666666666669</ele><time>2026-04-26T14:02:21.073Z</time></trkpt><trkpt lat="38.0482046" lon="13.4806725"><ele>245.33333333333331</ele><time>2026-04-26T14:02:22.072Z</time></trkpt><trkpt lat="38.048073" lon="13.480581"><ele>247.0</ele><time>2026-04-26T14:02:23.072Z</time></trkpt><trkpt lat="38.0479666" lon="13.4804722"><ele>246.25</ele><time>2026-04-26T14:02:24.072Z</time></trkpt><trkpt lat="38.0478918" lon="13.4803392"><ele>245.5</ele><time>2026-04-26T14:02:25.072Z</time></trkpt><trkpt lat="38.0478291" lon="13.4801948"><ele>244.75</ele><time>2026-04-26T14:02:26.072Z</time></trkpt><trkpt lat="38.0477649" lon="13.4800393"><ele>244.0</ele><time>2026-04-26T14:02:27.072Z</time></trkpt><trkpt lat="38.0476624" lon="13.4798813"><ele>244.0</ele><time>2026-04-26T14:02:28.072Z</time></trkpt><trkpt lat="38.047547" lon="13.4797162"><ele>244.0</ele><time>2026-04-26T14:02:29.072Z</time></trkpt><trkpt lat="38.0474261" lon="13.479551"><ele>244.0</ele><time>2026-04-26T14:02:30.072Z</time></trkpt><trkpt lat="38.0473032" lon="13.4793857"><ele>246.33333333333331</ele><time>2026-04-26T14:02:31.072Z</time></trkpt><trkpt lat="38.0471732" lon="13.4792236"><ele>248.66666666666669</ele><time>2026-04-26T14:02:32.073Z</time></trkpt><trkpt lat="38.0470407" lon="13.4790682"><ele>251.0</ele><time>2026-04-26T14:02:33.072Z</time></trkpt><trkpt lat="38.0469011" lon="13.4789234"><ele>251.0</ele><time>2026-04-26T14:02:34.073Z</time></trkpt><trkpt lat="38.0467591" lon="13.4787847"><ele>251.0</ele><time>2026-04-26T14:02:35.072Z</time></trkpt><trkpt lat="38.0466186" lon="13.4786403"><ele>251.0</ele><time>2026-04-26T14:02:36.072Z</time></trkpt><trkpt lat="38.0464757" lon="13.4784942"><ele>249.66666666666669</ele><time>2026-04-26T14:02:37.072Z</time></trkpt><trkpt lat="38.0463395" lon="13.4783521"><ele>248.33333333333331</ele><time>2026-04-26T14:02:38.072Z</time></trkpt><trkpt lat="38.046208" lon="13.4782208"><ele>247.0</ele><time>2026-04-26T14:02:39.072Z</time></trkpt><trkpt lat="38.0460824" lon="13.4781096"><ele>247.0</ele><time>2026-04-26T14:02:40.073Z</time></trkpt><trkpt lat="38.0459485" lon="13.4780255"><ele>247.0</ele><time>2026-04-26T14:02:41.072Z</time></trkpt><trkpt lat="38.0458027" lon="13.4779793"><ele>247.0</ele><time>2026-04-26T14:02:42.072Z</time></trkpt><trkpt lat="38.0456386" lon="13.4779544"><ele>241.66666666666666</ele><time>2026-04-26T14:02:43.072Z</time></trkpt><trkpt lat="38.0454582" lon="13.4779282"><ele>236.33333333333331</ele><time>2026-04-26T14:02:44.072Z</time></trkpt><trkpt lat="38.0452704" lon="13.4779011"><ele>231.0</ele><time>2026-04-26T14:02:45.072Z</time></trkpt><trkpt lat="38.0450807" lon="13.477875"><ele>234.33333333333331</ele><time>2026-04-26T14:02:46.072Z</time></trkpt><trkpt lat="38.0449042" lon="13.4778515"><ele>237.66666666666666</ele><time>2026-04-26T14:02:47.072Z</time></trkpt><trkpt lat="38.0447419" lon="13.4778336"><ele>241.0</ele><time>2026-04-26T14:02:48.072Z</time></trkpt><trkpt lat="38.044591" lon="13.4778132"><ele>241.0</ele><time>2026-04-26T14:02:49.072Z</time></trkpt><trkpt lat="38.0444543" lon="13.4777755"><ele>241.0</ele><time>2026-04-26T14:02:50.072Z</time></trkpt><trkpt lat="38.044326" lon="13.4777212"><ele>241.0</ele><time>2026-04-26T14:02:51.072Z</time></trkpt><trkpt lat="38.0442207" lon="13.4776411"><ele>241.0</ele><time>2026-04-26T14:02:52.072Z</time></trkpt><trkpt lat="38.0441408" lon="13.4775144"><ele>240.33333333333331</ele><time>2026-04-26T14:02:53.072Z</time></trkpt><trkpt lat="38.0440636" lon="13.4773623"><ele>239.66666666666669</ele><time>2026-04-26T14:02:54.072Z</time></trkpt><trkpt lat="38.0439622" lon="13.4772025"><ele>239.0</ele><time>2026-04-26T14:02:55.072Z</time></trkpt><trkpt lat="38.0438564" lon="13.477055"><ele>239.0</ele><time>2026-04-26T14:02:56.072Z</time></trkpt><trkpt lat="38.0437513" lon="13.4769186"><ele>239.0</ele><time>2026-04-26T14:02:57.073Z</time></trkpt><trkpt lat="38.0436351" lon="13.4767985"><ele>239.0</ele><time>2026-04-26T14:02:58.072Z</time></trkpt><trkpt lat="38.0434962" lon="13.47669"><ele>239.0</ele><time>2026-04-26T14:02:59.072Z</time></trkpt><trkpt lat="38.0433442" lon="13.4765982"><ele>239.0</ele><time>2026-04-26T14:03:00.072Z</time></trkpt><trkpt lat="38.0431888" lon="13.4765125"><ele>239.0</ele><time>2026-04-26T14:03:01.072Z</time></trkpt><trkpt lat="38.0430252" lon="13.4764291"><ele>240.33333333333334</ele><time>2026-04-26T14:03:02.073Z</time></trkpt><trkpt lat="38.0428443" lon="13.4763588"><ele>241.66666666666669</ele><time>2026-04-26T14:03:03.072Z</time></trkpt><trkpt lat="38.0426467" lon="13.4763098"><ele>243.0</ele><time>2026-04-26T14:03:04.072Z</time></trkpt><trkpt lat="38.0424306" lon="13.4762731"><ele>231.0</ele><time>2026-04-26T14:03:05.072Z</time></trkpt><trkpt lat="38.0422049" lon="13.4762315"><ele>219.0</ele><time>2026-04-26T14:03:06.072Z</time></trkpt><trkpt lat="38.0419784" lon="13.4761864"><ele>219.0</ele><time>2026-04-26T14:03:07.073Z</time></trkpt><trkpt lat="38.0417548" lon="13.4761379"><ele>219.0</ele><time>2026-04-26T14:03:08.072Z</time></trkpt><trkpt lat="38.0415415" lon="13.4760938"><ele>219.0</ele><time>2026-04-26T14:03:09.072Z</time></trkpt><trkpt lat="38.0413384" lon="13.4760434"><ele>219.0</ele><time>2026-04-26T14:03:10.072Z</time></trkpt><trkpt lat="38.0411577" lon="13.4759985"><ele>219.0</ele><time>2026-04-26T14:03:11.072Z</time></trkpt><trkpt lat="38.0409954" lon="13.4759657"><ele>219.0</ele><time>2026-04-26T14:03:12.072Z</time></trkpt><trkpt lat="38.0408473" lon="13.4759434"><ele>218.0</ele><time>2026-04-26T14:03:13.073Z</time></trkpt><trkpt lat="38.0407128" lon="13.4759579"><ele>217.0</ele><time>2026-04-26T14:03:14.072Z</time></trkpt><trkpt lat="38.0405781" lon="13.4760052"><ele>216.0</ele><time>2026-04-26T14:03:15.072Z</time></trkpt><trkpt lat="38.0404345" lon="13.4760768"><ele>215.0</ele><time>2026-04-26T14:03:16.072Z</time></trkpt><trkpt lat="38.0402812" lon="13.4761521"><ele>215.0</ele><time>2026-04-26T14:03:17.072Z</time></trkpt><trkpt lat="38.0401211" lon="13.4762259"><ele>215.0</ele><time>2026-04-26T14:03:18.072Z</time></trkpt><trkpt lat="38.0399512" lon="13.4762896"><ele>215.0</ele><time>2026-04-26T14:03:19.072Z</time></trkpt><trkpt lat="38.0397786" lon="13.4763403"><ele>216.0</ele><time>2026-04-26T14:03:20.072Z</time></trkpt><trkpt lat="38.0396077" lon="13.4763723"><ele>217.0</ele><time>2026-04-26T14:03:21.072Z</time></trkpt><trkpt lat="38.0394336" lon="13.4763953"><ele>218.0</ele><time>2026-04-26T14:03:22.072Z</time></trkpt><trkpt lat="38.0392658" lon="13.4764185"><ele>214.66666666666669</ele><time>2026-04-26T14:03:23.072Z</time></trkpt><trkpt lat="38.0391035" lon="13.4764406"><ele>211.33333333333331</ele><time>2026-04-26T14:03:24.072Z</time></trkpt><trkpt lat="38.0389443" lon="13.4764603"><ele>208.0</ele><time>2026-04-26T14:03:25.072Z</time></trkpt><trkpt lat="38.0387863" lon="13.4764674"><ele>208.0</ele><time>2026-04-26T14:03:26.072Z</time></trkpt><trkpt lat="38.0386231" lon="13.4764623"><ele>208.0</ele><time>2026-04-26T14:03:27.073Z</time></trkpt><trkpt lat="38.0384514" lon="13.4764513"><ele>208.0</ele><time>2026-04-26T14:03:28.072Z</time></trkpt><trkpt lat="38.0382723" lon="13.4764363"><ele>206.33333333333331</ele><time>2026-04-26T14:03:29.072Z</time></trkpt><trkpt lat="38.0380888" lon="13.476429"><ele>204.66666666666669</ele><time>2026-04-26T14:03:30.073Z</time></trkpt><trkpt lat="38.0379118" lon="13.4764225"><ele>203.0</ele><time>2026-04-26T14:03:31.072Z</time></trkpt><trkpt lat="38.037742" lon="13.4764283"><ele>203.0</ele><time>2026-04-26T14:03:32.072Z</time></trkpt><trkpt lat="38.0375913" lon="13.4764398"><ele>203.0</ele><time>2026-04-26T14:03:33.072Z</time></trkpt><trkpt lat="38.037463" lon="13.4764596"><ele>203.0</ele><time>2026-04-26T14:03:34.072Z</time></trkpt><trkpt lat="38.0373498" lon="13.4764754"><ele>203.0</ele><time>2026-04-26T14:03:35.073Z</time></trkpt><trkpt lat="38.0372623" lon="13.4764875"><ele>201.4</ele><time>2026-04-26T14:03:36.072Z</time></trkpt><trkpt lat="38.0371977" lon="13.4764823"><ele>199.8</ele><time>2026-04-26T14:03:37.072Z</time></trkpt><trkpt lat="38.0371195" lon="13.476457"><ele>198.2</ele><time>2026-04-26T14:03:39.072Z</time></trkpt><trkpt lat="38.0370703" lon="13.4763377"><ele>196.6</ele><time>2026-04-26T14:03:47.072Z</time></trkpt><trkpt lat="38.0371103" lon="13.4761985"><ele>195.0</ele><time>2026-04-26T14:03:49.073Z</time></trkpt><trkpt lat="38.0371578" lon="13.4760632"><ele>194.66666666666666</ele><time>2026-04-26T14:03:51.072Z</time></trkpt><trkpt lat="38.0371887" lon="13.4759921"><ele>194.33333333333331</ele><time>2026-04-26T14:03:52.072Z</time></trkpt><trkpt lat="38.0372274" lon="13.4759251"><ele>194.0</ele><time>2026-04-26T14:03:53.072Z</time></trkpt><trkpt lat="38.0372727" lon="13.4758685"><ele>193.66666666666666</ele><time>2026-04-26T14:03:54.072Z</time></trkpt><trkpt lat="38.0373194" lon="13.4758133"><ele>193.33333333333331</ele><time>2026-04-26T14:03:55.072Z</time></trkpt><trkpt lat="38.0374099" lon="13.4757057"><ele>193.0</ele><time>2026-04-26T14:03:57.073Z</time></trkpt><trkpt lat="38.0374962" lon="13.4756094"><ele>193.0</ele><time>2026-04-26T14:03:59.072Z</time></trkpt><trkpt lat="38.0375867" lon="13.4755115"><ele>193.0</ele><time>2026-04-26T14:04:01.072Z</time></trkpt><trkpt lat="38.0376481" lon="13.4754432"><ele>193.0</ele><time>2026-04-26T14:04:03.072Z</time></trkpt><trkpt lat="38.0375389" lon="13.4755251"><ele>193.0</ele><time>2026-04-26T14:04:14.073Z</time></trkpt><trkpt lat="38.0374788" lon="13.4756002"><ele>193.0</ele><time>2026-04-26T14:04:15.072Z</time></trkpt><trkpt lat="38.0374139" lon="13.4756726"><ele>191.83333333333331</ele><time>2026-04-26T14:04:16.072Z</time></trkpt><trkpt lat="38.037358" lon="13.4757405"><ele>190.66666666666666</ele><time>2026-04-26T14:04:17.072Z</time></trkpt><trkpt lat="38.0373122" lon="13.475799"><ele>189.5</ele><time>2026-04-26T14:04:18.073Z</time></trkpt><trkpt lat="38.0372401" lon="13.4758854"><ele>188.33333333333331</ele><time>2026-04-26T14:04:20.072Z</time></trkpt><trkpt lat="38.0371677" lon="13.4758976"><ele>187.16666666666666</ele><time>2026-04-26T14:04:22.072Z</time></trkpt><trkpt lat="38.0371276" lon="13.4758107"><ele>186.0</ele><time>2026-04-26T14:04:25.072Z</time></trkpt><trkpt lat="38.0371417" lon="13.4756825"><ele>186.0</ele><time>2026-04-26T14:04:27.072Z</time></trkpt><trkpt lat="38.0371496" lon="13.4756013"><ele>186.0</ele><time>2026-04-26T14:04:28.072Z</time></trkpt><trkpt lat="38.0371548" lon="13.4755159"><ele>186.0</ele><time>2026-04-26T14:04:29.072Z</time></trkpt><trkpt lat="38.037153" lon="13.4754226"><ele>186.0</ele><time>2026-04-26T14:04:30.072Z</time></trkpt><trkpt lat="38.037143" lon="13.4753234"><ele>186.0</ele><time>2026-04-26T14:04:31.072Z</time></trkpt><trkpt lat="38.0371277" lon="13.4752155"><ele>186.0</ele><time>2026-04-26T14:04:32.072Z</time></trkpt><trkpt lat="38.0371108" lon="13.4751056"><ele>184.0</ele><time>2026-04-26T14:04:33.072Z</time></trkpt><trkpt lat="38.0370941" lon="13.4749881"><ele>182.0</ele><time>2026-04-26T14:04:34.073Z</time></trkpt><trkpt lat="38.0370783" lon="13.4748734"><ele>180.0</ele><time>2026-04-26T14:04:35.072Z</time></trkpt><trkpt lat="38.0370548" lon="13.4747551"><ele>178.0</ele><time>2026-04-26T14:04:36.072Z</time></trkpt><trkpt lat="38.0370275" lon="13.4746348"><ele>176.0</ele><time>2026-04-26T14:04:37.072Z</time></trkpt><trkpt lat="38.0369949" lon="13.4745162"><ele>173.60000000000002</ele><time>2026-04-26T14:04:38.072Z</time></trkpt><trkpt lat="38.036968" lon="13.4743911"><ele>171.2</ele><time>2026-04-26T14:04:39.073Z</time></trkpt><trkpt lat="38.0369466" lon="13.4742594"><ele>168.8</ele><time>2026-04-26T14:04:40.072Z</time></trkpt><trkpt lat="38.0369294" lon="13.4741181"><ele>166.39999999999998</ele><time>2026-04-26T14:04:41.072Z</time></trkpt><trkpt lat="38.0369165" lon="13.4739657"><ele>164.0</ele><time>2026-04-26T14:04:42.072Z</time></trkpt><trkpt lat="38.0369123" lon="13.4738105"><ele>161.25</ele><time>2026-04-26T14:04:43.072Z</time></trkpt><trkpt lat="38.0369047" lon="13.4736534"><ele>158.5</ele><time>2026-04-26T14:04:44.072Z</time></trkpt><trkpt lat="38.0368964" lon="13.4734914"><ele>155.75</ele><time>2026-04-26T14:04:45.072Z</time></trkpt><trkpt lat="38.0368857" lon="13.4733285"><ele>153.0</ele><time>2026-04-26T14:04:46.073Z</time></trkpt><trkpt lat="38.0368782" lon="13.473162"><ele>153.0</ele><time>2026-04-26T14:04:47.072Z</time></trkpt><trkpt lat="38.0368657" lon="13.4729919"><ele>153.0</ele><time>2026-04-26T14:04:48.072Z</time></trkpt><trkpt lat="38.0368484" lon="13.4728234"><ele>153.0</ele><time>2026-04-26T14:04:49.072Z</time></trkpt><trkpt lat="38.0368333" lon="13.4726563"><ele>153.0</ele><time>2026-04-26T14:04:50.072Z</time></trkpt><trkpt lat="38.0368189" lon="13.4724875"><ele>150.0</ele><time>2026-04-26T14:04:51.072Z</time></trkpt><trkpt lat="38.0367978" lon="13.4723232"><ele>147.0</ele><time>2026-04-26T14:04:52.072Z</time></trkpt><trkpt lat="38.036778" lon="13.4721608"><ele>144.0</ele><time>2026-04-26T14:04:53.072Z</time></trkpt><trkpt lat="38.0367588" lon="13.471994"><ele>141.0</ele><time>2026-04-26T14:04:54.073Z</time></trkpt><trkpt lat="38.036741" lon="13.4718316"><ele>138.5</ele><time>2026-04-26T14:04:55.073Z</time></trkpt><trkpt lat="38.0367297" lon="13.4716695"><ele>136.0</ele><time>2026-04-26T14:04:56.072Z</time></trkpt><trkpt lat="38.0367266" lon="13.4715132"><ele>133.5</ele><time>2026-04-26T14:04:57.072Z</time></trkpt><trkpt lat="38.0367266" lon="13.471354"><ele>131.0</ele><time>2026-04-26T14:04:58.073Z</time></trkpt><trkpt lat="38.0367298" lon="13.4712013"><ele>129.0</ele><time>2026-04-26T14:04:59.072Z</time></trkpt><trkpt lat="38.0367334" lon="13.4710594"><ele>127.0</ele><time>2026-04-26T14:05:00.072Z</time></trkpt><trkpt lat="38.0367406" lon="13.4709272"><ele>125.0</ele><time>2026-04-26T14:05:01.072Z</time></trkpt><trkpt lat="38.0367501" lon="13.4707989"><ele>123.0</ele><time>2026-04-26T14:05:02.072Z</time></trkpt><trkpt lat="38.0367586" lon="13.4706764"><ele>121.0</ele><time>2026-04-26T14:05:03.072Z</time></trkpt><trkpt lat="38.0367624" lon="13.4705573"><ele>119.19999999999999</ele><time>2026-04-26T14:05:04.072Z</time></trkpt><trkpt lat="38.036762" lon="13.4704406"><ele>117.39999999999999</ele><time>2026-04-26T14:05:05.072Z</time></trkpt><trkpt lat="38.0367573" lon="13.4703184"><ele>115.6</ele><time>2026-04-26T14:05:06.072Z</time></trkpt><trkpt lat="38.0367546" lon="13.4701968"><ele>113.8</ele><time>2026-04-26T14:05:07.072Z</time></trkpt><trkpt lat="38.0367545" lon="13.4700802"><ele>112.0</ele><time>2026-04-26T14:05:08.072Z</time></trkpt><trkpt lat="38.0367546" lon="13.469971"><ele>112.00000000000001</ele><time>2026-04-26T14:05:09.072Z</time></trkpt><trkpt lat="38.0367588" lon="13.4698603"><ele>112.0</ele><time>2026-04-26T14:05:10.072Z</time></trkpt><trkpt lat="38.0367699" lon="13.4697601"><ele>112.0</ele><time>2026-04-26T14:05:11.072Z</time></trkpt><trkpt lat="38.0367932" lon="13.4696611"><ele>112.0</ele><time>2026-04-26T14:05:12.072Z</time></trkpt><trkpt lat="38.0368275" lon="13.4695722"><ele>112.00000000000001</ele><time>2026-04-26T14:05:13.072Z</time></trkpt><trkpt lat="38.0368724" lon="13.4694892"><ele>112.0</ele><time>2026-04-26T14:05:14.072Z</time></trkpt><trkpt lat="38.0369273" lon="13.4694111"><ele>109.66666666666667</ele><time>2026-04-26T14:05:15.072Z</time></trkpt><trkpt lat="38.0369845" lon="13.4693382"><ele>107.33333333333334</ele><time>2026-04-26T14:05:16.072Z</time></trkpt><trkpt lat="38.0370483" lon="13.4692713"><ele>105.0</ele><time>2026-04-26T14:05:17.073Z</time></trkpt><trkpt lat="38.0371084" lon="13.469211"><ele>102.66666666666666</ele><time>2026-04-26T14:05:18.072Z</time></trkpt><trkpt lat="38.0371705" lon="13.4691509"><ele>100.33333333333333</ele><time>2026-04-26T14:05:19.072Z</time></trkpt><trkpt lat="38.0372314" lon="13.4690852"><ele>98.0</ele><time>2026-04-26T14:05:20.072Z</time></trkpt><trkpt lat="38.037291" lon="13.4690186"><ele>98.0</ele><time>2026-04-26T14:05:21.073Z</time></trkpt><trkpt lat="38.0373471" lon="13.4689564"><ele>98.0</ele><time>2026-04-26T14:05:22.072Z</time></trkpt><trkpt lat="38.0374023" lon="13.4688981"><ele>98.0</ele><time>2026-04-26T14:05:23.072Z</time></trkpt><trkpt lat="38.0374584" lon="13.4688401"><ele>98.0</ele><time>2026-04-26T14:05:24.072Z</time></trkpt><trkpt lat="38.0375153" lon="13.4687844"><ele>98.0</ele><time>2026-04-26T14:05:25.072Z</time></trkpt><trkpt lat="38.0375745" lon="13.4687306"><ele>98.0</ele><time>2026-04-26T14:05:26.072Z</time></trkpt><trkpt lat="38.0376355" lon="13.4686836"><ele>98.0</ele><time>2026-04-26T14:05:27.072Z</time></trkpt><trkpt lat="38.0376911" lon="13.4686388"><ele>97.16666666666666</ele><time>2026-04-26T14:05:28.072Z</time></trkpt><trkpt lat="38.0377686" lon="13.4685681"><ele>96.33333333333333</ele><time>2026-04-26T14:05:30.072Z</time></trkpt><trkpt lat="38.0377764" lon="13.4684867"><ele>95.5</ele><time>2026-04-26T14:05:32.072Z</time></trkpt><trkpt lat="38.0377113" lon="13.4683816"><ele>94.66666666666666</ele><time>2026-04-26T14:05:34.072Z</time></trkpt><trkpt lat="38.0376622" lon="13.4683081"><ele>93.83333333333333</ele><time>2026-04-26T14:05:35.072Z</time></trkpt><trkpt lat="38.0376047" lon="13.4682367"><ele>93.0</ele><time>2026-04-26T14:05:36.072Z</time></trkpt><trkpt lat="38.0375398" lon="13.4681718"><ele>91.0</ele><time>2026-04-26T14:05:37.072Z</time></trkpt><trkpt lat="38.0374675" lon="13.468102"><ele>89.0</ele><time>2026-04-26T14:05:38.072Z</time></trkpt><trkpt lat="38.0373875" lon="13.4680378"><ele>87.0</ele><time>2026-04-26T14:05:39.072Z</time></trkpt><trkpt lat="38.0373063" lon="13.467975"><ele>85.0</ele><time>2026-04-26T14:05:40.072Z</time></trkpt><trkpt lat="38.0372314" lon="13.4679008"><ele>83.0</ele><time>2026-04-26T14:05:41.073Z</time></trkpt><trkpt lat="38.0371673" lon="13.4678062"><ele>81.2</ele><time>2026-04-26T14:05:42.072Z</time></trkpt><trkpt lat="38.0371125" lon="13.4676924"><ele>79.4</ele><time>2026-04-26T14:05:43.072Z</time></trkpt><trkpt lat="38.0370722" lon="13.4675746"><ele>77.60000000000001</ele><time>2026-04-26T14:05:44.072Z</time></trkpt><trkpt lat="38.0370518" lon="13.4674512"><ele>75.80000000000001</ele><time>2026-04-26T14:05:45.072Z</time></trkpt><trkpt lat="38.037053" lon="13.4673334"><ele>74.0</ele><time>2026-04-26T14:05:46.072Z</time></trkpt><trkpt lat="38.0370751" lon="13.4672202"><ele>73.60000000000001</ele><time>2026-04-26T14:05:47.072Z</time></trkpt><trkpt lat="38.0371101" lon="13.4671054"><ele>73.2</ele><time>2026-04-26T14:05:48.072Z</time></trkpt><trkpt lat="38.0371496" lon="13.4669827"><ele>72.80000000000001</ele><time>2026-04-26T14:05:49.072Z</time></trkpt><trkpt lat="38.0371903" lon="13.4668591"><ele>72.4</ele><time>2026-04-26T14:05:50.072Z</time></trkpt><trkpt lat="38.0372248" lon="13.466745"><ele>72.0</ele><time>2026-04-26T14:05:51.072Z</time></trkpt><trkpt lat="38.0372581" lon="13.4666354"><ele>72.0</ele><time>2026-04-26T14:05:52.072Z</time></trkpt><trkpt lat="38.037285" lon="13.466533"><ele>72.0</ele><time>2026-04-26T14:05:53.072Z</time></trkpt><trkpt lat="38.0373053" lon="13.466428"><ele>72.0</ele><time>2026-04-26T14:05:54.072Z</time></trkpt><trkpt lat="38.0373167" lon="13.4663184"><ele>72.0</ele><time>2026-04-26T14:05:55.072Z</time></trkpt><trkpt lat="38.0373278" lon="13.4662114"><ele>72.0</ele><time>2026-04-26T14:05:56.072Z</time></trkpt><trkpt lat="38.0373384" lon="13.4661129"><ele>72.0</ele><time>2026-04-26T14:05:57.072Z</time></trkpt><trkpt lat="38.0373464" lon="13.4660133"><ele>71.83333333333333</ele><time>2026-04-26T14:05:58.073Z</time></trkpt><trkpt lat="38.0373598" lon="13.4659184"><ele>71.66666666666667</ele><time>2026-04-26T14:05:59.072Z</time></trkpt><trkpt lat="38.0373732" lon="13.4658215"><ele>71.5</ele><time>2026-04-26T14:06:00.073Z</time></trkpt><trkpt lat="38.0373951" lon="13.4657219"><ele>71.33333333333334</ele><time>2026-04-26T14:06:01.073Z</time></trkpt><trkpt lat="38.0374193" lon="13.4656109"><ele>71.16666666666667</ele><time>2026-04-26T14:06:02.072Z</time></trkpt><trkpt lat="38.0374458" lon="13.4654916"><ele>71.0</ele><time>2026-04-26T14:06:03.073Z</time></trkpt><trkpt lat="38.0374714" lon="13.4653834"><ele>71.0</ele><time>2026-04-26T14:06:04.073Z</time></trkpt><trkpt lat="38.0374898" lon="13.4652985"><ele>71.0</ele><time>2026-04-26T14:06:05.072Z</time></trkpt><trkpt lat="38.0375088" lon="13.4652077"><ele>71.0</ele><time>2026-04-26T14:06:06.072Z</time></trkpt><trkpt lat="38.0375337" lon="13.4650972"><ele>71.0</ele><time>2026-04-26T14:06:07.072Z</time></trkpt><trkpt lat="38.0375634" lon="13.464969"><ele>71.0</ele><time>2026-04-26T14:06:08.072Z</time></trkpt><trkpt lat="38.0375879" lon="13.4648353"><ele>71.0</ele><time>2026-04-26T14:06:09.072Z</time></trkpt><trkpt lat="38.0376088" lon="13.4646969"><ele>70.8</ele><time>2026-04-26T14:06:10.072Z</time></trkpt><trkpt lat="38.0376299" lon="13.4645527"><ele>70.6</ele><time>2026-04-26T14:06:11.072Z</time></trkpt><trkpt lat="38.0376474" lon="13.464412"><ele>70.4</ele><time>2026-04-26T14:06:12.072Z</time></trkpt><trkpt lat="38.037667" lon="13.4642806"><ele>70.2</ele><time>2026-04-26T14:06:13.072Z</time></trkpt><trkpt lat="38.0376842" lon="13.4641511"><ele>70.0</ele><time>2026-04-26T14:06:14.072Z</time></trkpt><trkpt lat="38.0377016" lon="13.4640283"><ele>70.0</ele><time>2026-04-26T14:06:15.072Z</time></trkpt><trkpt lat="38.0377127" lon="13.4639069"><ele>70.0</ele><time>2026-04-26T14:06:16.073Z</time></trkpt><trkpt lat="38.0377147" lon="13.4637835"><ele>70.0</ele><time>2026-04-26T14:06:17.072Z</time></trkpt><trkpt lat="38.0376985" lon="13.4636585"><ele>70.0</ele><time>2026-04-26T14:06:18.072Z</time></trkpt><trkpt lat="38.0376721" lon="13.4635327"><ele>70.0</ele><time>2026-04-26T14:06:19.072Z</time></trkpt><trkpt lat="38.0376331" lon="13.463415"><ele>70.83333333333333</ele><time>2026-04-26T14:06:20.072Z</time></trkpt><trkpt lat="38.0375889" lon="13.4633073"><ele>71.66666666666666</ele><time>2026-04-26T14:06:21.072Z</time></trkpt><trkpt lat="38.0375429" lon="13.4632161"><ele>72.5</ele><time>2026-04-26T14:06:22.072Z</time></trkpt><trkpt lat="38.0374922" lon="13.463129"><ele>73.33333333333333</ele><time>2026-04-26T14:06:23.072Z</time></trkpt><trkpt lat="38.0374414" lon="13.463038"><ele>74.16666666666667</ele><time>2026-04-26T14:06:24.072Z</time></trkpt><trkpt lat="38.0373894" lon="13.4629453"><ele>75.0</ele><time>2026-04-26T14:06:25.072Z</time></trkpt><trkpt lat="38.0373356" lon="13.4628467"><ele>76.8</ele><time>2026-04-26T14:06:26.072Z</time></trkpt><trkpt lat="38.0372742" lon="13.4627659"><ele>78.6</ele><time>2026-04-26T14:06:27.072Z</time></trkpt><trkpt lat="38.0372045" lon="13.4627077"><ele>80.4</ele><time>2026-04-26T14:06:28.072Z</time></trkpt><trkpt lat="38.0371388" lon="13.4626623"><ele>82.2</ele><time>2026-04-26T14:06:29.073Z</time></trkpt><trkpt lat="38.0370654" lon="13.4625973"><ele>84.0</ele><time>2026-04-26T14:06:31.072Z</time></trkpt><trkpt lat="38.0369986" lon="13.4624798"><ele>84.0</ele><time>2026-04-26T14:06:34.072Z</time></trkpt><trkpt lat="38.0368868" lon="13.4623805"><ele>84.0</ele><time>2026-04-26T14:06:36.073Z</time></trkpt><trkpt lat="38.0367929" lon="13.4623004"><ele>84.0</ele><time>2026-04-26T14:06:37.072Z</time></trkpt><trkpt lat="38.0366805" lon="13.4621954"><ele>84.0</ele><time>2026-04-26T14:06:38.072Z</time></trkpt><trkpt lat="38.0365676" lon="13.4620878"><ele>85.66666666666667</ele><time>2026-04-26T14:06:39.072Z</time></trkpt><trkpt lat="38.0364347" lon="13.4619568"><ele>87.33333333333334</ele><time>2026-04-26T14:06:40.073Z</time></trkpt><trkpt lat="38.0362963" lon="13.461824"><ele>89.0</ele><time>2026-04-26T14:06:41.072Z</time></trkpt><trkpt lat="38.0361563" lon="13.4616794"><ele>89.0</ele><time>2026-04-26T14:06:42.072Z</time></trkpt><trkpt lat="38.0360082" lon="13.4615361"><ele>89.0</ele><time>2026-04-26T14:06:43.073Z</time></trkpt><trkpt lat="38.0358654" lon="13.4613927"><ele>89.0</ele><time>2026-04-26T14:06:44.073Z</time></trkpt><trkpt lat="38.0357353" lon="13.4612564"><ele>89.0</ele><time>2026-04-26T14:06:45.072Z</time></trkpt><trkpt lat="38.0356245" lon="13.4611237"><ele>89.0</ele><time>2026-04-26T14:06:46.073Z</time></trkpt><trkpt lat="38.0355345" lon="13.4609767"><ele>89.0</ele><time>2026-04-26T14:06:47.072Z</time></trkpt><trkpt lat="38.0354647" lon="13.460805"><ele>89.0</ele><time>2026-04-26T14:06:48.073Z</time></trkpt><trkpt lat="38.0353965" lon="13.4606136"><ele>89.0</ele><time>2026-04-26T14:06:49.072Z</time></trkpt><trkpt lat="38.0353306" lon="13.4604235"><ele>89.0</ele><time>2026-04-26T14:06:50.072Z</time></trkpt><trkpt lat="38.0352661" lon="13.4602321"><ele>90.66666666666667</ele><time>2026-04-26T14:06:51.073Z</time></trkpt><trkpt lat="38.0351953" lon="13.4600435"><ele>92.33333333333333</ele><time>2026-04-26T14:06:52.072Z</time></trkpt><trkpt lat="38.0351249" lon="13.4598582"><ele>94.0</ele><time>2026-04-26T14:06:53.072Z</time></trkpt><trkpt lat="38.0350551" lon="13.4596731"><ele>95.5</ele><time>2026-04-26T14:06:54.072Z</time></trkpt><trkpt lat="38.0349867" lon="13.4594916"><ele>97.0</ele><time>2026-04-26T14:06:55.072Z</time></trkpt><trkpt lat="38.034924" lon="13.4593165"><ele>98.5</ele><time>2026-04-26T14:06:56.072Z</time></trkpt><trkpt lat="38.0348675" lon="13.4591604"><ele>100.0</ele><time>2026-04-26T14:06:57.072Z</time></trkpt><trkpt lat="38.0348263" lon="13.4590357"><ele>100.00000000000001</ele><time>2026-04-26T14:06:58.072Z</time></trkpt><trkpt lat="38.0348027" lon="13.4589225"><ele>100.0</ele><time>2026-04-26T14:07:00.072Z</time></trkpt><trkpt lat="38.0348686" lon="13.4588758"><ele>100.0</ele><time>2026-04-26T14:07:03.072Z</time></trkpt><trkpt lat="38.0349323" lon="13.4588735"><ele>100.0</ele><time>2026-04-26T14:07:24.072Z</time></trkpt><trkpt lat="38.0349981" lon="13.4588999"><ele>100.00000000000001</ele><time>2026-04-26T14:07:25.071Z</time></trkpt><trkpt lat="38.0350663" lon="13.4589341"><ele>100.0</ele><time>2026-04-26T14:07:26.071Z</time></trkpt><trkpt lat="38.0351452" lon="13.4589703"><ele>100.5</ele><time>2026-04-26T14:07:27.071Z</time></trkpt><trkpt lat="38.0352381" lon="13.45902"><ele>101.0</ele><time>2026-04-26T14:07:28.071Z</time></trkpt><trkpt lat="38.0353508" lon="13.4590744"><ele>101.5</ele><time>2026-04-26T14:07:29.071Z</time></trkpt><trkpt lat="38.035465" lon="13.4591294"><ele>102.0</ele><time>2026-04-26T14:07:30.071Z</time></trkpt><trkpt lat="38.0355825" lon="13.459188"><ele>102.0</ele><time>2026-04-26T14:07:31.071Z</time></trkpt><trkpt lat="38.0357064" lon="13.4592481"><ele>102.0</ele><time>2026-04-26T14:07:32.071Z</time></trkpt><trkpt lat="38.0358368" lon="13.459315"><ele>102.0</ele><time>2026-04-26T14:07:33.071Z</time></trkpt><trkpt lat="38.0359716" lon="13.4593802"><ele>102.0</ele><time>2026-04-26T14:07:34.071Z</time></trkpt><trkpt lat="38.0361072" lon="13.4594436"><ele>102.0</ele><time>2026-04-26T14:07:35.071Z</time></trkpt><trkpt lat="38.0362371" lon="13.4595099"><ele>102.0</ele><time>2026-04-26T14:07:36.071Z</time></trkpt><trkpt lat="38.0363688" lon="13.4595786"><ele>102.0</ele><time>2026-04-26T14:07:37.071Z</time></trkpt><trkpt lat="38.0364927" lon="13.4596472"><ele>102.0</ele><time>2026-04-26T14:07:38.071Z</time></trkpt><trkpt lat="38.0366015" lon="13.4597024"><ele>103.5</ele><time>2026-04-26T14:07:39.071Z</time></trkpt><trkpt lat="38.0367167" lon="13.4597606"><ele>105.0</ele><time>2026-04-26T14:07:40.071Z</time></trkpt><trkpt lat="38.0368577" lon="13.4598278"><ele>106.5</ele><time>2026-04-26T14:07:41.071Z</time></trkpt><trkpt lat="38.037005" lon="13.4598925"><ele>108.0</ele><time>2026-04-26T14:07:42.071Z</time></trkpt><trkpt lat="38.0371507" lon="13.4599644"><ele>108.0</ele><time>2026-04-26T14:07:43.071Z</time></trkpt><trkpt lat="38.0372783" lon="13.4600279"><ele>108.0</ele><time>2026-04-26T14:07:44.071Z</time></trkpt><trkpt lat="38.0373928" lon="13.4600848"><ele>108.0</ele><time>2026-04-26T14:07:45.071Z</time></trkpt><trkpt lat="38.0374914" lon="13.460136"><ele>108.0</ele><time>2026-04-26T14:07:46.071Z</time></trkpt><trkpt lat="38.0375701" lon="13.4601752"><ele>108.0</ele><time>2026-04-26T14:07:47.071Z</time></trkpt><trkpt lat="38.0376359" lon="13.4602387"><ele>108.0</ele><time>2026-04-26T14:07:49.071Z</time></trkpt><trkpt lat="38.0376702" lon="13.4603183"><ele>108.0</ele><time>2026-04-26T14:07:53.071Z</time></trkpt><trkpt lat="38.0376535" lon="13.4602118"><ele>108.0</ele><time>2026-04-26T14:08:20.072Z</time></trkpt><trkpt lat="38.0375935" lon="13.4601427"><ele>108.0</ele><time>2026-04-26T14:08:21.071Z</time></trkpt><trkpt lat="38.0375112" lon="13.4600954"><ele>108.0</ele><time>2026-04-26T14:08:22.071Z</time></trkpt><trkpt lat="38.0374025" lon="13.4600441"><ele>108.0</ele><time>2026-04-26T14:08:23.071Z</time></trkpt><trkpt lat="38.0372785" lon="13.4599823"><ele>108.0</ele><time>2026-04-26T14:08:24.071Z</time></trkpt><trkpt lat="38.0371434" lon="13.4599221"><ele>108.0</ele><time>2026-04-26T14:08:25.072Z</time></trkpt><trkpt lat="38.037003" lon="13.4598515"><ele>108.0</ele><time>2026-04-26T14:08:26.072Z</time></trkpt><trkpt lat="38.036856" lon="13.4597711"><ele>108.0</ele><time>2026-04-26T14:08:27.071Z</time></trkpt><trkpt lat="38.0367067" lon="13.4596939"><ele>108.0</ele><time>2026-04-26T14:08:28.072Z</time></trkpt><trkpt lat="38.0365508" lon="13.4596154"><ele>108.0</ele><time>2026-04-26T14:08:29.071Z</time></trkpt><trkpt lat="38.0363861" lon="13.4595329"><ele>108.0</ele><time>2026-04-26T14:08:30.071Z</time></trkpt><trkpt lat="38.0362089" lon="13.4594458"><ele>108.0</ele><time>2026-04-26T14:08:31.071Z</time></trkpt><trkpt lat="38.0360242" lon="13.459356"><ele>108.0</ele><time>2026-04-26T14:08:32.071Z</time></trkpt><trkpt lat="38.0358353" lon="13.45926"><ele>106.0</ele><time>2026-04-26T14:08:33.072Z</time></trkpt><trkpt lat="38.0356479" lon="13.4591628"><ele>104.0</ele><time>2026-04-26T14:08:34.071Z</time></trkpt><trkpt lat="38.035454" lon="13.4590668"><ele>102.0</ele><time>2026-04-26T14:08:35.071Z</time></trkpt><trkpt lat="38.0352533" lon="13.4589667"><ele>102.0</ele><time>2026-04-26T14:08:36.071Z</time></trkpt><trkpt lat="38.0350595" lon="13.4588731"><ele>102.0</ele><time>2026-04-26T14:08:37.071Z</time></trkpt><trkpt lat="38.0348872" lon="13.4587883"><ele>102.0</ele><time>2026-04-26T14:08:38.071Z</time></trkpt><trkpt lat="38.0347259" lon="13.4587051"><ele>103.33333333333334</ele><time>2026-04-26T14:08:39.072Z</time></trkpt><trkpt lat="38.0345758" lon="13.4586249"><ele>104.66666666666667</ele><time>2026-04-26T14:08:40.071Z</time></trkpt><trkpt lat="38.0344306" lon="13.4585503"><ele>106.0</ele><time>2026-04-26T14:08:41.071Z</time></trkpt><trkpt lat="38.0342846" lon="13.4584787"><ele>105.0</ele><time>2026-04-26T14:08:42.071Z</time></trkpt><trkpt lat="38.0341363" lon="13.4584083"><ele>104.0</ele><time>2026-04-26T14:08:43.071Z</time></trkpt><trkpt lat="38.0339869" lon="13.4583369"><ele>103.0</ele><time>2026-04-26T14:08:44.071Z</time></trkpt><trkpt lat="38.0338364" lon="13.4582612"><ele>103.0</ele><time>2026-04-26T14:08:45.071Z</time></trkpt><trkpt lat="38.0336897" lon="13.4581857"><ele>103.0</ele><time>2026-04-26T14:08:46.071Z</time></trkpt><trkpt lat="38.0335407" lon="13.4581097"><ele>103.0</ele><time>2026-04-26T14:08:47.071Z</time></trkpt><trkpt lat="38.0333929" lon="13.4580359"><ele>102.80000000000001</ele><time>2026-04-26T14:08:48.071Z</time></trkpt><trkpt lat="38.0332608" lon="13.4579724"><ele>102.6</ele><time>2026-04-26T14:08:49.071Z</time></trkpt><trkpt lat="38.0331561" lon="13.4579144"><ele>102.4</ele><time>2026-04-26T14:08:50.071Z</time></trkpt><trkpt lat="38.0330817" lon="13.4578714"><ele>102.19999999999999</ele><time>2026-04-26T14:08:51.071Z</time></trkpt><trkpt lat="38.033026" lon="13.4578322"><ele>102.0</ele><time>2026-04-26T14:08:52.071Z</time></trkpt><trkpt lat="38.0329691" lon="13.4577793"><ele>102.0</ele><time>2026-04-26T14:08:54.071Z</time></trkpt><trkpt lat="38.0329883" lon="13.4579028"><ele>102.0</ele><time>2026-04-26T14:09:41.071Z</time></trkpt><trkpt lat="38.0330524" lon="13.4579531"><ele>102.0</ele><time>2026-04-26T14:09:42.072Z</time></trkpt><trkpt lat="38.0331339" lon="13.4579878"><ele>102.0</ele><time>2026-04-26T14:09:43.072Z</time></trkpt><trkpt lat="38.0332315" lon="13.4580259"><ele>102.0</ele><time>2026-04-26T14:09:44.071Z</time></trkpt><trkpt lat="38.033341" lon="13.4580765"><ele>102.25</ele><time>2026-04-26T14:09:45.071Z</time></trkpt><trkpt lat="38.03345" lon="13.4581309"><ele>102.5</ele><time>2026-04-26T14:09:46.072Z</time></trkpt><trkpt lat="38.0335645" lon="13.4581851"><ele>102.75</ele><time>2026-04-26T14:09:47.072Z</time></trkpt><trkpt lat="38.0336854" lon="13.4582441"><ele>103.0</ele><time>2026-04-26T14:09:48.071Z</time></trkpt><trkpt lat="38.0338053" lon="13.4583012"><ele>103.0</ele><time>2026-04-26T14:09:49.072Z</time></trkpt><trkpt lat="38.033934" lon="13.4583633"><ele>103.0</ele><time>2026-04-26T14:09:50.071Z</time></trkpt><trkpt lat="38.0340583" lon="13.4584293"><ele>103.0</ele><time>2026-04-26T14:09:51.071Z</time></trkpt><trkpt lat="38.034177" lon="13.45849"><ele>103.0</ele><time>2026-04-26T14:09:52.071Z</time></trkpt><trkpt lat="38.0342909" lon="13.4585457"><ele>103.60000000000001</ele><time>2026-04-26T14:09:53.071Z</time></trkpt><trkpt lat="38.0344004" lon="13.4585975"><ele>104.2</ele><time>2026-04-26T14:09:54.071Z</time></trkpt><trkpt lat="38.0344989" lon="13.4586485"><ele>104.8</ele><time>2026-04-26T14:09:55.071Z</time></trkpt><trkpt lat="38.0345846" lon="13.4586926"><ele>105.4</ele><time>2026-04-26T14:09:56.071Z</time></trkpt><trkpt lat="38.0346498" lon="13.4587353"><ele>106.0</ele><time>2026-04-26T14:09:57.071Z</time></trkpt><trkpt lat="38.0347277" lon="13.4588227"><ele>106.00000000000001</ele><time>2026-04-26T14:09:59.071Z</time></trkpt><trkpt lat="38.0347757" lon="13.458919"><ele>106.0</ele><time>2026-04-26T14:10:01.071Z</time></trkpt><trkpt lat="38.0347961" lon="13.459"><ele>106.0</ele><time>2026-04-26T14:10:03.071Z</time></trkpt><trkpt lat="38.0347451" lon="13.4590621"><ele>106.0</ele><time>2026-04-26T14:10:07.069Z</time></trkpt><trkpt lat="38.0348258" lon="13.4589384"><ele>106.00000000000001</ele><time>2026-04-26T14:10:22.072Z</time></trkpt><trkpt lat="38.0348711" lon="13.4588773"><ele>106.0</ele><time>2026-04-26T14:10:25.071Z</time></trkpt><trkpt lat="38.0348574" lon="13.4587716"><ele>106.0</ele><time>2026-04-26T14:10:49.072Z</time></trkpt><trkpt lat="38.0348094" lon="13.4587187"><ele>106.0</ele><time>2026-04-26T14:10:50.071Z</time></trkpt><trkpt lat="38.0347501" lon="13.4585776"><ele>106.0</ele><time>2026-04-26T14:10:52.071Z</time></trkpt><trkpt lat="38.0347498" lon="13.4584775"><ele>106.0</ele><time>2026-04-26T14:10:53.071Z</time></trkpt><trkpt lat="38.0347635" lon="13.458348"><ele>106.0</ele><time>2026-04-26T14:10:54.071Z</time></trkpt><trkpt lat="38.0347837" lon="13.4581941"><ele>106.0</ele><time>2026-04-26T14:10:55.072Z</time></trkpt><trkpt lat="38.0348026" lon="13.4580459"><ele>106.0</ele><time>2026-04-26T14:10:56.072Z</time></trkpt><trkpt lat="38.0348211" lon="13.457889"><ele>106.0</ele><time>2026-04-26T14:10:57.072Z</time></trkpt><trkpt lat="38.0348396" lon="13.4577358"><ele>106.0</ele><time>2026-04-26T14:10:58.072Z</time></trkpt><trkpt lat="38.0348583" lon="13.4575886"><ele>106.6</ele><time>2026-04-26T14:10:59.071Z</time></trkpt><trkpt lat="38.0348654" lon="13.4574441"><ele>107.19999999999999</ele><time>2026-04-26T14:11:00.071Z</time></trkpt><trkpt lat="38.034871" lon="13.4573027"><ele>107.80000000000001</ele><time>2026-04-26T14:11:01.071Z</time></trkpt><trkpt lat="38.0348781" lon="13.4571599"><ele>108.4</ele><time>2026-04-26T14:11:02.072Z</time></trkpt><trkpt lat="38.0348846" lon="13.4570272"><ele>109.0</ele><time>2026-04-26T14:11:03.072Z</time></trkpt><trkpt lat="38.0348775" lon="13.4569"><ele>109.80000000000001</ele><time>2026-04-26T14:11:04.071Z</time></trkpt><trkpt lat="38.0348666" lon="13.4567661"><ele>110.60000000000001</ele><time>2026-04-26T14:11:05.072Z</time></trkpt><trkpt lat="38.0348595" lon="13.4566316"><ele>111.4</ele><time>2026-04-26T14:11:06.071Z</time></trkpt><trkpt lat="38.034859" lon="13.4565047"><ele>112.2</ele><time>2026-04-26T14:11:07.071Z</time></trkpt><trkpt lat="38.0348612" lon="13.4563808"><ele>113.0</ele><time>2026-04-26T14:11:08.072Z</time></trkpt><trkpt lat="38.0348595" lon="13.4562717"><ele>114.16666666666666</ele><time>2026-04-26T14:11:09.071Z</time></trkpt><trkpt lat="38.0348585" lon="13.4561706"><ele>115.33333333333333</ele><time>2026-04-26T14:11:10.071Z</time></trkpt><trkpt lat="38.0348553" lon="13.4560817"><ele>116.5</ele><time>2026-04-26T14:11:11.071Z</time></trkpt><trkpt lat="38.0348486" lon="13.4559561"><ele>117.66666666666666</ele><time>2026-04-26T14:11:13.071Z</time></trkpt><trkpt lat="38.0347931" lon="13.4558827"><ele>118.83333333333333</ele><time>2026-04-26T14:11:16.072Z</time></trkpt><trkpt lat="38.0347127" lon="13.4558143"><ele>120.0</ele><time>2026-04-26T14:11:18.071Z</time></trkpt><trkpt lat="38.0345838" lon="13.4557285"><ele>120.0</ele><time>2026-04-26T14:11:20.071Z</time></trkpt><trkpt lat="38.0344749" lon="13.4556899"><ele>120.0</ele><time>2026-04-26T14:11:21.071Z</time></trkpt><trkpt lat="38.0343609" lon="13.4556479"><ele>120.0</ele><time>2026-04-26T14:11:22.071Z</time></trkpt><trkpt lat="38.0342439" lon="13.455587"><ele>120.0</ele><time>2026-04-26T14:11:23.071Z</time></trkpt><trkpt lat="38.0341255" lon="13.4555286"><ele>119.75</ele><time>2026-04-26T14:11:24.071Z</time></trkpt><trkpt lat="38.0340076" lon="13.4554814"><ele>119.5</ele><time>2026-04-26T14:11:25.072Z</time></trkpt><trkpt lat="38.0338959" lon="13.4554261"><ele>119.25</ele><time>2026-04-26T14:11:26.071Z</time></trkpt><trkpt lat="38.0337907" lon="13.4553695"><ele>119.0</ele><time>2026-04-26T14:11:27.071Z</time></trkpt><trkpt lat="38.0336982" lon="13.4553148"><ele>119.0</ele><time>2026-04-26T14:11:28.071Z</time></trkpt><trkpt lat="38.033623" lon="13.4552587"><ele>119.0</ele><time>2026-04-26T14:11:29.071Z</time></trkpt><trkpt lat="38.0335601" lon="13.4551872"><ele>119.0</ele><time>2026-04-26T14:11:30.071Z</time></trkpt><trkpt lat="38.0335036" lon="13.455083"><ele>119.0</ele><time>2026-04-26T14:11:31.071Z</time></trkpt><trkpt lat="38.0334407" lon="13.4549369"><ele>119.0</ele><time>2026-04-26T14:11:32.071Z</time></trkpt><trkpt lat="38.0333782" lon="13.4547666"><ele>119.0</ele><time>2026-04-26T14:11:33.071Z</time></trkpt><trkpt lat="38.0333205" lon="13.4545846"><ele>119.0</ele><time>2026-04-26T14:11:34.072Z</time></trkpt><trkpt lat="38.0332649" lon="13.4544089"><ele>119.0</ele><time>2026-04-26T14:11:35.071Z</time></trkpt><trkpt lat="38.0332128" lon="13.4542393"><ele>119.0</ele><time>2026-04-26T14:11:36.071Z</time></trkpt><trkpt lat="38.0331596" lon="13.4540768"><ele>119.0</ele><time>2026-04-26T14:11:37.071Z</time></trkpt><trkpt lat="38.0331103" lon="13.4539222"><ele>119.0</ele><time>2026-04-26T14:11:38.072Z</time></trkpt><trkpt lat="38.0330633" lon="13.4537816"><ele>119.0</ele><time>2026-04-26T14:11:39.071Z</time></trkpt><trkpt lat="38.0330245" lon="13.4536545"><ele>119.0</ele><time>2026-04-26T14:11:40.071Z</time></trkpt><trkpt lat="38.0329901" lon="13.453541"><ele>119.66666666666666</ele><time>2026-04-26T14:11:41.071Z</time></trkpt><trkpt lat="38.0329604" lon="13.4534372"><ele>120.33333333333333</ele><time>2026-04-26T14:11:42.071Z</time></trkpt><trkpt lat="38.0329432" lon="13.4533483"><ele>121.0</ele><time>2026-04-26T14:11:43.071Z</time></trkpt><trkpt lat="38.0329496" lon="13.4531962"><ele>121.66666666666666</ele><time>2026-04-26T14:11:45.071Z</time></trkpt><trkpt lat="38.033012" lon="13.4531118"><ele>122.33333333333333</ele><time>2026-04-26T14:11:47.071Z</time></trkpt><trkpt lat="38.0330508" lon="13.4530355"><ele>123.0</ele><time>2026-04-26T14:11:50.071Z</time></trkpt><trkpt lat="38.0330409" lon="13.4529119"><ele>123.0</ele><time>2026-04-26T14:11:53.071Z</time></trkpt><trkpt lat="38.0330061" lon="13.4528141"><ele>123.00000000000001</ele><time>2026-04-26T14:11:54.072Z</time></trkpt><trkpt lat="38.0329627" lon="13.4527038"><ele>123.00000000000001</ele><time>2026-04-26T14:11:55.071Z</time></trkpt><trkpt lat="38.0329176" lon="13.4525766"><ele>123.0</ele><time>2026-04-26T14:11:56.071Z</time></trkpt><trkpt lat="38.0328741" lon="13.45245"><ele>123.0</ele><time>2026-04-26T14:11:57.071Z</time></trkpt><trkpt lat="38.0328239" lon="13.4523171"><ele>123.0</ele><time>2026-04-26T14:11:58.071Z</time></trkpt><trkpt lat="38.0327728" lon="13.4521781"><ele>123.0</ele><time>2026-04-26T14:11:59.071Z</time></trkpt><trkpt lat="38.0327187" lon="13.4520295"><ele>123.0</ele><time>2026-04-26T14:12:00.071Z</time></trkpt><trkpt lat="38.0326641" lon="13.4518714"><ele>123.0</ele><time>2026-04-26T14:12:01.071Z</time></trkpt><trkpt lat="38.0326121" lon="13.4517077"><ele>123.0</ele><time>2026-04-26T14:12:02.071Z</time></trkpt><trkpt lat="38.0325609" lon="13.4515405"><ele>123.0</ele><time>2026-04-26T14:12:03.071Z</time></trkpt><trkpt lat="38.0325138" lon="13.4513758"><ele>123.0</ele><time>2026-04-26T14:12:04.071Z</time></trkpt><trkpt lat="38.0324614" lon="13.4512212"><ele>123.0</ele><time>2026-04-26T14:12:05.071Z</time></trkpt><trkpt lat="38.0324127" lon="13.4510695"><ele>122.5</ele><time>2026-04-26T14:12:06.072Z</time></trkpt><trkpt lat="38.0323626" lon="13.4509277"><ele>122.0</ele><time>2026-04-26T14:12:07.071Z</time></trkpt><trkpt lat="38.0323043" lon="13.4508041"><ele>121.5</ele><time>2026-04-26T14:12:08.071Z</time></trkpt><trkpt lat="38.0322353" lon="13.4506982"><ele>121.0</ele><time>2026-04-26T14:12:09.071Z</time></trkpt><trkpt lat="38.0321514" lon="13.4506082"><ele>121.0</ele><time>2026-04-26T14:12:10.072Z</time></trkpt><trkpt lat="38.032069" lon="13.4505239"><ele>121.0</ele><time>2026-04-26T14:12:11.071Z</time></trkpt><trkpt lat="38.0319772" lon="13.4504404"><ele>121.0</ele><time>2026-04-26T14:12:12.071Z</time></trkpt><trkpt lat="38.0318748" lon="13.4503742"><ele>121.0</ele><time>2026-04-26T14:12:13.072Z</time></trkpt><trkpt lat="38.0317617" lon="13.4503217"><ele>121.0</ele><time>2026-04-26T14:12:14.071Z</time></trkpt><trkpt lat="38.0316496" lon="13.4502709"><ele>121.0</ele><time>2026-04-26T14:12:15.072Z</time></trkpt><trkpt lat="38.0315373" lon="13.4502252"><ele>121.0</ele><time>2026-04-26T14:12:16.071Z</time></trkpt><trkpt lat="38.0314118" lon="13.4501648"><ele>121.0</ele><time>2026-04-26T14:12:17.071Z</time></trkpt><trkpt lat="38.0312712" lon="13.4501043"><ele>121.0</ele><time>2026-04-26T14:12:18.072Z</time></trkpt><trkpt lat="38.0311262" lon="13.4500405"><ele>121.0</ele><time>2026-04-26T14:12:19.071Z</time></trkpt><trkpt lat="38.0309761" lon="13.4499853"><ele>121.0</ele><time>2026-04-26T14:12:20.071Z</time></trkpt><trkpt lat="38.0308326" lon="13.4499411"><ele>121.75</ele><time>2026-04-26T14:12:21.071Z</time></trkpt><trkpt lat="38.0306842" lon="13.4499046"><ele>122.5</ele><time>2026-04-26T14:12:22.071Z</time></trkpt><trkpt lat="38.0305386" lon="13.4498786"><ele>123.25</ele><time>2026-04-26T14:12:23.072Z</time></trkpt><trkpt lat="38.0303941" lon="13.4498532"><ele>124.0</ele><time>2026-04-26T14:12:24.071Z</time></trkpt><trkpt lat="38.0302589" lon="13.4498294"><ele>124.0</ele><time>2026-04-26T14:12:25.071Z</time></trkpt><trkpt lat="38.0301201" lon="13.4498058"><ele>124.0</ele><time>2026-04-26T14:12:26.071Z</time></trkpt><trkpt lat="38.0299777" lon="13.4497834"><ele>124.0</ele><time>2026-04-26T14:12:27.071Z</time></trkpt><trkpt lat="38.0298309" lon="13.449763"><ele>124.0</ele><time>2026-04-26T14:12:28.071Z</time></trkpt><trkpt lat="38.0296707" lon="13.449743"><ele>125.66666666666667</ele><time>2026-04-26T14:12:29.072Z</time></trkpt><trkpt lat="38.0294994" lon="13.4497018"><ele>127.33333333333334</ele><time>2026-04-26T14:12:30.071Z</time></trkpt><trkpt lat="38.0293285" lon="13.4496437"><ele>129.0</ele><time>2026-04-26T14:12:31.071Z</time></trkpt><trkpt lat="38.0291669" lon="13.4495705"><ele>130.75</ele><time>2026-04-26T14:12:32.071Z</time></trkpt><trkpt lat="38.0290249" lon="13.4494924"><ele>132.5</ele><time>2026-04-26T14:12:33.071Z</time></trkpt><trkpt lat="38.0288969" lon="13.4494106"><ele>134.25</ele><time>2026-04-26T14:12:34.071Z</time></trkpt><trkpt lat="38.0287755" lon="13.4493191"><ele>136.0</ele><time>2026-04-26T14:12:35.072Z</time></trkpt><trkpt lat="38.0286588" lon="13.4492306"><ele>136.0</ele><time>2026-04-26T14:12:36.071Z</time></trkpt><trkpt lat="38.0285378" lon="13.4491445"><ele>136.0</ele><time>2026-04-26T14:12:37.071Z</time></trkpt><trkpt lat="38.0284167" lon="13.4490605"><ele>136.0</ele><time>2026-04-26T14:12:38.071Z</time></trkpt><trkpt lat="38.028296" lon="13.4489744"><ele>136.0</ele><time>2026-04-26T14:12:39.071Z</time></trkpt><trkpt lat="38.028181" lon="13.4488927"><ele>136.0</ele><time>2026-04-26T14:12:40.071Z</time></trkpt><trkpt lat="38.028069" lon="13.4488172"><ele>136.0</ele><time>2026-04-26T14:12:41.071Z</time></trkpt><trkpt lat="38.0279657" lon="13.4487381"><ele>136.0</ele><time>2026-04-26T14:12:42.071Z</time></trkpt><trkpt lat="38.0278635" lon="13.4486643"><ele>136.0</ele><time>2026-04-26T14:12:43.071Z</time></trkpt><trkpt lat="38.027765" lon="13.4485905"><ele>136.0</ele><time>2026-04-26T14:12:44.072Z</time></trkpt><trkpt lat="38.0276585" lon="13.4485214"><ele>136.0</ele><time>2026-04-26T14:12:45.072Z</time></trkpt><trkpt lat="38.0275401" lon="13.4484619"><ele>136.0</ele><time>2026-04-26T14:12:46.072Z</time></trkpt><trkpt lat="38.027424" lon="13.4484086"><ele>136.0</ele><time>2026-04-26T14:12:47.071Z</time></trkpt><trkpt lat="38.0273037" lon="13.4483616"><ele>136.8</ele><time>2026-04-26T14:12:48.071Z</time></trkpt><trkpt lat="38.027187" lon="13.448319"><ele>137.6</ele><time>2026-04-26T14:12:49.071Z</time></trkpt><trkpt lat="38.0270829" lon="13.4482804"><ele>138.4</ele><time>2026-04-26T14:12:50.072Z</time></trkpt><trkpt lat="38.0269877" lon="13.4482536"><ele>139.2</ele><time>2026-04-26T14:12:51.072Z</time></trkpt><trkpt lat="38.0269024" lon="13.4482314"><ele>140.0</ele><time>2026-04-26T14:12:52.071Z</time></trkpt><trkpt lat="38.0268244" lon="13.4482081"><ele>140.0</ele><time>2026-04-26T14:12:53.071Z</time></trkpt><trkpt lat="38.0267503" lon="13.4481788"><ele>140.0</ele><time>2026-04-26T14:12:54.071Z</time></trkpt><trkpt lat="38.0266713" lon="13.4481451"><ele>140.0</ele><time>2026-04-26T14:12:55.071Z</time></trkpt><trkpt lat="38.0265867" lon="13.4481123"><ele>140.0</ele><time>2026-04-26T14:12:56.071Z</time></trkpt><trkpt lat="38.0264985" lon="13.4480767"><ele>140.0</ele><time>2026-04-26T14:12:57.071Z</time></trkpt><trkpt lat="38.0264061" lon="13.448048"><ele>140.0</ele><time>2026-04-26T14:12:58.071Z</time></trkpt><trkpt lat="38.026319" lon="13.4480166"><ele>140.2</ele><time>2026-04-26T14:12:59.071Z</time></trkpt><trkpt lat="38.0262341" lon="13.4479866"><ele>140.4</ele><time>2026-04-26T14:13:00.071Z</time></trkpt><trkpt lat="38.0261465" lon="13.4479518"><ele>140.6</ele><time>2026-04-26T14:13:01.071Z</time></trkpt><trkpt lat="38.0260633" lon="13.4479105"><ele>140.8</ele><time>2026-04-26T14:13:02.071Z</time></trkpt><trkpt lat="38.0259675" lon="13.447879"><ele>141.0</ele><time>2026-04-26T14:13:03.071Z</time></trkpt><trkpt lat="38.0258718" lon="13.4478488"><ele>140.4</ele><time>2026-04-26T14:13:04.071Z</time></trkpt><trkpt lat="38.0257801" lon="13.447805"><ele>139.8</ele><time>2026-04-26T14:13:05.072Z</time></trkpt><trkpt lat="38.0256847" lon="13.447772"><ele>139.20000000000002</ele><time>2026-04-26T14:13:06.071Z</time></trkpt><trkpt lat="38.0255923" lon="13.4477291"><ele>138.6</ele><time>2026-04-26T14:13:07.071Z</time></trkpt><trkpt lat="38.0255105" lon="13.4476811"><ele>138.0</ele><time>2026-04-26T14:13:08.071Z</time></trkpt><trkpt lat="38.0254366" lon="13.447632"><ele>138.0</ele><time>2026-04-26T14:13:09.072Z</time></trkpt><trkpt lat="38.0253683" lon="13.4475787"><ele>138.0</ele><time>2026-04-26T14:13:10.071Z</time></trkpt><trkpt lat="38.02531" lon="13.4475195"><ele>138.0</ele><time>2026-04-26T14:13:11.071Z</time></trkpt><trkpt lat="38.0252694" lon="13.4474555"><ele>138.0</ele><time>2026-04-26T14:13:12.071Z</time></trkpt><trkpt lat="38.0252254" lon="13.4473326"><ele>138.0</ele><time>2026-04-26T14:13:14.071Z</time></trkpt><trkpt lat="38.0251846" lon="13.4472447"><ele>138.0</ele><time>2026-04-26T14:13:17.072Z</time></trkpt><trkpt lat="38.0251509" lon="13.4471767"><ele>137.6</ele><time>2026-04-26T14:13:19.071Z</time></trkpt><trkpt lat="38.0250747" lon="13.4471148"><ele>137.20000000000002</ele><time>2026-04-26T14:13:21.071Z</time></trkpt><trkpt lat="38.0250177" lon="13.4470598"><ele>136.8</ele><time>2026-04-26T14:13:22.072Z</time></trkpt><trkpt lat="38.0249434" lon="13.4470075"><ele>136.4</ele><time>2026-04-26T14:13:23.072Z</time></trkpt><trkpt lat="38.0248575" lon="13.4469477"><ele>136.0</ele><time>2026-04-26T14:13:24.072Z</time></trkpt><trkpt lat="38.0247642" lon="13.4468632"><ele>136.0</ele><time>2026-04-26T14:13:25.071Z</time></trkpt><trkpt lat="38.0246651" lon="13.4467832"><ele>136.0</ele><time>2026-04-26T14:13:26.071Z</time></trkpt><trkpt lat="38.0245614" lon="13.4467007"><ele>136.0</ele><time>2026-04-26T14:13:27.071Z</time></trkpt><trkpt lat="38.024452" lon="13.4466176"><ele>136.0</ele><time>2026-04-26T14:13:28.071Z</time></trkpt><trkpt lat="38.0243453" lon="13.4465291"><ele>136.0</ele><time>2026-04-26T14:13:29.072Z</time></trkpt><trkpt lat="38.024236" lon="13.4464444"><ele>136.0</ele><time>2026-04-26T14:13:30.071Z</time></trkpt><trkpt lat="38.0241295" lon="13.4463625"><ele>136.0</ele><time>2026-04-26T14:13:31.071Z</time></trkpt><trkpt lat="38.0240203" lon="13.4462803"><ele>136.0</ele><time>2026-04-26T14:13:32.071Z</time></trkpt><trkpt lat="38.0239023" lon="13.4462039"><ele>134.75</ele><time>2026-04-26T14:13:33.071Z</time></trkpt><trkpt lat="38.0237875" lon="13.4461256"><ele>133.5</ele><time>2026-04-26T14:13:34.071Z</time></trkpt><trkpt lat="38.0236743" lon="13.4460486"><ele>132.25</ele><time>2026-04-26T14:13:35.071Z</time></trkpt><trkpt lat="38.0235612" lon="13.4459905"><ele>131.0</ele><time>2026-04-26T14:13:36.072Z</time></trkpt><trkpt lat="38.0234544" lon="13.4459336"><ele>131.0</ele><time>2026-04-26T14:13:37.071Z</time></trkpt><trkpt lat="38.023345" lon="13.4459105"><ele>131.0</ele><time>2026-04-26T14:13:38.071Z</time></trkpt><trkpt lat="38.0232255" lon="13.4459359"><ele>131.0</ele><time>2026-04-26T14:13:39.071Z</time></trkpt><trkpt lat="38.0231046" lon="13.4459586"><ele>131.0</ele><time>2026-04-26T14:13:40.071Z</time></trkpt><trkpt lat="38.0229528" lon="13.4459858"><ele>130.66666666666666</ele><time>2026-04-26T14:13:41.071Z</time></trkpt><trkpt lat="38.0227762" lon="13.4460129"><ele>130.33333333333334</ele><time>2026-04-26T14:13:42.071Z</time></trkpt><trkpt lat="38.0225901" lon="13.4460387"><ele>130.0</ele><time>2026-04-26T14:13:43.071Z</time></trkpt><trkpt lat="38.0224007" lon="13.4460611"><ele>130.0</ele><time>2026-04-26T14:13:44.071Z</time></trkpt><trkpt lat="38.0222211" lon="13.4460822"><ele>130.0</ele><time>2026-04-26T14:13:45.071Z</time></trkpt><trkpt lat="38.0220585" lon="13.4461035"><ele>130.0</ele><time>2026-04-26T14:13:46.071Z</time></trkpt><trkpt lat="38.0219103" lon="13.4461214"><ele>130.0</ele><time>2026-04-26T14:13:47.071Z</time></trkpt><trkpt lat="38.0217744" lon="13.4461365"><ele>130.0</ele><time>2026-04-26T14:13:48.071Z</time></trkpt><trkpt lat="38.0216642" lon="13.4461443"><ele>130.0</ele><time>2026-04-26T14:13:49.071Z</time></trkpt><trkpt lat="38.0215876" lon="13.4461474"><ele>130.0</ele><time>2026-04-26T14:13:50.071Z</time></trkpt><trkpt lat="38.021487" lon="13.4461023"><ele>130.0</ele><time>2026-04-26T14:13:52.071Z</time></trkpt><trkpt lat="38.0213938" lon="13.4459578"><ele>131.5</ele><time>2026-04-26T14:13:54.071Z</time></trkpt><trkpt lat="38.021343" lon="13.4458309"><ele>133.0</ele><time>2026-04-26T14:13:55.071Z</time></trkpt><trkpt lat="38.0212924" lon="13.4456902"><ele>134.5</ele><time>2026-04-26T14:13:56.071Z</time></trkpt><trkpt lat="38.0212389" lon="13.4455425"><ele>136.0</ele><time>2026-04-26T14:13:57.071Z</time></trkpt><trkpt lat="38.0211859" lon="13.4453904"><ele>136.0</ele><time>2026-04-26T14:13:58.071Z</time></trkpt><trkpt lat="38.0211266" lon="13.44523"><ele>136.0</ele><time>2026-04-26T14:13:59.071Z</time></trkpt><trkpt lat="38.0210612" lon="13.4450674"><ele>136.0</ele><time>2026-04-26T14:14:00.071Z</time></trkpt><trkpt lat="38.0209892" lon="13.4449114"><ele>136.0</ele><time>2026-04-26T14:14:01.072Z</time></trkpt><trkpt lat="38.0209174" lon="13.4447472"><ele>135.75</ele><time>2026-04-26T14:14:02.071Z</time></trkpt><trkpt lat="38.0208468" lon="13.4445843"><ele>135.5</ele><time>2026-04-26T14:14:03.071Z</time></trkpt><trkpt lat="38.0207786" lon="13.4444259"><ele>135.25</ele><time>2026-04-26T14:14:04.072Z</time></trkpt><trkpt lat="38.0207087" lon="13.4442688"><ele>135.0</ele><time>2026-04-26T14:14:05.071Z</time></trkpt><trkpt lat="38.0206348" lon="13.4441203"><ele>136.25</ele><time>2026-04-26T14:14:06.071Z</time></trkpt><trkpt lat="38.0205513" lon="13.4439752"><ele>137.5</ele><time>2026-04-26T14:14:07.071Z</time></trkpt><trkpt lat="38.0204541" lon="13.4438571"><ele>138.75</ele><time>2026-04-26T14:14:08.071Z</time></trkpt><trkpt lat="38.0203573" lon="13.4437546"><ele>140.0</ele><time>2026-04-26T14:14:09.071Z</time></trkpt><trkpt lat="38.0202733" lon="13.4436548"><ele>140.0</ele><time>2026-04-26T14:14:10.071Z</time></trkpt><trkpt lat="38.0202169" lon="13.4435369"><ele>140.0</ele><time>2026-04-26T14:14:11.071Z</time></trkpt><trkpt lat="38.020193" lon="13.4434037"><ele>140.0</ele><time>2026-04-26T14:14:12.071Z</time></trkpt><trkpt lat="38.0201904" lon="13.4432486"><ele>140.0</ele><time>2026-04-26T14:14:13.072Z</time></trkpt><trkpt lat="38.0202077" lon="13.4430701"><ele>141.0</ele><time>2026-04-26T14:14:14.071Z</time></trkpt><trkpt lat="38.020224" lon="13.4428775"><ele>142.0</ele><time>2026-04-26T14:14:15.071Z</time></trkpt><trkpt lat="38.0202405" lon="13.4426806"><ele>143.0</ele><time>2026-04-26T14:14:16.071Z</time></trkpt><trkpt lat="38.0202527" lon="13.4424778"><ele>143.0</ele><time>2026-04-26T14:14:17.071Z</time></trkpt><trkpt lat="38.0202518" lon="13.4422628"><ele>143.0</ele><time>2026-04-26T14:14:18.071Z</time></trkpt><trkpt lat="38.0202405" lon="13.4420361"><ele>143.0</ele><time>2026-04-26T14:14:19.071Z</time></trkpt><trkpt lat="38.0202197" lon="13.4418077"><ele>144.0</ele><time>2026-04-26T14:14:20.071Z</time></trkpt><trkpt lat="38.0201916" lon="13.4415796"><ele>145.0</ele><time>2026-04-26T14:14:21.071Z</time></trkpt><trkpt lat="38.0201508" lon="13.4413586"><ele>146.0</ele><time>2026-04-26T14:14:22.071Z</time></trkpt><trkpt lat="38.0201035" lon="13.4411451"><ele>146.33333333333331</ele><time>2026-04-26T14:14:23.071Z</time></trkpt><trkpt lat="38.0200415" lon="13.4409437"><ele>146.66666666666666</ele><time>2026-04-26T14:14:24.071Z</time></trkpt><trkpt lat="38.0199774" lon="13.4407434"><ele>147.0</ele><time>2026-04-26T14:14:25.071Z</time></trkpt><trkpt lat="38.0199193" lon="13.4405452"><ele>151.33333333333334</ele><time>2026-04-26T14:14:26.071Z</time></trkpt><trkpt lat="38.0198764" lon="13.4403396"><ele>155.66666666666669</ele><time>2026-04-26T14:14:27.072Z</time></trkpt><trkpt lat="38.0198408" lon="13.4401349"><ele>160.0</ele><time>2026-04-26T14:14:28.071Z</time></trkpt><trkpt lat="38.0197967" lon="13.4399365"><ele>160.0</ele><time>2026-04-26T14:14:29.071Z</time></trkpt><trkpt lat="38.0197406" lon="13.4397426"><ele>160.0</ele><time>2026-04-26T14:14:30.071Z</time></trkpt><trkpt lat="38.0196854" lon="13.4395622"><ele>160.0</ele><time>2026-04-26T14:14:31.071Z</time></trkpt><trkpt lat="38.0196371" lon="13.439385"><ele>160.0</ele><time>2026-04-26T14:14:32.071Z</time></trkpt><trkpt lat="38.0195886" lon="13.439203"><ele>160.0</ele><time>2026-04-26T14:14:33.071Z</time></trkpt><trkpt lat="38.0195378" lon="13.4390364"><ele>160.0</ele><time>2026-04-26T14:14:34.071Z</time></trkpt><trkpt lat="38.0194852" lon="13.4388898"><ele>160.0</ele><time>2026-04-26T14:14:35.071Z</time></trkpt><trkpt lat="38.0194194" lon="13.438768"><ele>160.0</ele><time>2026-04-26T14:14:36.071Z</time></trkpt><trkpt lat="38.0193396" lon="13.4386656"><ele>160.0</ele><time>2026-04-26T14:14:37.071Z</time></trkpt><trkpt lat="38.0192415" lon="13.4385784"><ele>160.0</ele><time>2026-04-26T14:14:38.071Z</time></trkpt><trkpt lat="38.0191188" lon="13.4385018"><ele>160.0</ele><time>2026-04-26T14:14:39.071Z</time></trkpt><trkpt lat="38.0189972" lon="13.4384073"><ele>164.33333333333334</ele><time>2026-04-26T14:14:40.071Z</time></trkpt><trkpt lat="38.0188741" lon="13.4382782"><ele>168.66666666666666</ele><time>2026-04-26T14:14:41.071Z</time></trkpt><trkpt lat="38.0187517" lon="13.4381382"><ele>173.0</ele><time>2026-04-26T14:14:42.07Z</time></trkpt><trkpt lat="38.018627" lon="13.4379954"><ele>173.66666666666666</ele><time>2026-04-26T14:14:43.07Z</time></trkpt><trkpt lat="38.0185042" lon="13.4378501"><ele>174.33333333333334</ele><time>2026-04-26T14:14:44.071Z</time></trkpt><trkpt lat="38.0183786" lon="13.4377144"><ele>175.0</ele><time>2026-04-26T14:14:45.07Z</time></trkpt><trkpt lat="38.0182586" lon="13.4375891"><ele>175.0</ele><time>2026-04-26T14:14:46.07Z</time></trkpt><trkpt lat="38.0181377" lon="13.4374705"><ele>175.0</ele><time>2026-04-26T14:14:47.07Z</time></trkpt><trkpt lat="38.0180136" lon="13.4373563"><ele>175.0</ele><time>2026-04-26T14:14:48.07Z</time></trkpt><trkpt lat="38.0178913" lon="13.4372442"><ele>175.0</ele><time>2026-04-26T14:14:49.07Z</time></trkpt><trkpt lat="38.0177742" lon="13.437138"><ele>175.0</ele><time>2026-04-26T14:14:50.071Z</time></trkpt><trkpt lat="38.0176632" lon="13.4370339"><ele>175.0</ele><time>2026-04-26T14:14:51.07Z</time></trkpt><trkpt lat="38.0175593" lon="13.4369384"><ele>175.0</ele><time>2026-04-26T14:14:52.07Z</time></trkpt><trkpt lat="38.017468" lon="13.4368467"><ele>174.6</ele><time>2026-04-26T14:14:53.071Z</time></trkpt><trkpt lat="38.0173873" lon="13.4367696"><ele>174.2</ele><time>2026-04-26T14:14:54.07Z</time></trkpt><trkpt lat="38.0173264" lon="13.4367049"><ele>173.8</ele><time>2026-04-26T14:14:55.07Z</time></trkpt><trkpt lat="38.0172655" lon="13.4366036"><ele>173.4</ele><time>2026-04-26T14:14:57.07Z</time></trkpt><trkpt lat="38.0172443" lon="13.4365103"><ele>173.0</ele><time>2026-04-26T14:15:00.07Z</time></trkpt><trkpt lat="38.0171727" lon="13.4364239"><ele>173.0</ele><time>2026-04-26T14:15:05.071Z</time></trkpt><trkpt lat="38.0170616" lon="13.4363432"><ele>173.0</ele><time>2026-04-26T14:15:07.07Z</time></trkpt><trkpt lat="38.0169891" lon="13.4362906"><ele>173.0</ele><time>2026-04-26T14:15:08.07Z</time></trkpt><trkpt lat="38.0168916" lon="13.4362256"><ele>173.0</ele><time>2026-04-26T14:15:09.07Z</time></trkpt><trkpt lat="38.0167753" lon="13.4361432"><ele>173.75</ele><time>2026-04-26T14:15:10.07Z</time></trkpt><trkpt lat="38.016647" lon="13.4360557"><ele>174.5</ele><time>2026-04-26T14:15:11.071Z</time></trkpt><trkpt lat="38.0165186" lon="13.4359634"><ele>175.25</ele><time>2026-04-26T14:15:12.07Z</time></trkpt><trkpt lat="38.0163953" lon="13.4358618"><ele>176.0</ele><time>2026-04-26T14:15:13.07Z</time></trkpt><trkpt lat="38.0162782" lon="13.4357479"><ele>176.0</ele><time>2026-04-26T14:15:14.07Z</time></trkpt><trkpt lat="38.0161662" lon="13.4356526"><ele>176.0</ele><time>2026-04-26T14:15:15.071Z</time></trkpt><trkpt lat="38.0160337" lon="13.4355705"><ele>176.0</ele><time>2026-04-26T14:15:16.07Z</time></trkpt><trkpt lat="38.0158787" lon="13.4355034"><ele>176.0</ele><time>2026-04-26T14:15:17.07Z</time></trkpt><trkpt lat="38.0157237" lon="13.4354359"><ele>179.0</ele><time>2026-04-26T14:15:18.07Z</time></trkpt><trkpt lat="38.0155746" lon="13.4353658"><ele>182.0</ele><time>2026-04-26T14:15:19.07Z</time></trkpt><trkpt lat="38.0154338" lon="13.4352849"><ele>185.0</ele><time>2026-04-26T14:15:20.07Z</time></trkpt><trkpt lat="38.0153095" lon="13.4351846"><ele>185.0</ele><time>2026-04-26T14:15:21.071Z</time></trkpt><trkpt lat="38.0151893" lon="13.4350601"><ele>185.0</ele><time>2026-04-26T14:15:22.07Z</time></trkpt><trkpt lat="38.0150684" lon="13.4349317"><ele>185.0</ele><time>2026-04-26T14:15:23.07Z</time></trkpt><trkpt lat="38.0149561" lon="13.4348035"><ele>186.75</ele><time>2026-04-26T14:15:24.07Z</time></trkpt><trkpt lat="38.0148606" lon="13.4346664"><ele>188.5</ele><time>2026-04-26T14:15:25.07Z</time></trkpt><trkpt lat="38.014779" lon="13.4345269"><ele>190.25</ele><time>2026-04-26T14:15:26.07Z</time></trkpt><trkpt lat="38.0147031" lon="13.4343997"><ele>192.0</ele><time>2026-04-26T14:15:27.07Z</time></trkpt><trkpt lat="38.0146203" lon="13.4342868"><ele>192.0</ele><time>2026-04-26T14:15:28.07Z</time></trkpt><trkpt lat="38.0145388" lon="13.4341821"><ele>192.0</ele><time>2026-04-26T14:15:29.07Z</time></trkpt><trkpt lat="38.0144531" lon="13.4340831"><ele>192.0</ele><time>2026-04-26T14:15:30.07Z</time></trkpt><trkpt lat="38.0143611" lon="13.4339745"><ele>192.0</ele><time>2026-04-26T14:15:31.07Z</time></trkpt><trkpt lat="38.0142686" lon="13.4338614"><ele>193.5</ele><time>2026-04-26T14:15:32.07Z</time></trkpt><trkpt lat="38.014178" lon="13.4337408"><ele>195.0</ele><time>2026-04-26T14:15:33.07Z</time></trkpt><trkpt lat="38.0140941" lon="13.4336263"><ele>196.5</ele><time>2026-04-26T14:15:34.07Z</time></trkpt><trkpt lat="38.014017" lon="13.4335211"><ele>198.0</ele><time>2026-04-26T14:15:35.07Z</time></trkpt><trkpt lat="38.0139425" lon="13.4334199"><ele>198.0</ele><time>2026-04-26T14:15:36.071Z</time></trkpt><trkpt lat="38.0138704" lon="13.4333214"><ele>198.0</ele><time>2026-04-26T14:15:37.07Z</time></trkpt><trkpt lat="38.0137958" lon="13.4332302"><ele>198.0</ele><time>2026-04-26T14:15:38.07Z</time></trkpt><trkpt lat="38.0137135" lon="13.4331287"><ele>198.0</ele><time>2026-04-26T14:15:39.07Z</time></trkpt><trkpt lat="38.0136302" lon="13.4330257"><ele>198.0</ele><time>2026-04-26T14:15:40.07Z</time></trkpt><trkpt lat="38.0135495" lon="13.4329171"><ele>200.5</ele><time>2026-04-26T14:15:41.07Z</time></trkpt><trkpt lat="38.0134697" lon="13.4328108"><ele>203.0</ele><time>2026-04-26T14:15:42.07Z</time></trkpt><trkpt lat="38.0133899" lon="13.4327003"><ele>205.5</ele><time>2026-04-26T14:15:43.07Z</time></trkpt><trkpt lat="38.0133135" lon="13.432596"><ele>208.0</ele><time>2026-04-26T14:15:44.07Z</time></trkpt><trkpt lat="38.0132276" lon="13.4324934"><ele>208.4</ele><time>2026-04-26T14:15:45.07Z</time></trkpt><trkpt lat="38.0131429" lon="13.432405"><ele>208.8</ele><time>2026-04-26T14:15:46.07Z</time></trkpt><trkpt lat="38.0130539" lon="13.4323188"><ele>209.2</ele><time>2026-04-26T14:15:47.07Z</time></trkpt><trkpt lat="38.0129772" lon="13.4322292"><ele>209.6</ele><time>2026-04-26T14:15:48.071Z</time></trkpt><trkpt lat="38.0129241" lon="13.4321396"><ele>210.0</ele><time>2026-04-26T14:15:49.07Z</time></trkpt><trkpt lat="38.01288" lon="13.4320476"><ele>212.2</ele><time>2026-04-26T14:15:50.07Z</time></trkpt><trkpt lat="38.0128451" lon="13.4319391"><ele>214.4</ele><time>2026-04-26T14:15:51.071Z</time></trkpt><trkpt lat="38.0128026" lon="13.431819"><ele>216.60000000000002</ele><time>2026-04-26T14:15:52.07Z</time></trkpt><trkpt lat="38.0127512" lon="13.4317095"><ele>218.8</ele><time>2026-04-26T14:15:53.07Z</time></trkpt><trkpt lat="38.0126972" lon="13.4316163"><ele>221.0</ele><time>2026-04-26T14:15:54.071Z</time></trkpt><trkpt lat="38.0126399" lon="13.4315482"><ele>221.00000000000003</ele><time>2026-04-26T14:15:55.071Z</time></trkpt><trkpt lat="38.0125788" lon="13.4314988"><ele>221.0</ele><time>2026-04-26T14:15:56.07Z</time></trkpt><trkpt lat="38.0124616" lon="13.431474"><ele>221.0</ele><time>2026-04-26T14:15:58.07Z</time></trkpt><trkpt lat="38.0123964" lon="13.4314922"><ele>221.0</ele><time>2026-04-26T14:15:59.071Z</time></trkpt><trkpt lat="38.0123175" lon="13.4315272"><ele>221.00000000000003</ele><time>2026-04-26T14:16:00.07Z</time></trkpt><trkpt lat="38.0122261" lon="13.4315749"><ele>221.0</ele><time>2026-04-26T14:16:01.071Z</time></trkpt><trkpt lat="38.0121337" lon="13.4316144"><ele>222.33333333333334</ele><time>2026-04-26T14:16:02.07Z</time></trkpt><trkpt lat="38.0120486" lon="13.4316379"><ele>223.66666666666669</ele><time>2026-04-26T14:16:03.07Z</time></trkpt><trkpt lat="38.0119662" lon="13.431645"><ele>225.0</ele><time>2026-04-26T14:16:04.07Z</time></trkpt><trkpt lat="38.0118906" lon="13.4316356"><ele>226.33333333333331</ele><time>2026-04-26T14:16:05.071Z</time></trkpt><trkpt lat="38.0118162" lon="13.4316034"><ele>227.66666666666666</ele><time>2026-04-26T14:16:06.07Z</time></trkpt><trkpt lat="38.0117334" lon="13.431568"><ele>229.0</ele><time>2026-04-26T14:16:07.07Z</time></trkpt><trkpt lat="38.0116441" lon="13.4315392"><ele>230.6</ele><time>2026-04-26T14:16:08.07Z</time></trkpt><trkpt lat="38.0115502" lon="13.4315153"><ele>232.2</ele><time>2026-04-26T14:16:09.07Z</time></trkpt><trkpt lat="38.0114578" lon="13.4314864"><ele>233.79999999999998</ele><time>2026-04-26T14:16:10.07Z</time></trkpt><trkpt lat="38.0113464" lon="13.4314593"><ele>235.39999999999998</ele><time>2026-04-26T14:16:11.071Z</time></trkpt><trkpt lat="38.0112306" lon="13.431431"><ele>237.0</ele><time>2026-04-26T14:16:12.07Z</time></trkpt><trkpt lat="38.0111221" lon="13.4313977"><ele>237.0</ele><time>2026-04-26T14:16:13.07Z</time></trkpt><trkpt lat="38.0110265" lon="13.431367"><ele>237.0</ele><time>2026-04-26T14:16:14.07Z</time></trkpt><trkpt lat="38.0109393" lon="13.4313383"><ele>237.0</ele><time>2026-04-26T14:16:15.071Z</time></trkpt><trkpt lat="38.010862" lon="13.4313174"><ele>237.0</ele><time>2026-04-26T14:16:16.07Z</time></trkpt><trkpt lat="38.0107936" lon="13.431295"><ele>237.0</ele><time>2026-04-26T14:16:17.071Z</time></trkpt><trkpt lat="38.0107232" lon="13.4312502"><ele>237.0</ele><time>2026-04-26T14:16:18.071Z</time></trkpt><trkpt lat="38.0106543" lon="13.4311795"><ele>240.0</ele><time>2026-04-26T14:16:19.07Z</time></trkpt><trkpt lat="38.0105857" lon="13.4310995"><ele>243.0</ele><time>2026-04-26T14:16:20.07Z</time></trkpt><trkpt lat="38.010506" lon="13.4310263"><ele>246.0</ele><time>2026-04-26T14:16:21.07Z</time></trkpt><trkpt lat="38.0104269" lon="13.430972"><ele>249.0</ele><time>2026-04-26T14:16:22.071Z</time></trkpt><trkpt lat="38.0103467" lon="13.4309381"><ele>252.0</ele><time>2026-04-26T14:16:23.07Z</time></trkpt><trkpt lat="38.0102573" lon="13.4309136"><ele>252.0</ele><time>2026-04-26T14:16:24.07Z</time></trkpt><trkpt lat="38.010174" lon="13.4308943"><ele>252.0</ele><time>2026-04-26T14:16:25.071Z</time></trkpt><trkpt lat="38.0100938" lon="13.4308798"><ele>252.0</ele><time>2026-04-26T14:16:26.07Z</time></trkpt><trkpt lat="38.010013" lon="13.4308746"><ele>252.0</ele><time>2026-04-26T14:16:27.07Z</time></trkpt><trkpt lat="38.0099331" lon="13.430865"><ele>252.0</ele><time>2026-04-26T14:16:28.07Z</time></trkpt><trkpt lat="38.0098386" lon="13.4308705"><ele>252.0</ele><time>2026-04-26T14:16:29.07Z</time></trkpt><trkpt lat="38.0097339" lon="13.4308765"><ele>253.6</ele><time>2026-04-26T14:16:30.07Z</time></trkpt><trkpt lat="38.0096216" lon="13.4308819"><ele>255.2</ele><time>2026-04-26T14:16:31.07Z</time></trkpt><trkpt lat="38.0095089" lon="13.4308811"><ele>256.8</ele><time>2026-04-26T14:16:32.07Z</time></trkpt><trkpt lat="38.0093964" lon="13.4308759"><ele>258.4</ele><time>2026-04-26T14:16:33.07Z</time></trkpt><trkpt lat="38.0092918" lon="13.4308666"><ele>260.0</ele><time>2026-04-26T14:16:34.07Z</time></trkpt><trkpt lat="38.0092069" lon="13.4308439"><ele>261.33333333333337</ele><time>2026-04-26T14:16:35.07Z</time></trkpt><trkpt lat="38.0091401" lon="13.4308227"><ele>262.6666666666667</ele><time>2026-04-26T14:16:36.071Z</time></trkpt><trkpt lat="38.0090419" lon="13.4307525"><ele>264.0</ele><time>2026-04-26T14:16:38.07Z</time></trkpt><trkpt lat="38.0089973" lon="13.4306959"><ele>265.3333333333333</ele><time>2026-04-26T14:16:39.07Z</time></trkpt><trkpt lat="38.0089459" lon="13.4306317"><ele>266.66666666666663</ele><time>2026-04-26T14:16:40.07Z</time></trkpt><trkpt lat="38.0088941" lon="13.4305638"><ele>268.0</ele><time>2026-04-26T14:16:41.071Z</time></trkpt><trkpt lat="38.0088402" lon="13.4305038"><ele>269.5</ele><time>2026-04-26T14:16:42.071Z</time></trkpt><trkpt lat="38.0087877" lon="13.4304469"><ele>271.0</ele><time>2026-04-26T14:16:43.07Z</time></trkpt><trkpt lat="38.0086906" lon="13.4303506"><ele>272.5</ele><time>2026-04-26T14:16:45.07Z</time></trkpt><trkpt lat="38.0086322" lon="13.4303058"><ele>274.0</ele><time>2026-04-26T14:16:46.07Z</time></trkpt><trkpt lat="38.0085699" lon="13.4302688"><ele>275.5</ele><time>2026-04-26T14:16:47.07Z</time></trkpt><trkpt lat="38.0085063" lon="13.4302384"><ele>277.0</ele><time>2026-04-26T14:16:48.07Z</time></trkpt><trkpt lat="38.0084394" lon="13.430222"><ele>277.0</ele><time>2026-04-26T14:16:49.07Z</time></trkpt><trkpt lat="38.0083644" lon="13.430222"><ele>277.0</ele><time>2026-04-26T14:16:50.07Z</time></trkpt><trkpt lat="38.0082715" lon="13.4302464"><ele>277.0</ele><time>2026-04-26T14:16:51.071Z</time></trkpt><trkpt lat="38.008166" lon="13.4302895"><ele>277.0</ele><time>2026-04-26T14:16:52.07Z</time></trkpt><trkpt lat="38.0080583" lon="13.430342"><ele>277.0</ele><time>2026-04-26T14:16:53.07Z</time></trkpt><trkpt lat="38.0079637" lon="13.4303775"><ele>278.5</ele><time>2026-04-26T14:16:54.07Z</time></trkpt><trkpt lat="38.0078846" lon="13.4303923"><ele>280.0</ele><time>2026-04-26T14:16:55.07Z</time></trkpt><trkpt lat="38.0078197" lon="13.4303732"><ele>281.5</ele><time>2026-04-26T14:16:56.07Z</time></trkpt><trkpt lat="38.007722" lon="13.4302656"><ele>283.0</ele><time>2026-04-26T14:16:58.07Z</time></trkpt><trkpt lat="38.0076737" lon="13.4301796"><ele>284.5</ele><time>2026-04-26T14:16:59.07Z</time></trkpt><trkpt lat="38.0076228" lon="13.4300876"><ele>286.0</ele><time>2026-04-26T14:17:00.071Z</time></trkpt><trkpt lat="38.0075772" lon="13.4300004"><ele>285.99999999999994</ele><time>2026-04-26T14:17:01.07Z</time></trkpt><trkpt lat="38.0075445" lon="13.4299297"><ele>286.0</ele><time>2026-04-26T14:17:02.07Z</time></trkpt><trkpt lat="38.007513" lon="13.4298571"><ele>286.0</ele><time>2026-04-26T14:17:03.07Z</time></trkpt><trkpt lat="38.0074707" lon="13.4297677"><ele>286.0</ele><time>2026-04-26T14:17:04.07Z</time></trkpt><trkpt lat="38.0074304" lon="13.4296823"><ele>286.0</ele><time>2026-04-26T14:17:05.07Z</time></trkpt><trkpt lat="38.0073921" lon="13.429606"><ele>285.99999999999994</ele><time>2026-04-26T14:17:06.07Z</time></trkpt><trkpt lat="38.0073525" lon="13.4295312"><ele>286.0</ele><time>2026-04-26T14:17:07.07Z</time></trkpt><trkpt lat="38.0073154" lon="13.4294626"><ele>288.85714285714283</ele><time>2026-04-26T14:17:08.07Z</time></trkpt><trkpt lat="38.0072744" lon="13.429399"><ele>291.7142857142857</ele><time>2026-04-26T14:17:09.07Z</time></trkpt><trkpt lat="38.0072298" lon="13.429339"><ele>294.57142857142856</ele><time>2026-04-26T14:17:10.07Z</time></trkpt><trkpt lat="38.0071878" lon="13.4292736"><ele>297.42857142857144</ele><time>2026-04-26T14:17:11.07Z</time></trkpt><trkpt lat="38.0071462" lon="13.429205"><ele>300.2857142857143</ele><time>2026-04-26T14:17:12.07Z</time></trkpt><trkpt lat="38.0071086" lon="13.4291378"><ele>303.1428571428571</ele><time>2026-04-26T14:17:13.07Z</time></trkpt><trkpt lat="38.0070688" lon="13.429068"><ele>306.0</ele><time>2026-04-26T14:17:14.07Z</time></trkpt><trkpt lat="38.0070244" lon="13.4289979"><ele>306.0</ele><time>2026-04-26T14:17:15.07Z</time></trkpt><trkpt lat="38.0069791" lon="13.4289321"><ele>306.0</ele><time>2026-04-26T14:17:16.07Z</time></trkpt><trkpt lat="38.0069339" lon="13.4288628"><ele>306.0</ele><time>2026-04-26T14:17:17.07Z</time></trkpt><trkpt lat="38.0068893" lon="13.4287973"><ele>306.0</ele><time>2026-04-26T14:17:18.07Z</time></trkpt><trkpt lat="38.0068404" lon="13.4287314"><ele>306.0</ele><time>2026-04-26T14:17:19.07Z</time></trkpt><trkpt lat="38.0067898" lon="13.4286651"><ele>306.0</ele><time>2026-04-26T14:17:20.07Z</time></trkpt><trkpt lat="38.0067402" lon="13.4286025"><ele>306.0</ele><time>2026-04-26T14:17:21.07Z</time></trkpt><trkpt lat="38.0066943" lon="13.4285381"><ele>307.85714285714283</ele><time>2026-04-26T14:17:22.071Z</time></trkpt><trkpt lat="38.0066491" lon="13.4284717"><ele>309.7142857142857</ele><time>2026-04-26T14:17:23.071Z</time></trkpt><trkpt lat="38.0065992" lon="13.4284101"><ele>311.57142857142856</ele><time>2026-04-26T14:17:24.07Z</time></trkpt><trkpt lat="38.0065537" lon="13.428347"><ele>313.42857142857144</ele><time>2026-04-26T14:17:25.071Z</time></trkpt><trkpt lat="38.0065143" lon="13.4282846"><ele>315.2857142857143</ele><time>2026-04-26T14:17:26.07Z</time></trkpt><trkpt lat="38.0064739" lon="13.428217"><ele>317.14285714285717</ele><time>2026-04-26T14:17:27.071Z</time></trkpt><trkpt lat="38.0064304" lon="13.4281494"><ele>319.0</ele><time>2026-04-26T14:17:28.07Z</time></trkpt><trkpt lat="38.006382" lon="13.4280825"><ele>319.0</ele><time>2026-04-26T14:17:29.07Z</time></trkpt><trkpt lat="38.0063294" lon="13.4280232"><ele>319.0</ele><time>2026-04-26T14:17:30.071Z</time></trkpt><trkpt lat="38.0062643" lon="13.427966"><ele>319.0</ele><time>2026-04-26T14:17:31.07Z</time></trkpt><trkpt lat="38.0061955" lon="13.4279101"><ele>319.0</ele><time>2026-04-26T14:17:32.07Z</time></trkpt><trkpt lat="38.0061294" lon="13.4278544"><ele>319.0</ele><time>2026-04-26T14:17:33.07Z</time></trkpt><trkpt lat="38.0060625" lon="13.4277995"><ele>319.0</ele><time>2026-04-26T14:17:34.07Z</time></trkpt><trkpt lat="38.0059994" lon="13.4277374"><ele>320.5</ele><time>2026-04-26T14:17:35.071Z</time></trkpt><trkpt lat="38.0059371" lon="13.4276756"><ele>322.0</ele><time>2026-04-26T14:17:36.07Z</time></trkpt><trkpt lat="38.0058741" lon="13.4276169"><ele>323.5</ele><time>2026-04-26T14:17:37.07Z</time></trkpt><trkpt lat="38.0058082" lon="13.4275623"><ele>325.0</ele><time>2026-04-26T14:17:38.07Z</time></trkpt><trkpt lat="38.0057468" lon="13.4275084"><ele>326.5</ele><time>2026-04-26T14:17:39.071Z</time></trkpt><trkpt lat="38.0056823" lon="13.4274541"><ele>328.0</ele><time>2026-04-26T14:17:40.07Z</time></trkpt><trkpt lat="38.0056172" lon="13.4274034"><ele>328.0</ele><time>2026-04-26T14:17:41.07Z</time></trkpt><trkpt lat="38.0055496" lon="13.4273584"><ele>328.0</ele><time>2026-04-26T14:17:42.071Z</time></trkpt><trkpt lat="38.0054786" lon="13.4273154"><ele>328.0</ele><time>2026-04-26T14:17:43.07Z</time></trkpt><trkpt lat="38.0054064" lon="13.4272812"><ele>328.0</ele><time>2026-04-26T14:17:44.07Z</time></trkpt><trkpt lat="38.0053326" lon="13.4272466"><ele>328.0</ele><time>2026-04-26T14:17:45.07Z</time></trkpt><trkpt lat="38.0052552" lon="13.4272142"><ele>328.0</ele><time>2026-04-26T14:17:46.07Z</time></trkpt><trkpt lat="38.0051772" lon="13.4271804"><ele>328.0</ele><time>2026-04-26T14:17:47.07Z</time></trkpt><trkpt lat="38.0050972" lon="13.4271469"><ele>328.0</ele><time>2026-04-26T14:17:48.07Z</time></trkpt><trkpt lat="38.0050228" lon="13.4271102"><ele>328.0</ele><time>2026-04-26T14:17:49.07Z</time></trkpt><trkpt lat="38.0049563" lon="13.4270789"><ele>328.0</ele><time>2026-04-26T14:17:50.07Z</time></trkpt><trkpt lat="38.0048959" lon="13.4270517"><ele>328.0</ele><time>2026-04-26T14:17:51.07Z</time></trkpt><trkpt lat="38.0047756" lon="13.4269994"><ele>328.0</ele><time>2026-04-26T14:17:53.07Z</time></trkpt><trkpt lat="38.0047134" lon="13.4269473"><ele>328.66666666666663</ele><time>2026-04-26T14:17:54.07Z</time></trkpt><trkpt lat="38.0046375" lon="13.4268811"><ele>329.3333333333333</ele><time>2026-04-26T14:17:55.07Z</time></trkpt><trkpt lat="38.0045582" lon="13.4268095"><ele>330.0</ele><time>2026-04-26T14:17:56.07Z</time></trkpt><trkpt lat="38.0044756" lon="13.4267425"><ele>330.6666666666667</ele><time>2026-04-26T14:17:57.07Z</time></trkpt><trkpt lat="38.0044037" lon="13.4266891"><ele>331.33333333333337</ele><time>2026-04-26T14:17:58.07Z</time></trkpt><trkpt lat="38.0043398" lon="13.4266424"><ele>332.0</ele><time>2026-04-26T14:17:59.071Z</time></trkpt><trkpt lat="38.0042729" lon="13.4265955"><ele>332.0</ele><time>2026-04-26T14:18:00.071Z</time></trkpt><trkpt lat="38.0041997" lon="13.4265457"><ele>332.0</ele><time>2026-04-26T14:18:01.07Z</time></trkpt><trkpt lat="38.0041192" lon="13.4264938"><ele>332.0</ele><time>2026-04-26T14:18:02.071Z</time></trkpt><trkpt lat="38.0040404" lon="13.4264363"><ele>332.0</ele><time>2026-04-26T14:18:03.071Z</time></trkpt><trkpt lat="38.0039655" lon="13.4263737"><ele>332.0</ele><time>2026-04-26T14:18:04.071Z</time></trkpt><trkpt lat="38.0039016" lon="13.4263115"><ele>332.0</ele><time>2026-04-26T14:18:05.07Z</time></trkpt><trkpt lat="38.0038388" lon="13.4262481"><ele>333.1666666666667</ele><time>2026-04-26T14:18:06.071Z</time></trkpt><trkpt lat="38.00378" lon="13.4261796"><ele>334.33333333333337</ele><time>2026-04-26T14:18:07.07Z</time></trkpt><trkpt lat="38.0037275" lon="13.4260981"><ele>335.5</ele><time>2026-04-26T14:18:08.07Z</time></trkpt><trkpt lat="38.0036836" lon="13.4260085"><ele>336.6666666666667</ele><time>2026-04-26T14:18:09.07Z</time></trkpt><trkpt lat="38.0036418" lon="13.4259188"><ele>337.8333333333333</ele><time>2026-04-26T14:18:10.071Z</time></trkpt><trkpt lat="38.0036162" lon="13.4258225"><ele>339.0</ele><time>2026-04-26T14:18:11.07Z</time></trkpt><trkpt lat="38.0036107" lon="13.4257247"><ele>339.0</ele><time>2026-04-26T14:18:12.07Z</time></trkpt><trkpt lat="38.0036129" lon="13.4255857"><ele>339.0</ele><time>2026-04-26T14:18:14.07Z</time></trkpt><trkpt lat="38.0036432" lon="13.4254985"><ele>339.0</ele><time>2026-04-26T14:18:16.07Z</time></trkpt><trkpt lat="38.0036871" lon="13.4253926"><ele>339.0</ele><time>2026-04-26T14:18:18.07Z</time></trkpt><trkpt lat="38.0037208" lon="13.4252817"><ele>339.0</ele><time>2026-04-26T14:18:20.07Z</time></trkpt><trkpt lat="38.0037442" lon="13.4251787"><ele>341.3333333333333</ele><time>2026-04-26T14:18:22.07Z</time></trkpt><trkpt lat="38.0037548" lon="13.4250707"><ele>343.6666666666667</ele><time>2026-04-26T14:18:24.07Z</time></trkpt><trkpt lat="38.003759" lon="13.4249652"><ele>346.0</ele><time>2026-04-26T14:18:26.07Z</time></trkpt><trkpt lat="38.0037646" lon="13.4248651"><ele>348.33333333333337</ele><time>2026-04-26T14:18:28.071Z</time></trkpt><trkpt lat="38.0037751" lon="13.4247608"><ele>350.6666666666667</ele><time>2026-04-26T14:18:30.071Z</time></trkpt><trkpt lat="38.0037982" lon="13.4246594"><ele>353.0</ele><time>2026-04-26T14:18:32.07Z</time></trkpt><trkpt lat="38.0038251" lon="13.424554"><ele>356.0</ele><time>2026-04-26T14:18:34.07Z</time></trkpt><trkpt lat="38.0038583" lon="13.4244595"><ele>359.0</ele><time>2026-04-26T14:18:36.07Z</time></trkpt><trkpt lat="38.0038985" lon="13.4243757"><ele>362.0</ele><time>2026-04-26T14:18:38.07Z</time></trkpt><trkpt lat="38.0039354" lon="13.42428"><ele>365.0</ele><time>2026-04-26T14:18:40.07Z</time></trkpt><trkpt lat="38.0039665" lon="13.4241791"><ele>368.0</ele><time>2026-04-26T14:18:42.071Z</time></trkpt><trkpt lat="38.0039923" lon="13.4240808"><ele>371.0</ele><time>2026-04-26T14:18:44.07Z</time></trkpt><trkpt lat="38.0040208" lon="13.4239809"><ele>371.0</ele><time>2026-04-26T14:18:46.071Z</time></trkpt><trkpt lat="38.0040639" lon="13.4238794"><ele>371.0</ele><time>2026-04-26T14:18:48.07Z</time></trkpt><trkpt lat="38.004112" lon="13.4237868"><ele>371.0</ele><time>2026-04-26T14:18:50.071Z</time></trkpt><trkpt lat="38.0041643" lon="13.4236872"><ele>371.0</ele><time>2026-04-26T14:18:52.07Z</time></trkpt><trkpt lat="38.0042201" lon="13.4235765"><ele>371.0</ele><time>2026-04-26T14:18:54.071Z</time></trkpt><trkpt lat="38.0042762" lon="13.423466"><ele>371.20000000000005</ele><time>2026-04-26T14:18:56.07Z</time></trkpt><trkpt lat="38.0043236" lon="13.4233672"><ele>371.40000000000003</ele><time>2026-04-26T14:18:58.07Z</time></trkpt><trkpt lat="38.0043703" lon="13.4232718"><ele>371.6</ele><time>2026-04-26T14:19:00.07Z</time></trkpt><trkpt lat="38.0044254" lon="13.423181"><ele>371.8</ele><time>2026-04-26T14:19:02.07Z</time></trkpt><trkpt lat="38.0044831" lon="13.423076"><ele>372.0</ele><time>2026-04-26T14:19:04.07Z</time></trkpt><trkpt lat="38.0045328" lon="13.4229485"><ele>374.8333333333333</ele><time>2026-04-26T14:19:06.07Z</time></trkpt><trkpt lat="38.0045541" lon="13.4228663"><ele>377.66666666666663</ele><time>2026-04-26T14:19:07.07Z</time></trkpt><trkpt lat="38.0045743" lon="13.4227736"><ele>380.5</ele><time>2026-04-26T14:19:08.07Z</time></trkpt><trkpt lat="38.0045925" lon="13.4226873"><ele>383.3333333333333</ele><time>2026-04-26T14:19:09.07Z</time></trkpt><trkpt lat="38.0046193" lon="13.4225982"><ele>386.16666666666663</ele><time>2026-04-26T14:19:10.07Z</time></trkpt><trkpt lat="38.004654" lon="13.4224994"><ele>389.0</ele><time>2026-04-26T14:19:11.071Z</time></trkpt><trkpt lat="38.0046954" lon="13.4224027"><ele>389.0</ele><time>2026-04-26T14:19:12.07Z</time></trkpt><trkpt lat="38.0047407" lon="13.4223112"><ele>389.0</ele><time>2026-04-26T14:19:13.07Z</time></trkpt><trkpt lat="38.0047864" lon="13.4222312"><ele>389.0</ele><time>2026-04-26T14:19:14.07Z</time></trkpt><trkpt lat="38.004834" lon="13.4221632"><ele>389.0</ele><time>2026-04-26T14:19:15.07Z</time></trkpt><trkpt lat="38.0048843" lon="13.4221058"><ele>389.0</ele><time>2026-04-26T14:19:16.07Z</time></trkpt><trkpt lat="38.0049356" lon="13.4220566"><ele>389.0</ele><time>2026-04-26T14:19:17.07Z</time></trkpt><trkpt lat="38.0049913" lon="13.422012"><ele>389.0</ele><time>2026-04-26T14:19:18.07Z</time></trkpt><trkpt lat="38.0050491" lon="13.4219718"><ele>389.66666666666663</ele><time>2026-04-26T14:19:19.07Z</time></trkpt><trkpt lat="38.0051072" lon="13.4219406"><ele>390.3333333333333</ele><time>2026-04-26T14:19:20.071Z</time></trkpt><trkpt lat="38.0051972" lon="13.4218831"><ele>391.0</ele><time>2026-04-26T14:19:22.07Z</time></trkpt><trkpt lat="38.0052488" lon="13.4218276"><ele>391.66666666666663</ele><time>2026-04-26T14:19:24.07Z</time></trkpt><trkpt lat="38.0052912" lon="13.4217164"><ele>392.3333333333333</ele><time>2026-04-26T14:19:26.071Z</time></trkpt><trkpt lat="38.005315" lon="13.4216192"><ele>393.0</ele><time>2026-04-26T14:19:27.07Z</time></trkpt><trkpt lat="38.0053335" lon="13.4215162"><ele>393.0</ele><time>2026-04-26T14:19:28.07Z</time></trkpt><trkpt lat="38.0053402" lon="13.4214064"><ele>393.0</ele><time>2026-04-26T14:19:29.07Z</time></trkpt><trkpt lat="38.0053511" lon="13.4213069"><ele>393.0</ele><time>2026-04-26T14:19:30.07Z</time></trkpt><trkpt lat="38.0053634" lon="13.421221"><ele>393.0</ele><time>2026-04-26T14:19:31.07Z</time></trkpt><trkpt lat="38.00538" lon="13.421142"><ele>393.0</ele><time>2026-04-26T14:19:32.07Z</time></trkpt><trkpt lat="38.0054147" lon="13.4209996"><ele>393.0</ele><time>2026-04-26T14:19:34.071Z</time></trkpt><trkpt lat="38.0054766" lon="13.420862"><ele>396.14285714285717</ele><time>2026-04-26T14:19:36.071Z</time></trkpt><trkpt lat="38.0055196" lon="13.420798"><ele>399.2857142857143</ele><time>2026-04-26T14:19:37.07Z</time></trkpt><trkpt lat="38.0055678" lon="13.4207288"><ele>402.42857142857144</ele><time>2026-04-26T14:19:38.07Z</time></trkpt><trkpt lat="38.0056157" lon="13.4206631"><ele>405.57142857142856</ele><time>2026-04-26T14:19:39.07Z</time></trkpt><trkpt lat="38.0056611" lon="13.4206007"><ele>408.7142857142857</ele><time>2026-04-26T14:19:40.071Z</time></trkpt><trkpt lat="38.0057005" lon="13.4205351"><ele>411.8571428571429</ele><time>2026-04-26T14:19:41.07Z</time></trkpt><trkpt lat="38.0057371" lon="13.4204654"><ele>415.0</ele><time>2026-04-26T14:19:42.071Z</time></trkpt><trkpt lat="38.0057754" lon="13.4203919"><ele>415.14285714285717</ele><time>2026-04-26T14:19:43.07Z</time></trkpt><trkpt lat="38.0058049" lon="13.4203194"><ele>415.28571428571433</ele><time>2026-04-26T14:19:44.07Z</time></trkpt><trkpt lat="38.0058332" lon="13.4202429"><ele>415.42857142857144</ele><time>2026-04-26T14:19:45.07Z</time></trkpt><trkpt lat="38.0058646" lon="13.4201646"><ele>415.57142857142856</ele><time>2026-04-26T14:19:46.07Z</time></trkpt><trkpt lat="38.0058982" lon="13.4200834"><ele>415.7142857142857</ele><time>2026-04-26T14:19:47.07Z</time></trkpt><trkpt lat="38.0059434" lon="13.4200134"><ele>415.85714285714283</ele><time>2026-04-26T14:19:48.07Z</time></trkpt><trkpt lat="38.0059949" lon="13.4199496"><ele>416.0</ele><time>2026-04-26T14:19:49.07Z</time></trkpt><trkpt lat="38.0060469" lon="13.4198946"><ele>416.0</ele><time>2026-04-26T14:19:50.07Z</time></trkpt><trkpt lat="38.0061438" lon="13.4198068"><ele>416.0</ele><time>2026-04-26T14:19:52.07Z</time></trkpt><trkpt lat="38.0062083" lon="13.4197616"><ele>416.0</ele><time>2026-04-26T14:19:54.07Z</time></trkpt><trkpt lat="38.0062708" lon="13.4196748"><ele>416.0</ele><time>2026-04-26T14:19:56.07Z</time></trkpt><trkpt lat="38.0063163" lon="13.4195225"><ele>416.0</ele><time>2026-04-26T14:19:58.07Z</time></trkpt><trkpt lat="38.0063274" lon="13.4194432"><ele>418.85714285714283</ele><time>2026-04-26T14:19:59.07Z</time></trkpt><trkpt lat="38.0063402" lon="13.4193607"><ele>421.7142857142857</ele><time>2026-04-26T14:20:00.07Z</time></trkpt><trkpt lat="38.0063628" lon="13.4192793"><ele>424.57142857142856</ele><time>2026-04-26T14:20:01.07Z</time></trkpt><trkpt lat="38.0063968" lon="13.4191985"><ele>427.42857142857144</ele><time>2026-04-26T14:20:02.07Z</time></trkpt><trkpt lat="38.0064487" lon="13.4191263"><ele>430.28571428571433</ele><time>2026-04-26T14:20:03.071Z</time></trkpt><trkpt lat="38.0065023" lon="13.4190666"><ele>433.14285714285717</ele><time>2026-04-26T14:20:04.07Z</time></trkpt><trkpt lat="38.0065541" lon="13.4190084"><ele>436.0</ele><time>2026-04-26T14:20:05.07Z</time></trkpt><trkpt lat="38.0066246" lon="13.4188725"><ele>437.57142857142856</ele><time>2026-04-26T14:20:07.07Z</time></trkpt><trkpt lat="38.006649" lon="13.4187893"><ele>439.14285714285717</ele><time>2026-04-26T14:20:08.07Z</time></trkpt><trkpt lat="38.006666" lon="13.4186962"><ele>440.71428571428567</ele><time>2026-04-26T14:20:09.07Z</time></trkpt><trkpt lat="38.0066796" lon="13.4186041"><ele>442.2857142857143</ele><time>2026-04-26T14:20:10.07Z</time></trkpt><trkpt lat="38.0066896" lon="13.4185167"><ele>443.85714285714283</ele><time>2026-04-26T14:20:11.07Z</time></trkpt><trkpt lat="38.0067007" lon="13.4184279"><ele>445.4285714285714</ele><time>2026-04-26T14:20:12.07Z</time></trkpt><trkpt lat="38.006714" lon="13.4183409"><ele>447.0</ele><time>2026-04-26T14:20:13.07Z</time></trkpt><trkpt lat="38.0067294" lon="13.4182616"><ele>447.0</ele><time>2026-04-26T14:20:14.07Z</time></trkpt><trkpt lat="38.0067491" lon="13.4181093"><ele>447.0</ele><time>2026-04-26T14:20:16.07Z</time></trkpt><trkpt lat="38.0067607" lon="13.418022"><ele>447.0</ele><time>2026-04-26T14:20:17.07Z</time></trkpt><trkpt lat="38.0067696" lon="13.41793"><ele>447.0</ele><time>2026-04-26T14:20:18.07Z</time></trkpt><trkpt lat="38.006782" lon="13.4178405"><ele>447.0</ele><time>2026-04-26T14:20:19.07Z</time></trkpt><trkpt lat="38.0067885" lon="13.4177569"><ele>447.0</ele><time>2026-04-26T14:20:20.07Z</time></trkpt><trkpt lat="38.0067959" lon="13.4176685"><ele>448.6666666666667</ele><time>2026-04-26T14:20:21.071Z</time></trkpt><trkpt lat="38.0068021" lon="13.4175863"><ele>450.33333333333337</ele><time>2026-04-26T14:20:22.07Z</time></trkpt><trkpt lat="38.00681" lon="13.4175038"><ele>452.0</ele><time>2026-04-26T14:20:23.07Z</time></trkpt><trkpt lat="38.0068208" lon="13.4173689"><ele>453.6666666666667</ele><time>2026-04-26T14:20:25.07Z</time></trkpt><trkpt lat="38.0068179" lon="13.417259"><ele>455.33333333333337</ele><time>2026-04-26T14:20:27.07Z</time></trkpt><trkpt lat="38.0067891" lon="13.4171111"><ele>457.0</ele><time>2026-04-26T14:20:29.07Z</time></trkpt><trkpt lat="38.0067914" lon="13.4169475"><ele>459.50000000000006</ele><time>2026-04-26T14:20:31.07Z</time></trkpt><trkpt lat="38.0068096" lon="13.4168707"><ele>462.0</ele><time>2026-04-26T14:20:32.07Z</time></trkpt><trkpt lat="38.0068451" lon="13.4167981"><ele>464.5</ele><time>2026-04-26T14:20:33.07Z</time></trkpt><trkpt lat="38.0068836" lon="13.4167304"><ele>467.0</ele><time>2026-04-26T14:20:34.07Z</time></trkpt><trkpt lat="38.0069532" lon="13.416601"><ele>469.50000000000006</ele><time>2026-04-26T14:20:36.07Z</time></trkpt><trkpt lat="38.0069926" lon="13.416457"><ele>472.0</ele><time>2026-04-26T14:20:38.07Z</time></trkpt><trkpt lat="38.0070019" lon="13.416377"><ele>475.83333333333337</ele><time>2026-04-26T14:20:39.07Z</time></trkpt><trkpt lat="38.0070141" lon="13.4162932"><ele>479.6666666666667</ele><time>2026-04-26T14:20:40.07Z</time></trkpt><trkpt lat="38.0070579" lon="13.4161458"><ele>483.5</ele><time>2026-04-26T14:20:42.071Z</time></trkpt><trkpt lat="38.0070928" lon="13.4160751"><ele>487.33333333333337</ele><time>2026-04-26T14:20:43.07Z</time></trkpt><trkpt lat="38.0071264" lon="13.4160012"><ele>491.1666666666667</ele><time>2026-04-26T14:20:44.07Z</time></trkpt><trkpt lat="38.0071597" lon="13.4159243"><ele>495.0</ele><time>2026-04-26T14:20:45.07Z</time></trkpt><trkpt lat="38.0071959" lon="13.4158487"><ele>495.0</ele><time>2026-04-26T14:20:46.07Z</time></trkpt><trkpt lat="38.0072373" lon="13.4157826"><ele>495.0</ele><time>2026-04-26T14:20:47.071Z</time></trkpt><trkpt lat="38.0073267" lon="13.415719"><ele>495.0</ele><time>2026-04-26T14:20:49.07Z</time></trkpt><trkpt lat="38.0074396" lon="13.4156778"><ele>495.0</ele><time>2026-04-26T14:20:51.07Z</time></trkpt><trkpt lat="38.0074948" lon="13.4156376"><ele>495.0</ele><time>2026-04-26T14:20:52.07Z</time></trkpt><trkpt lat="38.007547" lon="13.4155865"><ele>495.0</ele><time>2026-04-26T14:20:53.07Z</time></trkpt><trkpt lat="38.0076003" lon="13.4155281"><ele>495.6666666666667</ele><time>2026-04-26T14:20:54.07Z</time></trkpt><trkpt lat="38.007659" lon="13.4154721"><ele>496.33333333333337</ele><time>2026-04-26T14:20:55.07Z</time></trkpt><trkpt lat="38.0077142" lon="13.4154141"><ele>497.0</ele><time>2026-04-26T14:20:56.07Z</time></trkpt><trkpt lat="38.0077702" lon="13.4153472"><ele>497.6666666666667</ele><time>2026-04-26T14:20:57.07Z</time></trkpt><trkpt lat="38.0078205" lon="13.4152691"><ele>498.33333333333337</ele><time>2026-04-26T14:20:58.07Z</time></trkpt><trkpt lat="38.0078644" lon="13.4151862"><ele>499.0</ele><time>2026-04-26T14:20:59.07Z</time></trkpt><trkpt lat="38.0079094" lon="13.4151053"><ele>499.00000000000006</ele><time>2026-04-26T14:21:00.07Z</time></trkpt><trkpt lat="38.0079583" lon="13.4150297"><ele>499.0</ele><time>2026-04-26T14:21:01.07Z</time></trkpt><trkpt lat="38.0080094" lon="13.4149656"><ele>499.00000000000006</ele><time>2026-04-26T14:21:02.07Z</time></trkpt><trkpt lat="38.0080665" lon="13.4149076"><ele>499.00000000000006</ele><time>2026-04-26T14:21:03.07Z</time></trkpt><trkpt lat="38.008124" lon="13.4148535"><ele>499.0</ele><time>2026-04-26T14:21:04.07Z</time></trkpt><trkpt lat="38.008184" lon="13.4147997"><ele>499.00000000000006</ele><time>2026-04-26T14:21:05.07Z</time></trkpt><trkpt lat="38.0082394" lon="13.4147414"><ele>499.00000000000006</ele><time>2026-04-26T14:21:06.07Z</time></trkpt><trkpt lat="38.0082969" lon="13.4146904"><ele>501.00000000000006</ele><time>2026-04-26T14:21:07.07Z</time></trkpt><trkpt lat="38.0083541" lon="13.4146392"><ele>503.0</ele><time>2026-04-26T14:21:08.071Z</time></trkpt><trkpt lat="38.0084115" lon="13.4145901"><ele>505.0</ele><time>2026-04-26T14:21:09.07Z</time></trkpt><trkpt lat="38.0084671" lon="13.4145356"><ele>507.0</ele><time>2026-04-26T14:21:10.07Z</time></trkpt><trkpt lat="38.008521" lon="13.4144804"><ele>509.00000000000006</ele><time>2026-04-26T14:21:11.07Z</time></trkpt><trkpt lat="38.0085863" lon="13.4144211"><ele>511.0</ele><time>2026-04-26T14:21:13.071Z</time></trkpt><trkpt lat="38.008666" lon="13.41432"><ele>511.00000000000006</ele><time>2026-04-26T14:22:09.07Z</time></trkpt><trkpt lat="38.0087627" lon="13.4142084"><ele>511.0</ele><time>2026-04-26T14:22:11.07Z</time></trkpt><trkpt lat="38.0088162" lon="13.4141492"><ele>511.0</ele><time>2026-04-26T14:22:12.07Z</time></trkpt><trkpt lat="38.0088715" lon="13.4140907"><ele>511.0</ele><time>2026-04-26T14:22:13.07Z</time></trkpt><trkpt lat="38.0089278" lon="13.4140229"><ele>511.00000000000006</ele><time>2026-04-26T14:22:14.07Z</time></trkpt><trkpt lat="38.0089834" lon="13.4139537"><ele>511.0</ele><time>2026-04-26T14:22:15.07Z</time></trkpt><trkpt lat="38.0090409" lon="13.4138839"><ele>511.0</ele><time>2026-04-26T14:22:16.07Z</time></trkpt><trkpt lat="38.0091006" lon="13.413827"><ele>511.0</ele><time>2026-04-26T14:22:17.07Z</time></trkpt><trkpt lat="38.0091627" lon="13.4137725"><ele>511.0</ele><time>2026-04-26T14:22:18.07Z</time></trkpt><trkpt lat="38.0092202" lon="13.4137103"><ele>511.0</ele><time>2026-04-26T14:22:19.07Z</time></trkpt><trkpt lat="38.0092731" lon="13.4136389"><ele>511.0</ele><time>2026-04-26T14:22:20.07Z</time></trkpt><trkpt lat="38.0093204" lon="13.4135708"><ele>511.0</ele><time>2026-04-26T14:22:21.071Z</time></trkpt><trkpt lat="38.0093673" lon="13.4135109"><ele>511.0</ele><time>2026-04-26T14:22:22.07Z</time></trkpt><trkpt lat="38.0094191" lon="13.413454"><ele>513.0</ele><time>2026-04-26T14:22:23.07Z</time></trkpt><trkpt lat="38.0094745" lon="13.4133969"><ele>515.0</ele><time>2026-04-26T14:22:24.07Z</time></trkpt><trkpt lat="38.009537" lon="13.4133421"><ele>517.0</ele><time>2026-04-26T14:22:25.07Z</time></trkpt><trkpt lat="38.0096057" lon="13.4132878"><ele>519.0</ele><time>2026-04-26T14:22:26.071Z</time></trkpt><trkpt lat="38.0096729" lon="13.4132328"><ele>521.0</ele><time>2026-04-26T14:22:27.07Z</time></trkpt><trkpt lat="38.0097382" lon="13.4131809"><ele>523.0</ele><time>2026-04-26T14:22:28.07Z</time></trkpt><trkpt lat="38.0098033" lon="13.4131373"><ele>523.0</ele><time>2026-04-26T14:22:29.07Z</time></trkpt><trkpt lat="38.0098657" lon="13.4130983"><ele>523.0</ele><time>2026-04-26T14:22:30.07Z</time></trkpt><trkpt lat="38.0099336" lon="13.4130462"><ele>523.0</ele><time>2026-04-26T14:22:31.07Z</time></trkpt><trkpt lat="38.0100066" lon="13.4129842"><ele>523.0</ele><time>2026-04-26T14:22:32.07Z</time></trkpt><trkpt lat="38.0100794" lon="13.4129224"><ele>523.0</ele><time>2026-04-26T14:22:33.07Z</time></trkpt><trkpt lat="38.0101493" lon="13.4128557"><ele>523.0</ele><time>2026-04-26T14:22:34.07Z</time></trkpt><trkpt lat="38.0102148" lon="13.4127951"><ele>524.3333333333334</ele><time>2026-04-26T14:22:35.07Z</time></trkpt><trkpt lat="38.0102779" lon="13.4127456"><ele>525.6666666666667</ele><time>2026-04-26T14:22:36.07Z</time></trkpt><trkpt lat="38.0103425" lon="13.4126982"><ele>527.0</ele><time>2026-04-26T14:22:37.07Z</time></trkpt><trkpt lat="38.0104066" lon="13.4126547"><ele>528.3333333333334</ele><time>2026-04-26T14:22:38.07Z</time></trkpt><trkpt lat="38.010473" lon="13.4126088"><ele>529.6666666666666</ele><time>2026-04-26T14:22:39.07Z</time></trkpt><trkpt lat="38.0105408" lon="13.412554"><ele>531.0</ele><time>2026-04-26T14:22:40.07Z</time></trkpt><trkpt lat="38.0106075" lon="13.4124949"><ele>531.0</ele><time>2026-04-26T14:22:41.07Z</time></trkpt><trkpt lat="38.0106747" lon="13.4124383"><ele>531.0</ele><time>2026-04-26T14:22:42.07Z</time></trkpt><trkpt lat="38.0107383" lon="13.4123835"><ele>531.0</ele><time>2026-04-26T14:22:43.07Z</time></trkpt><trkpt lat="38.0107984" lon="13.4123281"><ele>531.0</ele><time>2026-04-26T14:22:44.07Z</time></trkpt><trkpt lat="38.0108518" lon="13.4122637"><ele>531.0</ele><time>2026-04-26T14:22:45.071Z</time></trkpt><trkpt lat="38.0109033" lon="13.4121986"><ele>531.0</ele><time>2026-04-26T14:22:46.07Z</time></trkpt><trkpt lat="38.0109543" lon="13.4121346"><ele>532.4285714285714</ele><time>2026-04-26T14:22:47.071Z</time></trkpt><trkpt lat="38.0110068" lon="13.4120764"><ele>533.8571428571429</ele><time>2026-04-26T14:22:48.07Z</time></trkpt><trkpt lat="38.011066" lon="13.412028"><ele>535.2857142857143</ele><time>2026-04-26T14:22:49.07Z</time></trkpt><trkpt lat="38.0111249" lon="13.4119748"><ele>536.7142857142858</ele><time>2026-04-26T14:22:50.07Z</time></trkpt><trkpt lat="38.0111813" lon="13.4119177"><ele>538.1428571428571</ele><time>2026-04-26T14:22:51.07Z</time></trkpt><trkpt lat="38.0112334" lon="13.4118533"><ele>539.5714285714287</ele><time>2026-04-26T14:22:52.07Z</time></trkpt><trkpt lat="38.0112783" lon="13.4117806"><ele>541.0</ele><time>2026-04-26T14:22:53.07Z</time></trkpt><trkpt lat="38.011316" lon="13.4117039"><ele>541.0</ele><time>2026-04-26T14:22:54.069Z</time></trkpt><trkpt lat="38.0113514" lon="13.4116256"><ele>541.0</ele><time>2026-04-26T14:22:55.069Z</time></trkpt><trkpt lat="38.0113906" lon="13.4115514"><ele>541.0</ele><time>2026-04-26T14:22:56.069Z</time></trkpt><trkpt lat="38.0114258" lon="13.4114745"><ele>541.0</ele><time>2026-04-26T14:22:57.069Z</time></trkpt><trkpt lat="38.0114581" lon="13.4114"><ele>541.0</ele><time>2026-04-26T14:22:58.069Z</time></trkpt><trkpt lat="38.0114933" lon="13.4113203"><ele>541.0</ele><time>2026-04-26T14:23:00.07Z</time></trkpt><trkpt lat="38.0115137" lon="13.4111832"><ele>541.3333333333334</ele><time>2026-04-26T14:23:03.07Z</time></trkpt><trkpt lat="38.0115127" lon="13.4110226"><ele>541.6666666666667</ele><time>2026-04-26T14:23:05.069Z</time></trkpt><trkpt lat="38.0115131" lon="13.4109292"><ele>542.0</ele><time>2026-04-26T14:23:06.069Z</time></trkpt><trkpt lat="38.0115179" lon="13.4108365"><ele>542.3333333333334</ele><time>2026-04-26T14:23:07.069Z</time></trkpt><trkpt lat="38.0115217" lon="13.4107442"><ele>542.6666666666666</ele><time>2026-04-26T14:23:08.069Z</time></trkpt><trkpt lat="38.0115224" lon="13.4106582"><ele>543.0</ele><time>2026-04-26T14:23:09.069Z</time></trkpt><trkpt lat="38.011522" lon="13.4105732"><ele>542.8333333333334</ele><time>2026-04-26T14:23:10.069Z</time></trkpt><trkpt lat="38.0115201" lon="13.4104897"><ele>542.6666666666666</ele><time>2026-04-26T14:23:11.069Z</time></trkpt><trkpt lat="38.0115095" lon="13.4103408"><ele>542.5</ele><time>2026-04-26T14:23:13.069Z</time></trkpt><trkpt lat="38.0115037" lon="13.4102597"><ele>542.3333333333333</ele><time>2026-04-26T14:23:14.069Z</time></trkpt><trkpt lat="38.0115009" lon="13.4101768"><ele>542.1666666666666</ele><time>2026-04-26T14:23:15.069Z</time></trkpt><trkpt lat="38.0115138" lon="13.4100241"><ele>542.0</ele><time>2026-04-26T14:23:17.069Z</time></trkpt><trkpt lat="38.0115426" lon="13.409873"><ele>542.0</ele><time>2026-04-26T14:23:19.07Z</time></trkpt><trkpt lat="38.0115656" lon="13.4097355"><ele>542.0</ele><time>2026-04-26T14:23:21.069Z</time></trkpt><trkpt lat="38.01158" lon="13.409604"><ele>542.0</ele><time>2026-04-26T14:23:23.069Z</time></trkpt><trkpt lat="38.0116081" lon="13.4094533"><ele>542.0</ele><time>2026-04-26T14:23:25.07Z</time></trkpt><trkpt lat="38.0116271" lon="13.4093681"><ele>542.0</ele><time>2026-04-26T14:23:26.069Z</time></trkpt><trkpt lat="38.011651" lon="13.4092772"><ele>544.1666666666666</ele><time>2026-04-26T14:23:27.07Z</time></trkpt><trkpt lat="38.0116714" lon="13.4091801"><ele>546.3333333333333</ele><time>2026-04-26T14:23:28.07Z</time></trkpt><trkpt lat="38.0116921" lon="13.4090841"><ele>548.5</ele><time>2026-04-26T14:23:29.069Z</time></trkpt><trkpt lat="38.0117117" lon="13.4089934"><ele>550.6666666666666</ele><time>2026-04-26T14:23:30.069Z</time></trkpt><trkpt lat="38.0117277" lon="13.4088998"><ele>552.8333333333334</ele><time>2026-04-26T14:23:31.069Z</time></trkpt><trkpt lat="38.0117418" lon="13.4088079"><ele>555.0</ele><time>2026-04-26T14:23:32.069Z</time></trkpt><trkpt lat="38.0117614" lon="13.4087168"><ele>555.0000000000001</ele><time>2026-04-26T14:23:33.069Z</time></trkpt><trkpt lat="38.0117832" lon="13.4086214"><ele>555.0</ele><time>2026-04-26T14:23:34.069Z</time></trkpt><trkpt lat="38.0118039" lon="13.4085246"><ele>555.0</ele><time>2026-04-26T14:23:35.07Z</time></trkpt><trkpt lat="38.0118203" lon="13.4084272"><ele>555.0</ele><time>2026-04-26T14:23:36.069Z</time></trkpt><trkpt lat="38.0118309" lon="13.4083352"><ele>555.0</ele><time>2026-04-26T14:23:37.069Z</time></trkpt><trkpt lat="38.0118417" lon="13.4082467"><ele>555.0000000000001</ele><time>2026-04-26T14:23:38.069Z</time></trkpt><trkpt lat="38.0118508" lon="13.408159"><ele>555.0</ele><time>2026-04-26T14:23:39.069Z</time></trkpt><trkpt lat="38.0118554" lon="13.4080734"><ele>555.2857142857143</ele><time>2026-04-26T14:23:40.069Z</time></trkpt><trkpt lat="38.0118646" lon="13.4079903"><ele>555.5714285714286</ele><time>2026-04-26T14:23:41.069Z</time></trkpt><trkpt lat="38.0118697" lon="13.4078967"><ele>555.8571428571429</ele><time>2026-04-26T14:23:42.069Z</time></trkpt><trkpt lat="38.0118793" lon="13.4078045"><ele>556.1428571428571</ele><time>2026-04-26T14:23:43.069Z</time></trkpt><trkpt lat="38.0118906" lon="13.4077112"><ele>556.4285714285714</ele><time>2026-04-26T14:23:44.07Z</time></trkpt><trkpt lat="38.0119031" lon="13.4076217"><ele>556.7142857142858</ele><time>2026-04-26T14:23:45.069Z</time></trkpt><trkpt lat="38.0119201" lon="13.4075351"><ele>557.0</ele><time>2026-04-26T14:23:46.069Z</time></trkpt><trkpt lat="38.0119417" lon="13.4074428"><ele>557.0</ele><time>2026-04-26T14:23:47.069Z</time></trkpt><trkpt lat="38.0119585" lon="13.4073472"><ele>557.0</ele><time>2026-04-26T14:23:48.069Z</time></trkpt><trkpt lat="38.0119696" lon="13.4072426"><ele>557.0</ele><time>2026-04-26T14:23:49.07Z</time></trkpt><trkpt lat="38.0119762" lon="13.407129"><ele>557.0</ele><time>2026-04-26T14:23:50.069Z</time></trkpt><trkpt lat="38.011979" lon="13.4070075"><ele>557.0</ele><time>2026-04-26T14:23:51.069Z</time></trkpt><trkpt lat="38.011976" lon="13.4068934"><ele>557.0</ele><time>2026-04-26T14:23:52.069Z</time></trkpt><trkpt lat="38.0119703" lon="13.4067917"><ele>557.8571428571429</ele><time>2026-04-26T14:23:53.07Z</time></trkpt><trkpt lat="38.0119659" lon="13.4067001"><ele>558.7142857142857</ele><time>2026-04-26T14:23:54.069Z</time></trkpt><trkpt lat="38.011966" lon="13.4066119"><ele>559.5714285714286</ele><time>2026-04-26T14:23:55.069Z</time></trkpt><trkpt lat="38.0119753" lon="13.4065268"><ele>560.4285714285714</ele><time>2026-04-26T14:23:56.069Z</time></trkpt><trkpt lat="38.0119817" lon="13.4064376"><ele>561.2857142857143</ele><time>2026-04-26T14:23:57.069Z</time></trkpt><trkpt lat="38.0119814" lon="13.4063546"><ele>562.1428571428571</ele><time>2026-04-26T14:23:58.069Z</time></trkpt><trkpt lat="38.0119761" lon="13.4062588"><ele>563.0</ele><time>2026-04-26T14:23:59.069Z</time></trkpt><trkpt lat="38.0119642" lon="13.406161"><ele>564.3333333333333</ele><time>2026-04-26T14:24:00.07Z</time></trkpt><trkpt lat="38.0119574" lon="13.4060562"><ele>565.6666666666666</ele><time>2026-04-26T14:24:01.069Z</time></trkpt><trkpt lat="38.0119545" lon="13.4059511"><ele>567.0</ele><time>2026-04-26T14:24:02.069Z</time></trkpt><trkpt lat="38.0119552" lon="13.405848"><ele>568.3333333333334</ele><time>2026-04-26T14:24:03.069Z</time></trkpt><trkpt lat="38.0119541" lon="13.4057432"><ele>569.6666666666667</ele><time>2026-04-26T14:24:04.069Z</time></trkpt><trkpt lat="38.0119535" lon="13.405636"><ele>571.0</ele><time>2026-04-26T14:24:05.07Z</time></trkpt><trkpt lat="38.0119572" lon="13.4055294"><ele>571.8333333333334</ele><time>2026-04-26T14:24:06.07Z</time></trkpt><trkpt lat="38.0119585" lon="13.405424"><ele>572.6666666666667</ele><time>2026-04-26T14:24:07.069Z</time></trkpt><trkpt lat="38.0119635" lon="13.4053158"><ele>573.5</ele><time>2026-04-26T14:24:08.069Z</time></trkpt><trkpt lat="38.0119738" lon="13.4052109"><ele>574.3333333333334</ele><time>2026-04-26T14:24:09.069Z</time></trkpt><trkpt lat="38.0119893" lon="13.4051073"><ele>575.1666666666666</ele><time>2026-04-26T14:24:10.069Z</time></trkpt><trkpt lat="38.0120105" lon="13.4050062"><ele>576.0</ele><time>2026-04-26T14:24:11.069Z</time></trkpt><trkpt lat="38.0120333" lon="13.4049086"><ele>576.0</ele><time>2026-04-26T14:24:12.069Z</time></trkpt><trkpt lat="38.0120512" lon="13.4048156"><ele>576.0</ele><time>2026-04-26T14:24:13.07Z</time></trkpt><trkpt lat="38.012061" lon="13.4047162"><ele>576.0</ele><time>2026-04-26T14:24:14.069Z</time></trkpt><trkpt lat="38.0120627" lon="13.4046183"><ele>576.0</ele><time>2026-04-26T14:24:15.069Z</time></trkpt><trkpt lat="38.0120708" lon="13.4045213"><ele>576.0</ele><time>2026-04-26T14:24:16.069Z</time></trkpt><trkpt lat="38.0120819" lon="13.4044257"><ele>576.0</ele><time>2026-04-26T14:24:17.069Z</time></trkpt><trkpt lat="38.0120986" lon="13.4043313"><ele>576.6666666666666</ele><time>2026-04-26T14:24:18.069Z</time></trkpt><trkpt lat="38.0121179" lon="13.4042325"><ele>577.3333333333334</ele><time>2026-04-26T14:24:19.069Z</time></trkpt><trkpt lat="38.0121445" lon="13.40413"><ele>578.0</ele><time>2026-04-26T14:24:20.069Z</time></trkpt><trkpt lat="38.0121763" lon="13.4040314"><ele>578.6666666666667</ele><time>2026-04-26T14:24:21.069Z</time></trkpt><trkpt lat="38.0122053" lon="13.4039315"><ele>579.3333333333334</ele><time>2026-04-26T14:24:22.069Z</time></trkpt><trkpt lat="38.0122338" lon="13.4038485"><ele>580.0</ele><time>2026-04-26T14:24:23.069Z</time></trkpt><trkpt lat="38.0122869" lon="13.4037164"><ele>582.6</ele><time>2026-04-26T14:24:25.069Z</time></trkpt><trkpt lat="38.0123198" lon="13.4036429"><ele>585.2</ele><time>2026-04-26T14:24:28.069Z</time></trkpt><trkpt lat="38.0122605" lon="13.4035983"><ele>587.8</ele><time>2026-04-26T14:24:31.069Z</time></trkpt><trkpt lat="38.0121774" lon="13.4035748"><ele>590.4</ele><time>2026-04-26T14:24:33.069Z</time></trkpt><trkpt lat="38.0120711" lon="13.4035065"><ele>593.0</ele><time>2026-04-26T14:24:35.069Z</time></trkpt><trkpt lat="38.0119847" lon="13.4034038"><ele>593.0</ele><time>2026-04-26T14:24:37.069Z</time></trkpt><trkpt lat="38.0119474" lon="13.4032681"><ele>593.0</ele><time>2026-04-26T14:24:39.069Z</time></trkpt><trkpt lat="38.0119239" lon="13.4031311"><ele>593.0</ele><time>2026-04-26T14:24:41.069Z</time></trkpt><trkpt lat="38.0118852" lon="13.4029917"><ele>593.0</ele><time>2026-04-26T14:24:43.07Z</time></trkpt><trkpt lat="38.0118477" lon="13.4028595"><ele>594.1999999999999</ele><time>2026-04-26T14:24:45.069Z</time></trkpt><trkpt lat="38.0118089" lon="13.4027274"><ele>595.4</ele><time>2026-04-26T14:24:47.069Z</time></trkpt><trkpt lat="38.0117696" lon="13.4025943"><ele>596.5999999999999</ele><time>2026-04-26T14:24:49.069Z</time></trkpt><trkpt lat="38.0117427" lon="13.4024706"><ele>597.8</ele><time>2026-04-26T14:24:51.07Z</time></trkpt><trkpt lat="38.0117255" lon="13.4023602"><ele>599.0</ele><time>2026-04-26T14:24:53.07Z</time></trkpt><trkpt lat="38.0116798" lon="13.4022869"><ele>604.6</ele><time>2026-04-26T14:24:55.069Z</time></trkpt><trkpt lat="38.011613" lon="13.4023084"><ele>610.2</ele><time>2026-04-26T14:24:58.069Z</time></trkpt><trkpt lat="38.0115576" lon="13.4024369"><ele>615.8000000000001</ele><time>2026-04-26T14:25:00.069Z</time></trkpt><trkpt lat="38.0115179" lon="13.4025731"><ele>621.4</ele><time>2026-04-26T14:25:02.069Z</time></trkpt><trkpt lat="38.0114636" lon="13.4026979"><ele>627.0</ele><time>2026-04-26T14:25:04.07Z</time></trkpt><trkpt lat="38.0113999" lon="13.4028193"><ele>627.0</ele><time>2026-04-26T14:25:06.069Z</time></trkpt><trkpt lat="38.011328" lon="13.4029233"><ele>627.0</ele><time>2026-04-26T14:25:08.069Z</time></trkpt><trkpt lat="38.0112419" lon="13.4029978"><ele>627.0</ele><time>2026-04-26T14:25:10.069Z</time></trkpt><trkpt lat="38.0111351" lon="13.4030601"><ele>627.0</ele><time>2026-04-26T14:25:12.069Z</time></trkpt><trkpt lat="38.011031" lon="13.4031243"><ele>627.0</ele><time>2026-04-26T14:25:14.069Z</time></trkpt><trkpt lat="38.0109448" lon="13.4031805"><ele>628.8000000000001</ele><time>2026-04-26T14:25:16.069Z</time></trkpt><trkpt lat="38.0108704" lon="13.4032358"><ele>630.6</ele><time>2026-04-26T14:25:18.069Z</time></trkpt><trkpt lat="38.0108017" lon="13.4033082"><ele>632.4000000000001</ele><time>2026-04-26T14:25:20.07Z</time></trkpt><trkpt lat="38.0107391" lon="13.4034127"><ele>634.2</ele><time>2026-04-26T14:25:22.069Z</time></trkpt><trkpt lat="38.0106828" lon="13.4035176"><ele>636.0</ele><time>2026-04-26T14:25:24.068Z</time></trkpt><trkpt lat="38.0106281" lon="13.4036353"><ele>636.0</ele><time>2026-04-26T14:25:26.069Z</time></trkpt><trkpt lat="38.0105552" lon="13.4037357"><ele>636.0</ele><time>2026-04-26T14:25:28.069Z</time></trkpt><trkpt lat="38.0104715" lon="13.4037931"><ele>636.0</ele><time>2026-04-26T14:25:30.07Z</time></trkpt><trkpt lat="38.0103814" lon="13.4038326"><ele>636.0</ele><time>2026-04-26T14:25:32.069Z</time></trkpt><trkpt lat="38.0103096" lon="13.4038836"><ele>636.0</ele><time>2026-04-26T14:25:34.069Z</time></trkpt><trkpt lat="38.010242" lon="13.4039653"><ele>635.0</ele><time>2026-04-26T14:25:36.069Z</time></trkpt><trkpt lat="38.0101763" lon="13.4040524"><ele>634.0</ele><time>2026-04-26T14:25:38.07Z</time></trkpt><trkpt lat="38.010129" lon="13.4041427"><ele>633.0</ele><time>2026-04-26T14:25:40.069Z</time></trkpt><trkpt lat="38.0100956" lon="13.4042449"><ele>632.0</ele><time>2026-04-26T14:25:42.069Z</time></trkpt><trkpt lat="38.0100749" lon="13.4043402"><ele>631.0</ele><time>2026-04-26T14:25:45.069Z</time></trkpt><trkpt lat="38.0100383" lon="13.404443"><ele>630.0</ele><time>2026-04-26T14:25:48.07Z</time></trkpt><trkpt lat="38.0099744" lon="13.4044225"><ele>637.3333333333334</ele><time>2026-04-26T14:25:50.069Z</time></trkpt><trkpt lat="38.0099473" lon="13.4043278"><ele>644.6666666666666</ele><time>2026-04-26T14:25:52.069Z</time></trkpt><trkpt lat="38.0099616" lon="13.4042273"><ele>652.0</ele><time>2026-04-26T14:25:54.069Z</time></trkpt><trkpt lat="38.0099662" lon="13.4041343"><ele>659.3333333333333</ele><time>2026-04-26T14:25:57.069Z</time></trkpt><trkpt lat="38.00996" lon="13.4040307"><ele>666.6666666666666</ele><time>2026-04-26T14:25:59.069Z</time></trkpt><trkpt lat="38.009954" lon="13.4039405"><ele>674.0</ele><time>2026-04-26T14:26:01.069Z</time></trkpt><trkpt lat="38.009948" lon="13.4038511"><ele>673.3333333333333</ele><time>2026-04-26T14:26:47.069Z</time></trkpt><trkpt lat="38.0099409" lon="13.4037687"><ele>672.6666666666666</ele><time>2026-04-26T14:26:49.07Z</time></trkpt><trkpt lat="38.0099323" lon="13.4036669"><ele>672.0</ele><time>2026-04-26T14:26:51.069Z</time></trkpt><trkpt lat="38.0099168" lon="13.403552"><ele>671.3333333333334</ele><time>2026-04-26T14:26:53.07Z</time></trkpt><trkpt lat="38.0099032" lon="13.4034499"><ele>670.6666666666667</ele><time>2026-04-26T14:26:55.069Z</time></trkpt><trkpt lat="38.0098987" lon="13.4033483"><ele>670.0</ele><time>2026-04-26T14:26:57.069Z</time></trkpt><trkpt lat="38.0098953" lon="13.4032536"><ele>670.0</ele><time>2026-04-26T14:26:59.069Z</time></trkpt><trkpt lat="38.009915" lon="13.4031486"><ele>670.0</ele><time>2026-04-26T14:27:01.069Z</time></trkpt><trkpt lat="38.0099415" lon="13.4030487"><ele>670.0</ele><time>2026-04-26T14:27:03.07Z</time></trkpt><trkpt lat="38.0099568" lon="13.4029593"><ele>670.0</ele><time>2026-04-26T14:27:05.069Z</time></trkpt><trkpt lat="38.0099704" lon="13.4028615"><ele>670.0</ele><time>2026-04-26T14:27:07.069Z</time></trkpt><trkpt lat="38.0099869" lon="13.4027539"><ele>670.0</ele><time>2026-04-26T14:27:09.07Z</time></trkpt><trkpt lat="38.0100091" lon="13.4025975"><ele>666.5</ele><time>2026-04-26T14:27:11.069Z</time></trkpt><trkpt lat="38.0100246" lon="13.4024994"><ele>663.0</ele><time>2026-04-26T14:27:12.07Z</time></trkpt><trkpt lat="38.0100391" lon="13.4023958"><ele>659.5</ele><time>2026-04-26T14:27:13.069Z</time></trkpt><trkpt lat="38.0100507" lon="13.4023068"><ele>656.0</ele><time>2026-04-26T14:27:14.07Z</time></trkpt><trkpt lat="38.0100567" lon="13.4021691"><ele>652.5</ele><time>2026-04-26T14:27:16.069Z</time></trkpt><trkpt lat="38.0100474" lon="13.4020508"><ele>649.0</ele><time>2026-04-26T14:27:18.069Z</time></trkpt><trkpt lat="38.0099955" lon="13.4019665"><ele>648.1666666666667</ele><time>2026-04-26T14:27:20.069Z</time></trkpt><trkpt lat="38.0099312" lon="13.4019056"><ele>647.3333333333334</ele><time>2026-04-26T14:27:22.069Z</time></trkpt><trkpt lat="38.0098629" lon="13.401854"><ele>646.5</ele><time>2026-04-26T14:27:25.069Z</time></trkpt><trkpt lat="38.0097766" lon="13.401862"><ele>645.6666666666666</ele><time>2026-04-26T14:27:28.069Z</time></trkpt><trkpt lat="38.0097048" lon="13.4019193"><ele>644.8333333333333</ele><time>2026-04-26T14:27:30.069Z</time></trkpt><trkpt lat="38.0096293" lon="13.4019697"><ele>644.0</ele><time>2026-04-26T14:27:32.069Z</time></trkpt><trkpt lat="38.0095416" lon="13.4020208"><ele>644.0</ele><time>2026-04-26T14:27:34.069Z</time></trkpt><trkpt lat="38.009458" lon="13.4020654"><ele>644.0</ele><time>2026-04-26T14:27:36.07Z</time></trkpt><trkpt lat="38.0093839" lon="13.4021061"><ele>644.0</ele><time>2026-04-26T14:27:38.069Z</time></trkpt><trkpt lat="38.0093159" lon="13.4021344"><ele>644.0</ele><time>2026-04-26T14:27:40.069Z</time></trkpt><trkpt lat="38.0092395" lon="13.4021692"><ele>644.0</ele><time>2026-04-26T14:27:42.069Z</time></trkpt><trkpt lat="38.0091633" lon="13.4022009"><ele>644.0</ele><time>2026-04-26T14:27:44.069Z</time></trkpt><trkpt lat="38.0090837" lon="13.4022333"><ele>648.4000000000001</ele><time>2026-04-26T14:27:46.07Z</time></trkpt><trkpt lat="38.0090099" lon="13.4022763"><ele>652.8</ele><time>2026-04-26T14:27:48.069Z</time></trkpt><trkpt lat="38.0088888" lon="13.4023257"><ele>657.2</ele><time>2026-04-26T14:27:50.069Z</time></trkpt><trkpt lat="38.0088082" lon="13.4023721"><ele>661.5999999999999</ele><time>2026-04-26T14:27:51.07Z</time></trkpt><trkpt lat="38.0087282" lon="13.4024198"><ele>666.0</ele><time>2026-04-26T14:27:52.069Z</time></trkpt><trkpt lat="38.0086591" lon="13.4024664"><ele>666.0</ele><time>2026-04-26T14:27:53.069Z</time></trkpt><trkpt lat="38.0085667" lon="13.4025472"><ele>666.0</ele><time>2026-04-26T14:27:55.069Z</time></trkpt><trkpt lat="38.0084666" lon="13.4026449"><ele>666.0</ele><time>2026-04-26T14:27:57.07Z</time></trkpt><trkpt lat="38.0084144" lon="13.4026997"><ele>666.0</ele><time>2026-04-26T14:27:58.069Z</time></trkpt><trkpt lat="38.0083611" lon="13.4027553"><ele>666.0</ele><time>2026-04-26T14:27:59.069Z</time></trkpt><trkpt lat="38.0083101" lon="13.4028083"><ele>666.0</ele><time>2026-04-26T14:28:00.069Z</time></trkpt><trkpt lat="38.0082613" lon="13.402862"><ele>667.0</ele><time>2026-04-26T14:28:01.07Z</time></trkpt><trkpt lat="38.008162" lon="13.4029534"><ele>668.0</ele><time>2026-04-26T14:28:03.069Z</time></trkpt><trkpt lat="38.0080892" lon="13.4030126"><ele>669.0</ele><time>2026-04-26T14:28:05.069Z</time></trkpt><trkpt lat="38.0080312" lon="13.4030554"><ele>670.0</ele><time>2026-04-26T14:28:07.069Z</time></trkpt><trkpt lat="38.0079499" lon="13.4031085"><ele>671.0</ele><time>2026-04-26T14:28:09.069Z</time></trkpt><trkpt lat="38.0078348" lon="13.4031658"><ele>673.8333333333333</ele><time>2026-04-26T14:28:11.069Z</time></trkpt><trkpt lat="38.0077636" lon="13.4031886"><ele>676.6666666666666</ele><time>2026-04-26T14:28:12.069Z</time></trkpt><trkpt lat="38.0076897" lon="13.4032007"><ele>679.5</ele><time>2026-04-26T14:28:13.07Z</time></trkpt><trkpt lat="38.0076163" lon="13.4032077"><ele>682.3333333333334</ele><time>2026-04-26T14:28:14.069Z</time></trkpt><trkpt lat="38.0075467" lon="13.4032073"><ele>685.1666666666667</ele><time>2026-04-26T14:28:15.069Z</time></trkpt><trkpt lat="38.0074381" lon="13.4031749"><ele>688.0</ele><time>2026-04-26T14:28:17.069Z</time></trkpt><trkpt lat="38.0073252" lon="13.4031067"><ele>713.0</ele><time>2026-04-26T14:28:19.069Z</time></trkpt><trkpt lat="38.0072683" lon="13.4030538"><ele>713.0</ele><time>2026-04-26T14:28:20.069Z</time></trkpt><trkpt lat="38.0072139" lon="13.4029967"><ele>698.0</ele><time>2026-04-26T14:28:21.069Z</time></trkpt><trkpt lat="38.0071643" lon="13.4029314"><ele>698.0</ele><time>2026-04-26T14:28:22.069Z</time></trkpt><trkpt lat="38.0071097" lon="13.4028484"><ele>698.0</ele><time>2026-04-26T14:28:23.069Z</time></trkpt><trkpt lat="38.0070504" lon="13.4027625"><ele>698.0</ele><time>2026-04-26T14:28:24.069Z</time></trkpt></trkseg></trk></gpx>